<?xml version="1.0" encoding="UTF-8" standalone="no" ?>
<gpx xmlns="http://www.topografix.com/GPX/1/1" xmlns:xsi="http://www.w3.org/2001/XMLSchema-instance" xsi:schemaLocation="http://www.topografix.com/GPX/1/1 http://www.topografix.com/GPX/1/1/gpx.xsd" version="1.1" creator="VisuGPX - https://www.visugpx.com">
  <metadata>
    <name>Mont Jovet par le pas des Brebis</name>
    <desc><![CDATA[Départ de Plagne Centre]]></desc>
  </metadata>
  <trk>
    <name><![CDATA[Tracé actuel: 05 DEC 2015 08:55]]></name>
    <trkseg>
      <trkpt lat="45.50594" lon="6.67923">
        <ele>1805.97</ele>
        <time>2015-12-05T07:55:08Z</time>
      </trkpt>
      <trkpt lat="45.50593" lon="6.67921">
        <ele>1805.97</ele>
        <time>2015-12-05T07:55:38Z</time>
      </trkpt>
      <trkpt lat="45.50578" lon="6.67892">
        <ele>1805.97</ele>
        <time>2015-12-05T07:56:13Z</time>
      </trkpt>
      <trkpt lat="45.50564" lon="6.67861">
        <ele>1805.49</ele>
        <time>2015-12-05T07:56:28Z</time>
      </trkpt>
      <trkpt lat="45.50563" lon="6.67858">
        <ele>1805.97</ele>
        <time>2015-12-05T07:56:34Z</time>
      </trkpt>
      <trkpt lat="45.5056" lon="6.67857">
        <ele>1806.94</ele>
        <time>2015-12-05T07:56:44Z</time>
      </trkpt>
      <trkpt lat="45.5056" lon="6.67855">
        <ele>1808.86</ele>
        <time>2015-12-05T07:57:09Z</time>
      </trkpt>
      <trkpt lat="45.50559" lon="6.67855">
        <ele>1810.3</ele>
        <time>2015-12-05T07:57:23Z</time>
      </trkpt>
      <trkpt lat="45.50558" lon="6.67856">
        <ele>1811.74</ele>
        <time>2015-12-05T07:57:41Z</time>
      </trkpt>
      <trkpt lat="45.50558" lon="6.67852">
        <ele>1812.7</ele>
        <time>2015-12-05T07:57:56Z</time>
      </trkpt>
      <trkpt lat="45.50559" lon="6.67853">
        <ele>1814.63</ele>
        <time>2015-12-05T07:58:16Z</time>
      </trkpt>
      <trkpt lat="45.50559" lon="6.67853">
        <ele>1816.07</ele>
        <time>2015-12-05T07:58:28Z</time>
      </trkpt>
      <trkpt lat="45.50559" lon="6.67854">
        <ele>1817.03</ele>
        <time>2015-12-05T07:58:41Z</time>
      </trkpt>
      <trkpt lat="45.50559" lon="6.67853">
        <ele>1818.95</ele>
        <time>2015-12-05T07:58:58Z</time>
      </trkpt>
      <trkpt lat="45.50559" lon="6.67851">
        <ele>1820.39</ele>
        <time>2015-12-05T07:59:12Z</time>
      </trkpt>
      <trkpt lat="45.5056" lon="6.6785">
        <ele>1821.84</ele>
        <time>2015-12-05T07:59:24Z</time>
      </trkpt>
      <trkpt lat="45.50549" lon="6.67832">
        <ele>1824.72</ele>
        <time>2015-12-05T07:59:39Z</time>
      </trkpt>
      <trkpt lat="45.50544" lon="6.67815">
        <ele>1826.64</ele>
        <time>2015-12-05T07:59:52Z</time>
      </trkpt>
      <trkpt lat="45.50541" lon="6.67806">
        <ele>1828.08</ele>
        <time>2015-12-05T07:59:59Z</time>
      </trkpt>
      <trkpt lat="45.50542" lon="6.67803">
        <ele>1828.56</ele>
        <time>2015-12-05T08:00:01Z</time>
      </trkpt>
      <trkpt lat="45.50542" lon="6.6779">
        <ele>1830.49</ele>
        <time>2015-12-05T08:00:10Z</time>
      </trkpt>
      <trkpt lat="45.50539" lon="6.67767">
        <ele>1832.41</ele>
        <time>2015-12-05T08:00:26Z</time>
      </trkpt>
      <trkpt lat="45.50528" lon="6.6774">
        <ele>1833.85</ele>
        <time>2015-12-05T08:00:38Z</time>
      </trkpt>
      <trkpt lat="45.50536" lon="6.67727">
        <ele>1835.77</ele>
        <time>2015-12-05T08:00:48Z</time>
      </trkpt>
      <trkpt lat="45.5054" lon="6.67719">
        <ele>1836.26</ele>
        <time>2015-12-05T08:00:54Z</time>
      </trkpt>
      <trkpt lat="45.50541" lon="6.67704">
        <ele>1837.7</ele>
        <time>2015-12-05T08:01:05Z</time>
      </trkpt>
      <trkpt lat="45.50521" lon="6.67682">
        <ele>1839.14</ele>
        <time>2015-12-05T08:01:20Z</time>
      </trkpt>
      <trkpt lat="45.5051" lon="6.67662">
        <ele>1840.58</ele>
        <time>2015-12-05T08:01:35Z</time>
      </trkpt>
      <trkpt lat="45.50505" lon="6.67648">
        <ele>1841.06</ele>
        <time>2015-12-05T08:01:44Z</time>
      </trkpt>
      <trkpt lat="45.50504" lon="6.67633">
        <ele>1842.5</ele>
        <time>2015-12-05T08:02:02Z</time>
      </trkpt>
      <trkpt lat="45.505" lon="6.67621">
        <ele>1843.95</ele>
        <time>2015-12-05T08:02:16Z</time>
      </trkpt>
      <trkpt lat="45.50498" lon="6.67616">
        <ele>1843.95</ele>
        <time>2015-12-05T08:02:20Z</time>
      </trkpt>
      <trkpt lat="45.50491" lon="6.67594">
        <ele>1846.35</ele>
        <time>2015-12-05T08:02:38Z</time>
      </trkpt>
      <trkpt lat="45.50486" lon="6.67578">
        <ele>1847.31</ele>
        <time>2015-12-05T08:02:47Z</time>
      </trkpt>
      <trkpt lat="45.50485" lon="6.67556">
        <ele>1847.31</ele>
        <time>2015-12-05T08:03:02Z</time>
      </trkpt>
      <trkpt lat="45.50485" lon="6.6755">
        <ele>1847.79</ele>
        <time>2015-12-05T08:03:06Z</time>
      </trkpt>
      <trkpt lat="45.50483" lon="6.6754">
        <ele>1847.79</ele>
        <time>2015-12-05T08:03:11Z</time>
      </trkpt>
      <trkpt lat="45.50481" lon="6.67522">
        <ele>1848.75</ele>
        <time>2015-12-05T08:03:22Z</time>
      </trkpt>
      <trkpt lat="45.5048" lon="6.675">
        <ele>1850.19</ele>
        <time>2015-12-05T08:03:35Z</time>
      </trkpt>
      <trkpt lat="45.50479" lon="6.67492">
        <ele>1851.64</ele>
        <time>2015-12-05T08:03:40Z</time>
      </trkpt>
      <trkpt lat="45.50479" lon="6.67491">
        <ele>1852.12</ele>
        <time>2015-12-05T08:03:41Z</time>
      </trkpt>
      <trkpt lat="45.50476" lon="6.67469">
        <ele>1853.08</ele>
        <time>2015-12-05T08:03:56Z</time>
      </trkpt>
      <trkpt lat="45.50473" lon="6.67452">
        <ele>1854.04</ele>
        <time>2015-12-05T08:04:08Z</time>
      </trkpt>
      <trkpt lat="45.50467" lon="6.67428">
        <ele>1855.96</ele>
        <time>2015-12-05T08:04:25Z</time>
      </trkpt>
      <trkpt lat="45.50464" lon="6.67405">
        <ele>1857.4</ele>
        <time>2015-12-05T08:04:41Z</time>
      </trkpt>
      <trkpt lat="45.50462" lon="6.67391">
        <ele>1858.85</ele>
        <time>2015-12-05T08:04:52Z</time>
      </trkpt>
      <trkpt lat="45.50453" lon="6.6737">
        <ele>1860.77</ele>
        <time>2015-12-05T08:05:10Z</time>
      </trkpt>
      <trkpt lat="45.50449" lon="6.67364">
        <ele>1862.69</ele>
        <time>2015-12-05T08:05:24Z</time>
      </trkpt>
      <trkpt lat="45.50442" lon="6.67354">
        <ele>1864.61</ele>
        <time>2015-12-05T08:05:40Z</time>
      </trkpt>
      <trkpt lat="45.5044" lon="6.6735">
        <ele>1866.54</ele>
        <time>2015-12-05T08:06:03Z</time>
      </trkpt>
      <trkpt lat="45.50436" lon="6.67333">
        <ele>1868.46</ele>
        <time>2015-12-05T08:06:17Z</time>
      </trkpt>
      <trkpt lat="45.50431" lon="6.67317">
        <ele>1871.82</ele>
        <time>2015-12-05T08:06:31Z</time>
      </trkpt>
      <trkpt lat="45.50427" lon="6.67304">
        <ele>1874.71</ele>
        <time>2015-12-05T08:06:45Z</time>
      </trkpt>
      <trkpt lat="45.50422" lon="6.67296">
        <ele>1878.07</ele>
        <time>2015-12-05T08:06:57Z</time>
      </trkpt>
      <trkpt lat="45.50421" lon="6.67293">
        <ele>1879.51</ele>
        <time>2015-12-05T08:07:01Z</time>
      </trkpt>
      <trkpt lat="45.50415" lon="6.67282">
        <ele>1881.92</ele>
        <time>2015-12-05T08:07:15Z</time>
      </trkpt>
      <trkpt lat="45.50411" lon="6.67275">
        <ele>1884.8</ele>
        <time>2015-12-05T08:07:28Z</time>
      </trkpt>
      <trkpt lat="45.50405" lon="6.67271">
        <ele>1887.21</ele>
        <time>2015-12-05T08:07:41Z</time>
      </trkpt>
      <trkpt lat="45.50399" lon="6.67266">
        <ele>1890.09</ele>
        <time>2015-12-05T08:07:52Z</time>
      </trkpt>
      <trkpt lat="45.50403" lon="6.67254">
        <ele>1892.97</ele>
        <time>2015-12-05T08:08:06Z</time>
      </trkpt>
      <trkpt lat="45.50409" lon="6.67242">
        <ele>1896.34</ele>
        <time>2015-12-05T08:08:20Z</time>
      </trkpt>
      <trkpt lat="45.50415" lon="6.67232">
        <ele>1899.7</ele>
        <time>2015-12-05T08:08:34Z</time>
      </trkpt>
      <trkpt lat="45.50422" lon="6.67221">
        <ele>1902.59</ele>
        <time>2015-12-05T08:08:48Z</time>
      </trkpt>
      <trkpt lat="45.50428" lon="6.67215">
        <ele>1905.95</ele>
        <time>2015-12-05T08:09:00Z</time>
      </trkpt>
      <trkpt lat="45.50436" lon="6.67206">
        <ele>1907.87</ele>
        <time>2015-12-05T08:09:13Z</time>
      </trkpt>
      <trkpt lat="45.50441" lon="6.67198">
        <ele>1911.24</ele>
        <time>2015-12-05T08:09:27Z</time>
      </trkpt>
      <trkpt lat="45.50437" lon="6.67197">
        <ele>1912.68</ele>
        <time>2015-12-05T08:09:38Z</time>
      </trkpt>
      <trkpt lat="45.50429" lon="6.67195">
        <ele>1916.04</ele>
        <time>2015-12-05T08:09:52Z</time>
      </trkpt>
      <trkpt lat="45.50421" lon="6.67192">
        <ele>1918.93</ele>
        <time>2015-12-05T08:10:06Z</time>
      </trkpt>
      <trkpt lat="45.50412" lon="6.67189">
        <ele>1922.29</ele>
        <time>2015-12-05T08:10:19Z</time>
      </trkpt>
      <trkpt lat="45.50401" lon="6.67184">
        <ele>1925.66</ele>
        <time>2015-12-05T08:10:35Z</time>
      </trkpt>
      <trkpt lat="45.50397" lon="6.67181">
        <ele>1928.54</ele>
        <time>2015-12-05T08:10:49Z</time>
      </trkpt>
      <trkpt lat="45.50403" lon="6.67172">
        <ele>1931.43</ele>
        <time>2015-12-05T08:11:04Z</time>
      </trkpt>
      <trkpt lat="45.50411" lon="6.67163">
        <ele>1934.79</ele>
        <time>2015-12-05T08:11:20Z</time>
      </trkpt>
      <trkpt lat="45.50417" lon="6.67154">
        <ele>1937.67</ele>
        <time>2015-12-05T08:11:35Z</time>
      </trkpt>
      <trkpt lat="45.50426" lon="6.67142">
        <ele>1941.04</ele>
        <time>2015-12-05T08:11:53Z</time>
      </trkpt>
      <trkpt lat="45.50433" lon="6.67133">
        <ele>1944.4</ele>
        <time>2015-12-05T08:12:08Z</time>
      </trkpt>
      <trkpt lat="45.50436" lon="6.67121">
        <ele>1947.29</ele>
        <time>2015-12-05T08:12:23Z</time>
      </trkpt>
      <trkpt lat="45.50437" lon="6.6712">
        <ele>1948.25</ele>
        <time>2015-12-05T08:12:27Z</time>
      </trkpt>
      <trkpt lat="45.50434" lon="6.67118">
        <ele>1950.17</ele>
        <time>2015-12-05T08:12:38Z</time>
      </trkpt>
      <trkpt lat="45.50437" lon="6.67111">
        <ele>1951.61</ele>
        <time>2015-12-05T08:12:48Z</time>
      </trkpt>
      <trkpt lat="45.50433" lon="6.67109">
        <ele>1953.06</ele>
        <time>2015-12-05T08:12:58Z</time>
      </trkpt>
      <trkpt lat="45.50425" lon="6.67108">
        <ele>1956.42</ele>
        <time>2015-12-05T08:13:10Z</time>
      </trkpt>
      <trkpt lat="45.50415" lon="6.67105">
        <ele>1958.82</ele>
        <time>2015-12-05T08:13:24Z</time>
      </trkpt>
      <trkpt lat="45.50412" lon="6.67105">
        <ele>1959.78</ele>
        <time>2015-12-05T08:13:34Z</time>
      </trkpt>
      <trkpt lat="45.50417" lon="6.67091">
        <ele>1962.67</ele>
        <time>2015-12-05T08:13:48Z</time>
      </trkpt>
      <trkpt lat="45.50422" lon="6.67084">
        <ele>1965.07</ele>
        <time>2015-12-05T08:14:02Z</time>
      </trkpt>
      <trkpt lat="45.50426" lon="6.67074">
        <ele>1968.44</ele>
        <time>2015-12-05T08:14:16Z</time>
      </trkpt>
      <trkpt lat="45.50431" lon="6.67064">
        <ele>1970.36</ele>
        <time>2015-12-05T08:14:31Z</time>
      </trkpt>
      <trkpt lat="45.50435" lon="6.67058">
        <ele>1972.28</ele>
        <time>2015-12-05T08:14:42Z</time>
      </trkpt>
      <trkpt lat="45.50435" lon="6.67058">
        <ele>1973.24</ele>
        <time>2015-12-05T08:14:58Z</time>
      </trkpt>
      <trkpt lat="45.50441" lon="6.67053">
        <ele>1975.65</ele>
        <time>2015-12-05T08:15:11Z</time>
      </trkpt>
      <trkpt lat="45.50446" lon="6.67045">
        <ele>1979.01</ele>
        <time>2015-12-05T08:15:23Z</time>
      </trkpt>
      <trkpt lat="45.50445" lon="6.67043">
        <ele>1979.01</ele>
        <time>2015-12-05T08:15:24Z</time>
      </trkpt>
      <trkpt lat="45.50438" lon="6.67034">
        <ele>1981.9</ele>
        <time>2015-12-05T08:15:37Z</time>
      </trkpt>
      <trkpt lat="45.50428" lon="6.67026">
        <ele>1985.26</ele>
        <time>2015-12-05T08:15:51Z</time>
      </trkpt>
      <trkpt lat="45.50423" lon="6.67021">
        <ele>1988.62</ele>
        <time>2015-12-05T08:16:02Z</time>
      </trkpt>
      <trkpt lat="45.5042" lon="6.67019">
        <ele>1989.59</ele>
        <time>2015-12-05T08:16:06Z</time>
      </trkpt>
      <trkpt lat="45.50411" lon="6.67013">
        <ele>1992.95</ele>
        <time>2015-12-05T08:16:19Z</time>
      </trkpt>
      <trkpt lat="45.50407" lon="6.67008">
        <ele>1996.32</ele>
        <time>2015-12-05T08:16:30Z</time>
      </trkpt>
      <trkpt lat="45.50404" lon="6.67007">
        <ele>1998.24</ele>
        <time>2015-12-05T08:16:41Z</time>
      </trkpt>
      <trkpt lat="45.50396" lon="6.66996">
        <ele>2001.6</ele>
        <time>2015-12-05T08:16:57Z</time>
      </trkpt>
      <trkpt lat="45.5039" lon="6.66985">
        <ele>2004.01</ele>
        <time>2015-12-05T08:17:12Z</time>
      </trkpt>
      <trkpt lat="45.50389" lon="6.66983">
        <ele>2004.97</ele>
        <time>2015-12-05T08:17:24Z</time>
      </trkpt>
      <trkpt lat="45.50389" lon="6.66985">
        <ele>2005.93</ele>
        <time>2015-12-05T08:17:40Z</time>
      </trkpt>
      <trkpt lat="45.50384" lon="6.66977">
        <ele>2007.37</ele>
        <time>2015-12-05T08:17:52Z</time>
      </trkpt>
      <trkpt lat="45.50379" lon="6.66971">
        <ele>2009.29</ele>
        <time>2015-12-05T08:18:06Z</time>
      </trkpt>
      <trkpt lat="45.50375" lon="6.66962">
        <ele>2012.18</ele>
        <time>2015-12-05T08:18:19Z</time>
      </trkpt>
      <trkpt lat="45.50382" lon="6.66955">
        <ele>2015.54</ele>
        <time>2015-12-05T08:18:31Z</time>
      </trkpt>
      <trkpt lat="45.5039" lon="6.6695">
        <ele>2017.94</ele>
        <time>2015-12-05T08:18:46Z</time>
      </trkpt>
      <trkpt lat="45.50385" lon="6.66944">
        <ele>2020.35</ele>
        <time>2015-12-05T08:18:59Z</time>
      </trkpt>
      <trkpt lat="45.50382" lon="6.66936">
        <ele>2022.75</ele>
        <time>2015-12-05T08:19:13Z</time>
      </trkpt>
      <trkpt lat="45.50387" lon="6.66931">
        <ele>2025.15</ele>
        <time>2015-12-05T08:19:28Z</time>
      </trkpt>
      <trkpt lat="45.50389" lon="6.66926">
        <ele>2027.56</ele>
        <time>2015-12-05T08:19:40Z</time>
      </trkpt>
      <trkpt lat="45.50385" lon="6.66924">
        <ele>2029</ele>
        <time>2015-12-05T08:19:46Z</time>
      </trkpt>
      <trkpt lat="45.50381" lon="6.66918">
        <ele>2031.88</ele>
        <time>2015-12-05T08:20:02Z</time>
      </trkpt>
      <trkpt lat="45.50386" lon="6.66911">
        <ele>2034.77</ele>
        <time>2015-12-05T08:20:15Z</time>
      </trkpt>
      <trkpt lat="45.50383" lon="6.66911">
        <ele>2035.25</ele>
        <time>2015-12-05T08:20:20Z</time>
      </trkpt>
      <trkpt lat="45.5037" lon="6.66912">
        <ele>2036.69</ele>
        <time>2015-12-05T08:20:36Z</time>
      </trkpt>
      <trkpt lat="45.50361" lon="6.6691">
        <ele>2039.57</ele>
        <time>2015-12-05T08:20:50Z</time>
      </trkpt>
      <trkpt lat="45.50359" lon="6.66909">
        <ele>2040.54</ele>
        <time>2015-12-05T08:20:53Z</time>
      </trkpt>
      <trkpt lat="45.5035" lon="6.669">
        <ele>2043.9</ele>
        <time>2015-12-05T08:21:08Z</time>
      </trkpt>
      <trkpt lat="45.50349" lon="6.66895">
        <ele>2045.34</ele>
        <time>2015-12-05T08:21:20Z</time>
      </trkpt>
      <trkpt lat="45.50349" lon="6.66894">
        <ele>2045.34</ele>
        <time>2015-12-05T08:21:21Z</time>
      </trkpt>
      <trkpt lat="45.50355" lon="6.6688">
        <ele>2049.19</ele>
        <time>2015-12-05T08:21:38Z</time>
      </trkpt>
      <trkpt lat="45.50354" lon="6.66877">
        <ele>2050.15</ele>
        <time>2015-12-05T08:21:47Z</time>
      </trkpt>
      <trkpt lat="45.50343" lon="6.66873">
        <ele>2052.55</ele>
        <time>2015-12-05T08:22:02Z</time>
      </trkpt>
      <trkpt lat="45.50333" lon="6.66867">
        <ele>2055.92</ele>
        <time>2015-12-05T08:22:17Z</time>
      </trkpt>
      <trkpt lat="45.50324" lon="6.66861">
        <ele>2058.8</ele>
        <time>2015-12-05T08:22:30Z</time>
      </trkpt>
      <trkpt lat="45.50315" lon="6.66856">
        <ele>2062.17</ele>
        <time>2015-12-05T08:22:43Z</time>
      </trkpt>
      <trkpt lat="45.50309" lon="6.66848">
        <ele>2065.05</ele>
        <time>2015-12-05T08:22:56Z</time>
      </trkpt>
      <trkpt lat="45.5031" lon="6.66839">
        <ele>2067.93</ele>
        <time>2015-12-05T08:23:07Z</time>
      </trkpt>
      <trkpt lat="45.50305" lon="6.66831">
        <ele>2070.34</ele>
        <time>2015-12-05T08:23:19Z</time>
      </trkpt>
      <trkpt lat="45.50306" lon="6.66821">
        <ele>2072.74</ele>
        <time>2015-12-05T08:23:31Z</time>
      </trkpt>
      <trkpt lat="45.50316" lon="6.66811">
        <ele>2075.14</ele>
        <time>2015-12-05T08:23:45Z</time>
      </trkpt>
      <trkpt lat="45.50323" lon="6.66797">
        <ele>2078.03</ele>
        <time>2015-12-05T08:23:59Z</time>
      </trkpt>
      <trkpt lat="45.50327" lon="6.66787">
        <ele>2081.39</ele>
        <time>2015-12-05T08:24:12Z</time>
      </trkpt>
      <trkpt lat="45.50332" lon="6.66774">
        <ele>2084.76</ele>
        <time>2015-12-05T08:24:26Z</time>
      </trkpt>
      <trkpt lat="45.50332" lon="6.66773">
        <ele>2084.76</ele>
        <time>2015-12-05T08:24:27Z</time>
      </trkpt>
      <trkpt lat="45.50324" lon="6.66768">
        <ele>2086.68</ele>
        <time>2015-12-05T08:24:39Z</time>
      </trkpt>
      <trkpt lat="45.50313" lon="6.66765">
        <ele>2090.04</ele>
        <time>2015-12-05T08:24:52Z</time>
      </trkpt>
      <trkpt lat="45.5031" lon="6.66762">
        <ele>2091.97</ele>
        <time>2015-12-05T08:25:06Z</time>
      </trkpt>
      <trkpt lat="45.50313" lon="6.66753">
        <ele>2095.33</ele>
        <time>2015-12-05T08:25:20Z</time>
      </trkpt>
      <trkpt lat="45.50317" lon="6.66743">
        <ele>2098.7</ele>
        <time>2015-12-05T08:25:34Z</time>
      </trkpt>
      <trkpt lat="45.50318" lon="6.66732">
        <ele>2101.58</ele>
        <time>2015-12-05T08:25:50Z</time>
      </trkpt>
      <trkpt lat="45.50312" lon="6.66723">
        <ele>2104.94</ele>
        <time>2015-12-05T08:26:05Z</time>
      </trkpt>
      <trkpt lat="45.50317" lon="6.66714">
        <ele>2106.39</ele>
        <time>2015-12-05T08:26:18Z</time>
      </trkpt>
      <trkpt lat="45.5032" lon="6.66701">
        <ele>2107.83</ele>
        <time>2015-12-05T08:26:30Z</time>
      </trkpt>
      <trkpt lat="45.50319" lon="6.66694">
        <ele>2109.27</ele>
        <time>2015-12-05T08:26:48Z</time>
      </trkpt>
      <trkpt lat="45.50314" lon="6.66669">
        <ele>2112.15</ele>
        <time>2015-12-05T08:27:08Z</time>
      </trkpt>
      <trkpt lat="45.50309" lon="6.66653">
        <ele>2115.04</ele>
        <time>2015-12-05T08:27:25Z</time>
      </trkpt>
      <trkpt lat="45.50306" lon="6.66639">
        <ele>2118.4</ele>
        <time>2015-12-05T08:27:40Z</time>
      </trkpt>
      <trkpt lat="45.50303" lon="6.66624">
        <ele>2121.29</ele>
        <time>2015-12-05T08:27:54Z</time>
      </trkpt>
      <trkpt lat="45.503" lon="6.66617">
        <ele>2123.21</ele>
        <time>2015-12-05T08:28:06Z</time>
      </trkpt>
      <trkpt lat="45.50301" lon="6.66615">
        <ele>2121.77</ele>
        <time>2015-12-05T08:28:17Z</time>
      </trkpt>
      <trkpt lat="45.50301" lon="6.66615">
        <ele>2122.25</ele>
        <time>2015-12-05T08:28:18Z</time>
      </trkpt>
      <trkpt lat="45.50303" lon="6.66616">
        <ele>2122.73</ele>
        <time>2015-12-05T08:28:38Z</time>
      </trkpt>
      <trkpt lat="45.50303" lon="6.66617">
        <ele>2123.69</ele>
        <time>2015-12-05T08:28:50Z</time>
      </trkpt>
      <trkpt lat="45.50303" lon="6.66618">
        <ele>2125.13</ele>
        <time>2015-12-05T08:28:53Z</time>
      </trkpt>
      <trkpt lat="45.50301" lon="6.66617">
        <ele>2125.61</ele>
        <time>2015-12-05T08:29:03Z</time>
      </trkpt>
      <trkpt lat="45.50302" lon="6.66614">
        <ele>2125.61</ele>
        <time>2015-12-05T08:29:10Z</time>
      </trkpt>
      <trkpt lat="45.50301" lon="6.66602">
        <ele>2128.5</ele>
        <time>2015-12-05T08:29:19Z</time>
      </trkpt>
      <trkpt lat="45.503" lon="6.66593">
        <ele>2130.42</ele>
        <time>2015-12-05T08:29:26Z</time>
      </trkpt>
      <trkpt lat="45.50299" lon="6.6659">
        <ele>2130.9</ele>
        <time>2015-12-05T08:29:28Z</time>
      </trkpt>
      <trkpt lat="45.50297" lon="6.66573">
        <ele>2134.74</ele>
        <time>2015-12-05T08:29:40Z</time>
      </trkpt>
      <trkpt lat="45.50295" lon="6.66567">
        <ele>2136.67</ele>
        <time>2015-12-05T08:29:46Z</time>
      </trkpt>
      <trkpt lat="45.50291" lon="6.66564">
        <ele>2138.59</ele>
        <time>2015-12-05T08:29:52Z</time>
      </trkpt>
      <trkpt lat="45.50285" lon="6.6656">
        <ele>2140.51</ele>
        <time>2015-12-05T08:30:00Z</time>
      </trkpt>
      <trkpt lat="45.5028" lon="6.66553">
        <ele>2143.88</ele>
        <time>2015-12-05T08:30:10Z</time>
      </trkpt>
      <trkpt lat="45.50281" lon="6.6655">
        <ele>2144.84</ele>
        <time>2015-12-05T08:30:14Z</time>
      </trkpt>
      <trkpt lat="45.50283" lon="6.66541">
        <ele>2148.2</ele>
        <time>2015-12-05T08:30:24Z</time>
      </trkpt>
      <trkpt lat="45.50285" lon="6.66531">
        <ele>2151.57</ele>
        <time>2015-12-05T08:30:34Z</time>
      </trkpt>
      <trkpt lat="45.50289" lon="6.66521">
        <ele>2154.45</ele>
        <time>2015-12-05T08:30:46Z</time>
      </trkpt>
      <trkpt lat="45.50294" lon="6.66511">
        <ele>2157.34</ele>
        <time>2015-12-05T08:30:59Z</time>
      </trkpt>
      <trkpt lat="45.50293" lon="6.66505">
        <ele>2158.78</ele>
        <time>2015-12-05T08:31:13Z</time>
      </trkpt>
      <trkpt lat="45.50295" lon="6.66498">
        <ele>2160.7</ele>
        <time>2015-12-05T08:31:27Z</time>
      </trkpt>
      <trkpt lat="45.50295" lon="6.6649">
        <ele>2162.14</ele>
        <time>2015-12-05T08:31:36Z</time>
      </trkpt>
      <trkpt lat="45.50289" lon="6.66482">
        <ele>2164.06</ele>
        <time>2015-12-05T08:31:48Z</time>
      </trkpt>
      <trkpt lat="45.50286" lon="6.66473">
        <ele>2165.51</ele>
        <time>2015-12-05T08:32:00Z</time>
      </trkpt>
      <trkpt lat="45.50276" lon="6.6647">
        <ele>2167.43</ele>
        <time>2015-12-05T08:32:15Z</time>
      </trkpt>
      <trkpt lat="45.50279" lon="6.66462">
        <ele>2169.35</ele>
        <time>2015-12-05T08:32:26Z</time>
      </trkpt>
      <trkpt lat="45.50281" lon="6.66458">
        <ele>2170.31</ele>
        <time>2015-12-05T08:32:34Z</time>
      </trkpt>
      <trkpt lat="45.50286" lon="6.66448">
        <ele>2173.2</ele>
        <time>2015-12-05T08:32:48Z</time>
      </trkpt>
      <trkpt lat="45.50281" lon="6.66446">
        <ele>2174.16</ele>
        <time>2015-12-05T08:32:58Z</time>
      </trkpt>
      <trkpt lat="45.50273" lon="6.66441">
        <ele>2177.52</ele>
        <time>2015-12-05T08:33:11Z</time>
      </trkpt>
      <trkpt lat="45.50266" lon="6.66439">
        <ele>2179.93</ele>
        <time>2015-12-05T08:33:24Z</time>
      </trkpt>
      <trkpt lat="45.50264" lon="6.66439">
        <ele>2179.93</ele>
        <time>2015-12-05T08:33:26Z</time>
      </trkpt>
      <trkpt lat="45.50258" lon="6.66439">
        <ele>2182.33</ele>
        <time>2015-12-05T08:33:38Z</time>
      </trkpt>
      <trkpt lat="45.50262" lon="6.66432">
        <ele>2183.77</ele>
        <time>2015-12-05T08:33:49Z</time>
      </trkpt>
      <trkpt lat="45.50267" lon="6.66423">
        <ele>2186.18</ele>
        <time>2015-12-05T08:34:01Z</time>
      </trkpt>
      <trkpt lat="45.50275" lon="6.66412">
        <ele>2189.06</ele>
        <time>2015-12-05T08:34:14Z</time>
      </trkpt>
      <trkpt lat="45.5028" lon="6.66408">
        <ele>2190.98</ele>
        <time>2015-12-05T08:34:26Z</time>
      </trkpt>
      <trkpt lat="45.50282" lon="6.66405">
        <ele>2191.94</ele>
        <time>2015-12-05T08:34:32Z</time>
      </trkpt>
      <trkpt lat="45.50277" lon="6.66403">
        <ele>2192.9</ele>
        <time>2015-12-05T08:34:43Z</time>
      </trkpt>
      <trkpt lat="45.5027" lon="6.664">
        <ele>2195.31</ele>
        <time>2015-12-05T08:34:56Z</time>
      </trkpt>
      <trkpt lat="45.50261" lon="6.66397">
        <ele>2197.71</ele>
        <time>2015-12-05T08:35:11Z</time>
      </trkpt>
      <trkpt lat="45.50255" lon="6.66396">
        <ele>2200.11</ele>
        <time>2015-12-05T08:35:24Z</time>
      </trkpt>
      <trkpt lat="45.50256" lon="6.66388">
        <ele>2201.08</ele>
        <time>2015-12-05T08:35:34Z</time>
      </trkpt>
      <trkpt lat="45.50263" lon="6.66379">
        <ele>2203.96</ele>
        <time>2015-12-05T08:35:48Z</time>
      </trkpt>
      <trkpt lat="45.50272" lon="6.66373">
        <ele>2206.36</ele>
        <time>2015-12-05T08:36:01Z</time>
      </trkpt>
      <trkpt lat="45.50281" lon="6.66366">
        <ele>2208.77</ele>
        <time>2015-12-05T08:36:17Z</time>
      </trkpt>
      <trkpt lat="45.5029" lon="6.66357">
        <ele>2211.17</ele>
        <time>2015-12-05T08:36:32Z</time>
      </trkpt>
      <trkpt lat="45.50299" lon="6.66346">
        <ele>2214.05</ele>
        <time>2015-12-05T08:36:47Z</time>
      </trkpt>
      <trkpt lat="45.50304" lon="6.66334">
        <ele>2215.98</ele>
        <time>2015-12-05T08:37:00Z</time>
      </trkpt>
      <trkpt lat="45.50305" lon="6.66329">
        <ele>2216.94</ele>
        <time>2015-12-05T08:37:05Z</time>
      </trkpt>
      <trkpt lat="45.50304" lon="6.66311">
        <ele>2219.82</ele>
        <time>2015-12-05T08:37:21Z</time>
      </trkpt>
      <trkpt lat="45.50299" lon="6.66301">
        <ele>2222.22</ele>
        <time>2015-12-05T08:37:34Z</time>
      </trkpt>
      <trkpt lat="45.50296" lon="6.66298">
        <ele>2223.67</ele>
        <time>2015-12-05T08:37:40Z</time>
      </trkpt>
      <trkpt lat="45.50295" lon="6.66295">
        <ele>2223.67</ele>
        <time>2015-12-05T08:37:43Z</time>
      </trkpt>
      <trkpt lat="45.50297" lon="6.66284">
        <ele>2226.55</ele>
        <time>2015-12-05T08:37:57Z</time>
      </trkpt>
      <trkpt lat="45.50298" lon="6.66272">
        <ele>2229.43</ele>
        <time>2015-12-05T08:38:11Z</time>
      </trkpt>
      <trkpt lat="45.50299" lon="6.66272">
        <ele>2229.92</ele>
        <time>2015-12-05T08:38:13Z</time>
      </trkpt>
      <trkpt lat="45.50298" lon="6.66272">
        <ele>2229.92</ele>
        <time>2015-12-05T08:38:15Z</time>
      </trkpt>
      <trkpt lat="45.50292" lon="6.6627">
        <ele>2231.84</ele>
        <time>2015-12-05T08:38:27Z</time>
      </trkpt>
      <trkpt lat="45.50289" lon="6.66269">
        <ele>2232.8</ele>
        <time>2015-12-05T08:38:43Z</time>
      </trkpt>
      <trkpt lat="45.50282" lon="6.66267">
        <ele>2236.16</ele>
        <time>2015-12-05T08:38:57Z</time>
      </trkpt>
      <trkpt lat="45.50274" lon="6.66267">
        <ele>2238.09</ele>
        <time>2015-12-05T08:39:09Z</time>
      </trkpt>
      <trkpt lat="45.50266" lon="6.66269">
        <ele>2240.49</ele>
        <time>2015-12-05T08:39:22Z</time>
      </trkpt>
      <trkpt lat="45.50259" lon="6.66269">
        <ele>2243.37</ele>
        <time>2015-12-05T08:39:35Z</time>
      </trkpt>
      <trkpt lat="45.50253" lon="6.66268">
        <ele>2245.78</ele>
        <time>2015-12-05T08:39:47Z</time>
      </trkpt>
      <trkpt lat="45.50244" lon="6.66266">
        <ele>2248.66</ele>
        <time>2015-12-05T08:40:02Z</time>
      </trkpt>
      <trkpt lat="45.50245" lon="6.66261">
        <ele>2250.1</ele>
        <time>2015-12-05T08:40:14Z</time>
      </trkpt>
      <trkpt lat="45.50247" lon="6.66253">
        <ele>2253.47</ele>
        <time>2015-12-05T08:40:26Z</time>
      </trkpt>
      <trkpt lat="45.5025" lon="6.66245">
        <ele>2255.87</ele>
        <time>2015-12-05T08:40:38Z</time>
      </trkpt>
      <trkpt lat="45.50252" lon="6.66234">
        <ele>2258.27</ele>
        <time>2015-12-05T08:40:51Z</time>
      </trkpt>
      <trkpt lat="45.50251" lon="6.66233">
        <ele>2259.24</ele>
        <time>2015-12-05T08:41:04Z</time>
      </trkpt>
      <trkpt lat="45.50246" lon="6.66234">
        <ele>2260.68</ele>
        <time>2015-12-05T08:41:19Z</time>
      </trkpt>
      <trkpt lat="45.50246" lon="6.66228">
        <ele>2261.64</ele>
        <time>2015-12-05T08:41:27Z</time>
      </trkpt>
      <trkpt lat="45.50255" lon="6.66219">
        <ele>2263.08</ele>
        <time>2015-12-05T08:41:41Z</time>
      </trkpt>
      <trkpt lat="45.50252" lon="6.66219">
        <ele>2264.52</ele>
        <time>2015-12-05T08:41:49Z</time>
      </trkpt>
      <trkpt lat="45.50244" lon="6.66219">
        <ele>2266.45</ele>
        <time>2015-12-05T08:42:03Z</time>
      </trkpt>
      <trkpt lat="45.50236" lon="6.66217">
        <ele>2269.33</ele>
        <time>2015-12-05T08:42:16Z</time>
      </trkpt>
      <trkpt lat="45.50235" lon="6.66218">
        <ele>2270.77</ele>
        <time>2015-12-05T08:42:26Z</time>
      </trkpt>
      <trkpt lat="45.50239" lon="6.66211">
        <ele>2272.21</ele>
        <time>2015-12-05T08:42:41Z</time>
      </trkpt>
      <trkpt lat="45.50243" lon="6.66203">
        <ele>2274.62</ele>
        <time>2015-12-05T08:42:53Z</time>
      </trkpt>
      <trkpt lat="45.50245" lon="6.66199">
        <ele>2276.06</ele>
        <time>2015-12-05T08:43:03Z</time>
      </trkpt>
      <trkpt lat="45.50248" lon="6.66194">
        <ele>2277.02</ele>
        <time>2015-12-05T08:43:15Z</time>
      </trkpt>
      <trkpt lat="45.50251" lon="6.66189">
        <ele>2278.94</ele>
        <time>2015-12-05T08:43:26Z</time>
      </trkpt>
      <trkpt lat="45.50254" lon="6.66186">
        <ele>2280.87</ele>
        <time>2015-12-05T08:43:40Z</time>
      </trkpt>
      <trkpt lat="45.50258" lon="6.66177">
        <ele>2283.27</ele>
        <time>2015-12-05T08:43:52Z</time>
      </trkpt>
      <trkpt lat="45.50257" lon="6.66172">
        <ele>2285.67</ele>
        <time>2015-12-05T08:44:02Z</time>
      </trkpt>
      <trkpt lat="45.50248" lon="6.66171">
        <ele>2287.59</ele>
        <time>2015-12-05T08:44:15Z</time>
      </trkpt>
      <trkpt lat="45.50241" lon="6.6617">
        <ele>2290</ele>
        <time>2015-12-05T08:44:28Z</time>
      </trkpt>
      <trkpt lat="45.50232" lon="6.6617">
        <ele>2292.88</ele>
        <time>2015-12-05T08:44:42Z</time>
      </trkpt>
      <trkpt lat="45.50223" lon="6.66169">
        <ele>2295.28</ele>
        <time>2015-12-05T08:44:57Z</time>
      </trkpt>
      <trkpt lat="45.50216" lon="6.66168">
        <ele>2298.65</ele>
        <time>2015-12-05T08:45:10Z</time>
      </trkpt>
      <trkpt lat="45.50211" lon="6.66168">
        <ele>2300.09</ele>
        <time>2015-12-05T08:45:23Z</time>
      </trkpt>
      <trkpt lat="45.50212" lon="6.66165">
        <ele>2300.57</ele>
        <time>2015-12-05T08:45:29Z</time>
      </trkpt>
      <trkpt lat="45.50214" lon="6.66152">
        <ele>2303.46</ele>
        <time>2015-12-05T08:45:43Z</time>
      </trkpt>
      <trkpt lat="45.5021" lon="6.66144">
        <ele>2303.46</ele>
        <time>2015-12-05T08:45:51Z</time>
      </trkpt>
      <trkpt lat="45.50197" lon="6.66131">
        <ele>2305.38</ele>
        <time>2015-12-05T08:46:07Z</time>
      </trkpt>
      <trkpt lat="45.50195" lon="6.66128">
        <ele>2305.38</ele>
        <time>2015-12-05T08:46:11Z</time>
      </trkpt>
      <trkpt lat="45.50193" lon="6.66122">
        <ele>2305.38</ele>
        <time>2015-12-05T08:46:15Z</time>
      </trkpt>
      <trkpt lat="45.50192" lon="6.66117">
        <ele>2305.38</ele>
        <time>2015-12-05T08:46:27Z</time>
      </trkpt>
      <trkpt lat="45.50192" lon="6.66118">
        <ele>2305.86</ele>
        <time>2015-12-05T08:46:46Z</time>
      </trkpt>
      <trkpt lat="45.50191" lon="6.66117">
        <ele>2306.34</ele>
        <time>2015-12-05T08:47:14Z</time>
      </trkpt>
      <trkpt lat="45.50191" lon="6.66117">
        <ele>2306.34</ele>
        <time>2015-12-05T08:47:28Z</time>
      </trkpt>
      <trkpt lat="45.50184" lon="6.66119">
        <ele>2306.82</ele>
        <time>2015-12-05T08:47:46Z</time>
      </trkpt>
      <trkpt lat="45.50184" lon="6.66121">
        <ele>2307.3</ele>
        <time>2015-12-05T08:48:02Z</time>
      </trkpt>
      <trkpt lat="45.50178" lon="6.66124">
        <ele>2307.78</ele>
        <time>2015-12-05T08:48:17Z</time>
      </trkpt>
      <trkpt lat="45.50174" lon="6.66128">
        <ele>2307.78</ele>
        <time>2015-12-05T08:48:22Z</time>
      </trkpt>
      <trkpt lat="45.50171" lon="6.66131">
        <ele>2308.74</ele>
        <time>2015-12-05T08:48:26Z</time>
      </trkpt>
      <trkpt lat="45.50164" lon="6.66141">
        <ele>2309.7</ele>
        <time>2015-12-05T08:48:38Z</time>
      </trkpt>
      <trkpt lat="45.50162" lon="6.66142">
        <ele>2310.19</ele>
        <time>2015-12-05T08:48:40Z</time>
      </trkpt>
      <trkpt lat="45.50154" lon="6.66141">
        <ele>2311.15</ele>
        <time>2015-12-05T08:48:53Z</time>
      </trkpt>
      <trkpt lat="45.50153" lon="6.66133">
        <ele>2313.55</ele>
        <time>2015-12-05T08:49:06Z</time>
      </trkpt>
      <trkpt lat="45.50148" lon="6.66129">
        <ele>2315.95</ele>
        <time>2015-12-05T08:49:16Z</time>
      </trkpt>
      <trkpt lat="45.50142" lon="6.6612">
        <ele>2318.84</ele>
        <time>2015-12-05T08:49:32Z</time>
      </trkpt>
      <trkpt lat="45.50136" lon="6.66112">
        <ele>2321.24</ele>
        <time>2015-12-05T08:49:46Z</time>
      </trkpt>
      <trkpt lat="45.50128" lon="6.66106">
        <ele>2323.64</ele>
        <time>2015-12-05T08:50:00Z</time>
      </trkpt>
      <trkpt lat="45.5012" lon="6.66104">
        <ele>2326.05</ele>
        <time>2015-12-05T08:50:14Z</time>
      </trkpt>
      <trkpt lat="45.50111" lon="6.66104">
        <ele>2328.93</ele>
        <time>2015-12-05T08:50:30Z</time>
      </trkpt>
      <trkpt lat="45.50103" lon="6.66099">
        <ele>2331.81</ele>
        <time>2015-12-05T08:50:45Z</time>
      </trkpt>
      <trkpt lat="45.50098" lon="6.66095">
        <ele>2333.74</ele>
        <time>2015-12-05T08:50:57Z</time>
      </trkpt>
      <trkpt lat="45.50093" lon="6.66085">
        <ele>2336.62</ele>
        <time>2015-12-05T08:51:12Z</time>
      </trkpt>
      <trkpt lat="45.50087" lon="6.66077">
        <ele>2339.51</ele>
        <time>2015-12-05T08:51:26Z</time>
      </trkpt>
      <trkpt lat="45.50081" lon="6.66071">
        <ele>2341.91</ele>
        <time>2015-12-05T08:51:40Z</time>
      </trkpt>
      <trkpt lat="45.50077" lon="6.66067">
        <ele>2343.35</ele>
        <time>2015-12-05T08:51:50Z</time>
      </trkpt>
      <trkpt lat="45.50078" lon="6.66064">
        <ele>2344.31</ele>
        <time>2015-12-05T08:52:03Z</time>
      </trkpt>
      <trkpt lat="45.50077" lon="6.66065">
        <ele>2344.31</ele>
        <time>2015-12-05T08:52:25Z</time>
      </trkpt>
      <trkpt lat="45.50071" lon="6.66058">
        <ele>2347.2</ele>
        <time>2015-12-05T08:52:38Z</time>
      </trkpt>
      <trkpt lat="45.50068" lon="6.66049">
        <ele>2350.08</ele>
        <time>2015-12-05T08:52:52Z</time>
      </trkpt>
      <trkpt lat="45.50067" lon="6.66047">
        <ele>2350.56</ele>
        <time>2015-12-05T08:53:05Z</time>
      </trkpt>
      <trkpt lat="45.50064" lon="6.66055">
        <ele>2352.48</ele>
        <time>2015-12-05T08:53:18Z</time>
      </trkpt>
      <trkpt lat="45.50064" lon="6.66054">
        <ele>2353.44</ele>
        <time>2015-12-05T08:53:34Z</time>
      </trkpt>
      <trkpt lat="45.50061" lon="6.66052">
        <ele>2354.89</ele>
        <time>2015-12-05T08:53:44Z</time>
      </trkpt>
      <trkpt lat="45.50059" lon="6.66049">
        <ele>2355.37</ele>
        <time>2015-12-05T08:53:48Z</time>
      </trkpt>
      <trkpt lat="45.50056" lon="6.66051">
        <ele>2356.81</ele>
        <time>2015-12-05T08:53:58Z</time>
      </trkpt>
      <trkpt lat="45.50053" lon="6.66051">
        <ele>2358.73</ele>
        <time>2015-12-05T08:54:08Z</time>
      </trkpt>
      <trkpt lat="45.50048" lon="6.66044">
        <ele>2362.1</ele>
        <time>2015-12-05T08:54:21Z</time>
      </trkpt>
      <trkpt lat="45.50042" lon="6.66037">
        <ele>2364.98</ele>
        <time>2015-12-05T08:54:35Z</time>
      </trkpt>
      <trkpt lat="45.50034" lon="6.66036">
        <ele>2365.46</ele>
        <time>2015-12-05T08:54:45Z</time>
      </trkpt>
      <trkpt lat="45.50029" lon="6.66036">
        <ele>2365.94</ele>
        <time>2015-12-05T08:54:58Z</time>
      </trkpt>
      <trkpt lat="45.50027" lon="6.66034">
        <ele>2366.42</ele>
        <time>2015-12-05T08:55:10Z</time>
      </trkpt>
      <trkpt lat="45.50022" lon="6.66028">
        <ele>2367.38</ele>
        <time>2015-12-05T08:55:19Z</time>
      </trkpt>
      <trkpt lat="45.50008" lon="6.66023">
        <ele>2369.31</ele>
        <time>2015-12-05T08:55:36Z</time>
      </trkpt>
      <trkpt lat="45.49994" lon="6.66027">
        <ele>2371.23</ele>
        <time>2015-12-05T08:55:51Z</time>
      </trkpt>
      <trkpt lat="45.49984" lon="6.66034">
        <ele>2372.19</ele>
        <time>2015-12-05T08:56:03Z</time>
      </trkpt>
      <trkpt lat="45.49979" lon="6.66038">
        <ele>2372.67</ele>
        <time>2015-12-05T08:56:08Z</time>
      </trkpt>
      <trkpt lat="45.49965" lon="6.66051">
        <ele>2373.63</ele>
        <time>2015-12-05T08:56:25Z</time>
      </trkpt>
      <trkpt lat="45.49949" lon="6.66065">
        <ele>2374.59</ele>
        <time>2015-12-05T08:56:44Z</time>
      </trkpt>
      <trkpt lat="45.49932" lon="6.6608">
        <ele>2376.52</ele>
        <time>2015-12-05T08:57:05Z</time>
      </trkpt>
      <trkpt lat="45.49919" lon="6.66089">
        <ele>2378.92</ele>
        <time>2015-12-05T08:57:22Z</time>
      </trkpt>
      <trkpt lat="45.4991" lon="6.66095">
        <ele>2379.88</ele>
        <time>2015-12-05T08:57:36Z</time>
      </trkpt>
      <trkpt lat="45.49898" lon="6.66106">
        <ele>2379.88</ele>
        <time>2015-12-05T08:57:46Z</time>
      </trkpt>
      <trkpt lat="45.49886" lon="6.66116">
        <ele>2378.92</ele>
        <time>2015-12-05T08:57:58Z</time>
      </trkpt>
      <trkpt lat="45.49881" lon="6.66117">
        <ele>2378.92</ele>
        <time>2015-12-05T08:58:02Z</time>
      </trkpt>
      <trkpt lat="45.49861" lon="6.66115">
        <ele>2377.96</ele>
        <time>2015-12-05T08:58:16Z</time>
      </trkpt>
      <trkpt lat="45.4984" lon="6.66115">
        <ele>2376.52</ele>
        <time>2015-12-05T08:58:28Z</time>
      </trkpt>
      <trkpt lat="45.49815" lon="6.66113">
        <ele>2375.07</ele>
        <time>2015-12-05T08:58:41Z</time>
      </trkpt>
      <trkpt lat="45.49799" lon="6.66112">
        <ele>2374.11</ele>
        <time>2015-12-05T08:58:53Z</time>
      </trkpt>
      <trkpt lat="45.49782" lon="6.66109">
        <ele>2373.63</ele>
        <time>2015-12-05T08:59:04Z</time>
      </trkpt>
      <trkpt lat="45.49781" lon="6.66108">
        <ele>2373.63</ele>
        <time>2015-12-05T08:59:05Z</time>
      </trkpt>
      <trkpt lat="45.4978" lon="6.66108">
        <ele>2373.15</ele>
        <time>2015-12-05T08:59:06Z</time>
      </trkpt>
      <trkpt lat="45.49779" lon="6.66107">
        <ele>2373.15</ele>
        <time>2015-12-05T08:59:07Z</time>
      </trkpt>
      <trkpt lat="45.49777" lon="6.66107">
        <ele>2373.15</ele>
        <time>2015-12-05T08:59:08Z</time>
      </trkpt>
      <trkpt lat="45.49776" lon="6.66106">
        <ele>2373.15</ele>
        <time>2015-12-05T08:59:09Z</time>
      </trkpt>
      <trkpt lat="45.49761" lon="6.66098">
        <ele>2373.15</ele>
        <time>2015-12-05T08:59:21Z</time>
      </trkpt>
      <trkpt lat="45.49753" lon="6.66093">
        <ele>2372.67</ele>
        <time>2015-12-05T08:59:34Z</time>
      </trkpt>
      <trkpt lat="45.49748" lon="6.6609">
        <ele>2372.67</ele>
        <time>2015-12-05T08:59:47Z</time>
      </trkpt>
      <trkpt lat="45.49737" lon="6.66078">
        <ele>2372.67</ele>
        <time>2015-12-05T09:00:01Z</time>
      </trkpt>
      <trkpt lat="45.49733" lon="6.66073">
        <ele>2374.11</ele>
        <time>2015-12-05T09:00:12Z</time>
      </trkpt>
      <trkpt lat="45.49726" lon="6.66069">
        <ele>2376.04</ele>
        <time>2015-12-05T09:00:27Z</time>
      </trkpt>
      <trkpt lat="45.49719" lon="6.66061">
        <ele>2378.92</ele>
        <time>2015-12-05T09:00:42Z</time>
      </trkpt>
      <trkpt lat="45.49715" lon="6.66054">
        <ele>2381.8</ele>
        <time>2015-12-05T09:00:55Z</time>
      </trkpt>
      <trkpt lat="45.4971" lon="6.66046">
        <ele>2384.21</ele>
        <time>2015-12-05T09:01:11Z</time>
      </trkpt>
      <trkpt lat="45.49704" lon="6.66038">
        <ele>2386.13</ele>
        <time>2015-12-05T09:01:24Z</time>
      </trkpt>
      <trkpt lat="45.49698" lon="6.66027">
        <ele>2389.01</ele>
        <time>2015-12-05T09:01:40Z</time>
      </trkpt>
      <trkpt lat="45.49689" lon="6.66014">
        <ele>2389.97</ele>
        <time>2015-12-05T09:01:57Z</time>
      </trkpt>
      <trkpt lat="45.49683" lon="6.66008">
        <ele>2389.01</ele>
        <time>2015-12-05T09:02:04Z</time>
      </trkpt>
      <trkpt lat="45.49682" lon="6.66009">
        <ele>2388.53</ele>
        <time>2015-12-05T09:02:15Z</time>
      </trkpt>
      <trkpt lat="45.49674" lon="6.66001">
        <ele>2389.01</ele>
        <time>2015-12-05T09:02:30Z</time>
      </trkpt>
      <trkpt lat="45.49672" lon="6.65999">
        <ele>2389.97</ele>
        <time>2015-12-05T09:02:34Z</time>
      </trkpt>
      <trkpt lat="45.49663" lon="6.65991">
        <ele>2393.82</ele>
        <time>2015-12-05T09:02:49Z</time>
      </trkpt>
      <trkpt lat="45.49657" lon="6.65982">
        <ele>2395.74</ele>
        <time>2015-12-05T09:03:02Z</time>
      </trkpt>
      <trkpt lat="45.49652" lon="6.65972">
        <ele>2399.11</ele>
        <time>2015-12-05T09:03:18Z</time>
      </trkpt>
      <trkpt lat="45.4965" lon="6.65962">
        <ele>2401.51</ele>
        <time>2015-12-05T09:03:31Z</time>
      </trkpt>
      <trkpt lat="45.49649" lon="6.65957">
        <ele>2403.43</ele>
        <time>2015-12-05T09:03:45Z</time>
      </trkpt>
      <trkpt lat="45.49646" lon="6.65961">
        <ele>2404.88</ele>
        <time>2015-12-05T09:03:56Z</time>
      </trkpt>
      <trkpt lat="45.49639" lon="6.6597">
        <ele>2407.28</ele>
        <time>2015-12-05T09:04:11Z</time>
      </trkpt>
      <trkpt lat="45.49635" lon="6.65975">
        <ele>2410.16</ele>
        <time>2015-12-05T09:04:25Z</time>
      </trkpt>
      <trkpt lat="45.49633" lon="6.65973">
        <ele>2410.64</ele>
        <time>2015-12-05T09:04:36Z</time>
      </trkpt>
      <trkpt lat="45.49629" lon="6.65976">
        <ele>2412.09</ele>
        <time>2015-12-05T09:04:45Z</time>
      </trkpt>
      <trkpt lat="45.49628" lon="6.65979">
        <ele>2413.05</ele>
        <time>2015-12-05T09:05:05Z</time>
      </trkpt>
      <trkpt lat="45.49626" lon="6.65984">
        <ele>2414.01</ele>
        <time>2015-12-05T09:05:21Z</time>
      </trkpt>
      <trkpt lat="45.49626" lon="6.65985">
        <ele>2414.01</ele>
        <time>2015-12-05T09:05:30Z</time>
      </trkpt>
      <trkpt lat="45.49627" lon="6.65986">
        <ele>2413.05</ele>
        <time>2015-12-05T09:05:40Z</time>
      </trkpt>
      <trkpt lat="45.49626" lon="6.65985">
        <ele>2413.05</ele>
        <time>2015-12-05T09:05:58Z</time>
      </trkpt>
      <trkpt lat="45.49627" lon="6.65986">
        <ele>2413.53</ele>
        <time>2015-12-05T09:06:23Z</time>
      </trkpt>
      <trkpt lat="45.49626" lon="6.65986">
        <ele>2414.01</ele>
        <time>2015-12-05T09:06:56Z</time>
      </trkpt>
      <trkpt lat="45.49625" lon="6.65985">
        <ele>2414.01</ele>
        <time>2015-12-05T09:07:18Z</time>
      </trkpt>
      <trkpt lat="45.49625" lon="6.65986">
        <ele>2414.49</ele>
        <time>2015-12-05T09:07:47Z</time>
      </trkpt>
      <trkpt lat="45.49625" lon="6.65985">
        <ele>2414.01</ele>
        <time>2015-12-05T09:08:13Z</time>
      </trkpt>
      <trkpt lat="45.49625" lon="6.65986">
        <ele>2415.45</ele>
        <time>2015-12-05T09:08:16Z</time>
      </trkpt>
      <trkpt lat="45.49628" lon="6.65986">
        <ele>2415.93</ele>
        <time>2015-12-05T09:08:49Z</time>
      </trkpt>
      <trkpt lat="45.49627" lon="6.65984">
        <ele>2416.41</ele>
        <time>2015-12-05T09:09:32Z</time>
      </trkpt>
      <trkpt lat="45.49626" lon="6.65985">
        <ele>2416.89</ele>
        <time>2015-12-05T09:10:06Z</time>
      </trkpt>
      <trkpt lat="45.49624" lon="6.65984">
        <ele>2417.37</ele>
        <time>2015-12-05T09:10:41Z</time>
      </trkpt>
      <trkpt lat="45.49626" lon="6.65983">
        <ele>2417.85</ele>
        <time>2015-12-05T09:11:17Z</time>
      </trkpt>
      <trkpt lat="45.49627" lon="6.65986">
        <ele>2418.33</ele>
        <time>2015-12-05T09:11:59Z</time>
      </trkpt>
      <trkpt lat="45.49627" lon="6.65985">
        <ele>2418.33</ele>
        <time>2015-12-05T09:12:36Z</time>
      </trkpt>
      <trkpt lat="45.49628" lon="6.65987">
        <ele>2418.81</ele>
        <time>2015-12-05T09:13:08Z</time>
      </trkpt>
      <trkpt lat="45.49628" lon="6.65986">
        <ele>2419.3</ele>
        <time>2015-12-05T09:13:43Z</time>
      </trkpt>
      <trkpt lat="45.49627" lon="6.65985">
        <ele>2422.66</ele>
        <time>2015-12-05T09:14:17Z</time>
      </trkpt>
      <trkpt lat="45.49627" lon="6.65985">
        <ele>2422.66</ele>
        <time>2015-12-05T09:14:18Z</time>
      </trkpt>
      <trkpt lat="45.49627" lon="6.65985">
        <ele>2420.26</ele>
        <time>2015-12-05T09:14:20Z</time>
      </trkpt>
      <trkpt lat="45.49626" lon="6.65985">
        <ele>2421.7</ele>
        <time>2015-12-05T09:14:22Z</time>
      </trkpt>
      <trkpt lat="45.49625" lon="6.65985">
        <ele>2419.3</ele>
        <time>2015-12-05T09:14:28Z</time>
      </trkpt>
      <trkpt lat="45.49625" lon="6.65985">
        <ele>2419.3</ele>
        <time>2015-12-05T09:14:29Z</time>
      </trkpt>
      <trkpt lat="45.49625" lon="6.65983">
        <ele>2420.74</ele>
        <time>2015-12-05T09:14:31Z</time>
      </trkpt>
      <trkpt lat="45.49626" lon="6.65984">
        <ele>2420.74</ele>
        <time>2015-12-05T09:14:42Z</time>
      </trkpt>
      <trkpt lat="45.49626" lon="6.65985">
        <ele>2421.22</ele>
        <time>2015-12-05T09:14:56Z</time>
      </trkpt>
      <trkpt lat="45.49626" lon="6.65985">
        <ele>2421.22</ele>
        <time>2015-12-05T09:15:16Z</time>
      </trkpt>
      <trkpt lat="45.49625" lon="6.65984">
        <ele>2421.22</ele>
        <time>2015-12-05T09:15:26Z</time>
      </trkpt>
      <trkpt lat="45.49626" lon="6.65984">
        <ele>2421.22</ele>
        <time>2015-12-05T09:15:40Z</time>
      </trkpt>
      <trkpt lat="45.49626" lon="6.65986">
        <ele>2421.7</ele>
        <time>2015-12-05T09:16:11Z</time>
      </trkpt>
      <trkpt lat="45.49626" lon="6.65984">
        <ele>2421.7</ele>
        <time>2015-12-05T09:16:29Z</time>
      </trkpt>
      <trkpt lat="45.49625" lon="6.65984">
        <ele>2422.18</ele>
        <time>2015-12-05T09:16:43Z</time>
      </trkpt>
      <trkpt lat="45.49625" lon="6.65984">
        <ele>2423.14</ele>
        <time>2015-12-05T09:16:57Z</time>
      </trkpt>
      <trkpt lat="45.49625" lon="6.65984">
        <ele>2421.7</ele>
        <time>2015-12-05T09:17:01Z</time>
      </trkpt>
      <trkpt lat="45.49626" lon="6.65985">
        <ele>2423.14</ele>
        <time>2015-12-05T09:17:28Z</time>
      </trkpt>
      <trkpt lat="45.49625" lon="6.65985">
        <ele>2423.62</ele>
        <time>2015-12-05T09:17:44Z</time>
      </trkpt>
      <trkpt lat="45.49624" lon="6.65984">
        <ele>2424.1</ele>
        <time>2015-12-05T09:18:06Z</time>
      </trkpt>
      <trkpt lat="45.49625" lon="6.65984">
        <ele>2421.7</ele>
        <time>2015-12-05T09:18:09Z</time>
      </trkpt>
      <trkpt lat="45.49626" lon="6.65983">
        <ele>2423.14</ele>
        <time>2015-12-05T09:18:21Z</time>
      </trkpt>
      <trkpt lat="45.49626" lon="6.65982">
        <ele>2423.14</ele>
        <time>2015-12-05T09:18:24Z</time>
      </trkpt>
      <trkpt lat="45.49624" lon="6.65961">
        <ele>2420.74</ele>
        <time>2015-12-05T09:18:28Z</time>
      </trkpt>
      <trkpt lat="45.49624" lon="6.65945">
        <ele>2418.81</ele>
        <time>2015-12-05T09:18:31Z</time>
      </trkpt>
      <trkpt lat="45.49626" lon="6.65941">
        <ele>2417.85</ele>
        <time>2015-12-05T09:18:38Z</time>
      </trkpt>
      <trkpt lat="45.49625" lon="6.6594">
        <ele>2417.85</ele>
        <time>2015-12-05T09:18:44Z</time>
      </trkpt>
      <trkpt lat="45.49619" lon="6.65929">
        <ele>2413.53</ele>
        <time>2015-12-05T09:18:48Z</time>
      </trkpt>
      <trkpt lat="45.49607" lon="6.6594">
        <ele>2410.16</ele>
        <time>2015-12-05T09:18:54Z</time>
      </trkpt>
      <trkpt lat="45.49595" lon="6.65955">
        <ele>2406.8</ele>
        <time>2015-12-05T09:19:05Z</time>
      </trkpt>
      <trkpt lat="45.49592" lon="6.65958">
        <ele>2406.8</ele>
        <time>2015-12-05T09:19:06Z</time>
      </trkpt>
      <trkpt lat="45.49577" lon="6.65974">
        <ele>2403.91</ele>
        <time>2015-12-05T09:19:12Z</time>
      </trkpt>
      <trkpt lat="45.49556" lon="6.6599">
        <ele>2401.03</ele>
        <time>2015-12-05T09:19:21Z</time>
      </trkpt>
      <trkpt lat="45.49541" lon="6.65991">
        <ele>2399.11</ele>
        <time>2015-12-05T09:19:25Z</time>
      </trkpt>
      <trkpt lat="45.49524" lon="6.65973">
        <ele>2395.26</ele>
        <time>2015-12-05T09:19:34Z</time>
      </trkpt>
      <trkpt lat="45.4951" lon="6.65945">
        <ele>2392.38</ele>
        <time>2015-12-05T09:19:44Z</time>
      </trkpt>
      <trkpt lat="45.49495" lon="6.65916">
        <ele>2389.01</ele>
        <time>2015-12-05T09:19:59Z</time>
      </trkpt>
      <trkpt lat="45.49485" lon="6.65903">
        <ele>2385.65</ele>
        <time>2015-12-05T09:20:04Z</time>
      </trkpt>
      <trkpt lat="45.49472" lon="6.65885">
        <ele>2382.28</ele>
        <time>2015-12-05T09:20:12Z</time>
      </trkpt>
      <trkpt lat="45.49464" lon="6.65864">
        <ele>2379.4</ele>
        <time>2015-12-05T09:20:18Z</time>
      </trkpt>
      <trkpt lat="45.49458" lon="6.65847">
        <ele>2376.04</ele>
        <time>2015-12-05T09:20:22Z</time>
      </trkpt>
      <trkpt lat="45.49451" lon="6.65827">
        <ele>2373.15</ele>
        <time>2015-12-05T09:20:25Z</time>
      </trkpt>
      <trkpt lat="45.49447" lon="6.65809">
        <ele>2372.67</ele>
        <time>2015-12-05T09:20:31Z</time>
      </trkpt>
      <trkpt lat="45.49461" lon="6.65799">
        <ele>2367.38</ele>
        <time>2015-12-05T09:20:35Z</time>
      </trkpt>
      <trkpt lat="45.49465" lon="6.65796">
        <ele>2364.5</ele>
        <time>2015-12-05T09:20:36Z</time>
      </trkpt>
      <trkpt lat="45.4947" lon="6.65792">
        <ele>2363.06</ele>
        <time>2015-12-05T09:20:37Z</time>
      </trkpt>
      <trkpt lat="45.49479" lon="6.65769">
        <ele>2357.77</ele>
        <time>2015-12-05T09:20:40Z</time>
      </trkpt>
      <trkpt lat="45.49482" lon="6.6576">
        <ele>2356.81</ele>
        <time>2015-12-05T09:20:41Z</time>
      </trkpt>
      <trkpt lat="45.49485" lon="6.65753">
        <ele>2356.33</ele>
        <time>2015-12-05T09:20:42Z</time>
      </trkpt>
      <trkpt lat="45.49488" lon="6.65747">
        <ele>2356.33</ele>
        <time>2015-12-05T09:20:43Z</time>
      </trkpt>
      <trkpt lat="45.49491" lon="6.65745">
        <ele>2356.33</ele>
        <time>2015-12-05T09:20:44Z</time>
      </trkpt>
      <trkpt lat="45.49495" lon="6.65745">
        <ele>2355.85</ele>
        <time>2015-12-05T09:20:45Z</time>
      </trkpt>
      <trkpt lat="45.49498" lon="6.65744">
        <ele>2354.41</ele>
        <time>2015-12-05T09:20:46Z</time>
      </trkpt>
      <trkpt lat="45.49499" lon="6.65742">
        <ele>2353.44</ele>
        <time>2015-12-05T09:20:47Z</time>
      </trkpt>
      <trkpt lat="45.49498" lon="6.65742">
        <ele>2353.44</ele>
        <time>2015-12-05T09:21:03Z</time>
      </trkpt>
      <trkpt lat="45.49499" lon="6.65733">
        <ele>2352.96</ele>
        <time>2015-12-05T09:21:14Z</time>
      </trkpt>
      <trkpt lat="45.49499" lon="6.65729">
        <ele>2351.52</ele>
        <time>2015-12-05T09:21:16Z</time>
      </trkpt>
      <trkpt lat="45.49499" lon="6.65729">
        <ele>2351.52</ele>
        <time>2015-12-05T09:21:18Z</time>
      </trkpt>
      <trkpt lat="45.49503" lon="6.65719">
        <ele>2347.2</ele>
        <time>2015-12-05T09:21:23Z</time>
      </trkpt>
      <trkpt lat="45.49505" lon="6.65718">
        <ele>2345.75</ele>
        <time>2015-12-05T09:21:26Z</time>
      </trkpt>
      <trkpt lat="45.49517" lon="6.65713">
        <ele>2342.39</ele>
        <time>2015-12-05T09:21:32Z</time>
      </trkpt>
      <trkpt lat="45.4952" lon="6.65713">
        <ele>2342.39</ele>
        <time>2015-12-05T09:21:33Z</time>
      </trkpt>
      <trkpt lat="45.49533" lon="6.65717">
        <ele>2339.02</ele>
        <time>2015-12-05T09:21:37Z</time>
      </trkpt>
      <trkpt lat="45.49543" lon="6.65718">
        <ele>2337.1</ele>
        <time>2015-12-05T09:21:40Z</time>
      </trkpt>
      <trkpt lat="45.49545" lon="6.65702">
        <ele>2332.78</ele>
        <time>2015-12-05T09:21:43Z</time>
      </trkpt>
      <trkpt lat="45.49547" lon="6.65666">
        <ele>2327.49</ele>
        <time>2015-12-05T09:21:49Z</time>
      </trkpt>
      <trkpt lat="45.49547" lon="6.65666">
        <ele>2327.49</ele>
        <time>2015-12-05T09:21:50Z</time>
      </trkpt>
      <trkpt lat="45.49546" lon="6.65666">
        <ele>2327.49</ele>
        <time>2015-12-05T09:21:51Z</time>
      </trkpt>
      <trkpt lat="45.49536" lon="6.65654">
        <ele>2324.12</ele>
        <time>2015-12-05T09:21:54Z</time>
      </trkpt>
      <trkpt lat="45.49518" lon="6.65611">
        <ele>2319.8</ele>
        <time>2015-12-05T09:21:59Z</time>
      </trkpt>
      <trkpt lat="45.49505" lon="6.65561">
        <ele>2318.84</ele>
        <time>2015-12-05T09:22:11Z</time>
      </trkpt>
      <trkpt lat="45.49496" lon="6.65534">
        <ele>2314.99</ele>
        <time>2015-12-05T09:22:15Z</time>
      </trkpt>
      <trkpt lat="45.49487" lon="6.65509">
        <ele>2311.63</ele>
        <time>2015-12-05T09:22:18Z</time>
      </trkpt>
      <trkpt lat="45.49476" lon="6.65481">
        <ele>2308.26</ele>
        <time>2015-12-05T09:22:22Z</time>
      </trkpt>
      <trkpt lat="45.49469" lon="6.65463">
        <ele>2306.82</ele>
        <time>2015-12-05T09:22:25Z</time>
      </trkpt>
      <trkpt lat="45.49459" lon="6.6543">
        <ele>2304.42</ele>
        <time>2015-12-05T09:22:32Z</time>
      </trkpt>
      <trkpt lat="45.49449" lon="6.65406">
        <ele>2302.01</ele>
        <time>2015-12-05T09:22:36Z</time>
      </trkpt>
      <trkpt lat="45.49442" lon="6.65382">
        <ele>2300.09</ele>
        <time>2015-12-05T09:22:39Z</time>
      </trkpt>
      <trkpt lat="45.49439" lon="6.65376">
        <ele>2299.13</ele>
        <time>2015-12-05T09:22:40Z</time>
      </trkpt>
      <trkpt lat="45.49435" lon="6.65371">
        <ele>2298.17</ele>
        <time>2015-12-05T09:22:41Z</time>
      </trkpt>
      <trkpt lat="45.49431" lon="6.65367">
        <ele>2297.69</ele>
        <time>2015-12-05T09:22:42Z</time>
      </trkpt>
      <trkpt lat="45.49425" lon="6.65364">
        <ele>2297.21</ele>
        <time>2015-12-05T09:22:43Z</time>
      </trkpt>
      <trkpt lat="45.4942" lon="6.65363">
        <ele>2296.73</ele>
        <time>2015-12-05T09:22:44Z</time>
      </trkpt>
      <trkpt lat="45.49405" lon="6.65351">
        <ele>2296.73</ele>
        <time>2015-12-05T09:22:52Z</time>
      </trkpt>
      <trkpt lat="45.49397" lon="6.65334">
        <ele>2296.73</ele>
        <time>2015-12-05T09:23:02Z</time>
      </trkpt>
      <trkpt lat="45.49396" lon="6.65331">
        <ele>2297.21</ele>
        <time>2015-12-05T09:23:13Z</time>
      </trkpt>
      <trkpt lat="45.49395" lon="6.65331">
        <ele>2297.21</ele>
        <time>2015-12-05T09:23:24Z</time>
      </trkpt>
      <trkpt lat="45.49395" lon="6.65331">
        <ele>2297.21</ele>
        <time>2015-12-05T09:23:39Z</time>
      </trkpt>
      <trkpt lat="45.49395" lon="6.6533">
        <ele>2297.21</ele>
        <time>2015-12-05T09:23:56Z</time>
      </trkpt>
      <trkpt lat="45.49395" lon="6.65329">
        <ele>2297.21</ele>
        <time>2015-12-05T09:24:00Z</time>
      </trkpt>
      <trkpt lat="45.49394" lon="6.65327">
        <ele>2297.21</ele>
        <time>2015-12-05T09:24:18Z</time>
      </trkpt>
      <trkpt lat="45.49394" lon="6.65328">
        <ele>2297.21</ele>
        <time>2015-12-05T09:24:41Z</time>
      </trkpt>
      <trkpt lat="45.49394" lon="6.65328">
        <ele>2297.69</ele>
        <time>2015-12-05T09:25:02Z</time>
      </trkpt>
      <trkpt lat="45.49394" lon="6.65328">
        <ele>2298.17</ele>
        <time>2015-12-05T09:25:38Z</time>
      </trkpt>
      <trkpt lat="45.49392" lon="6.65329">
        <ele>2298.17</ele>
        <time>2015-12-05T09:26:05Z</time>
      </trkpt>
      <trkpt lat="45.49394" lon="6.65327">
        <ele>2298.17</ele>
        <time>2015-12-05T09:26:37Z</time>
      </trkpt>
      <trkpt lat="45.49394" lon="6.65328">
        <ele>2298.17</ele>
        <time>2015-12-05T09:27:14Z</time>
      </trkpt>
      <trkpt lat="45.49393" lon="6.65327">
        <ele>2298.65</ele>
        <time>2015-12-05T09:27:48Z</time>
      </trkpt>
      <trkpt lat="45.49392" lon="6.65327">
        <ele>2298.65</ele>
        <time>2015-12-05T09:28:20Z</time>
      </trkpt>
      <trkpt lat="45.49392" lon="6.65329">
        <ele>2300.57</ele>
        <time>2015-12-05T09:28:33Z</time>
      </trkpt>
      <trkpt lat="45.49392" lon="6.65329">
        <ele>2296.73</ele>
        <time>2015-12-05T09:28:34Z</time>
      </trkpt>
      <trkpt lat="45.49392" lon="6.65329">
        <ele>2298.65</ele>
        <time>2015-12-05T09:28:35Z</time>
      </trkpt>
      <trkpt lat="45.49394" lon="6.65329">
        <ele>2299.13</ele>
        <time>2015-12-05T09:28:41Z</time>
      </trkpt>
      <trkpt lat="45.49395" lon="6.65329">
        <ele>2299.61</ele>
        <time>2015-12-05T09:28:50Z</time>
      </trkpt>
      <trkpt lat="45.49395" lon="6.65328">
        <ele>2299.61</ele>
        <time>2015-12-05T09:29:03Z</time>
      </trkpt>
      <trkpt lat="45.49394" lon="6.65328">
        <ele>2300.09</ele>
        <time>2015-12-05T09:29:22Z</time>
      </trkpt>
      <trkpt lat="45.49395" lon="6.65329">
        <ele>2300.09</ele>
        <time>2015-12-05T09:29:39Z</time>
      </trkpt>
      <trkpt lat="45.49395" lon="6.65329">
        <ele>2300.09</ele>
        <time>2015-12-05T09:30:03Z</time>
      </trkpt>
      <trkpt lat="45.49396" lon="6.65328">
        <ele>2300.57</ele>
        <time>2015-12-05T09:30:20Z</time>
      </trkpt>
      <trkpt lat="45.49394" lon="6.65326">
        <ele>2300.57</ele>
        <time>2015-12-05T09:30:30Z</time>
      </trkpt>
      <trkpt lat="45.49394" lon="6.65325">
        <ele>2300.57</ele>
        <time>2015-12-05T09:30:43Z</time>
      </trkpt>
      <trkpt lat="45.49394" lon="6.65326">
        <ele>2300.57</ele>
        <time>2015-12-05T09:30:59Z</time>
      </trkpt>
      <trkpt lat="45.49393" lon="6.65323">
        <ele>2300.57</ele>
        <time>2015-12-05T09:31:15Z</time>
      </trkpt>
      <trkpt lat="45.49391" lon="6.65321">
        <ele>2301.53</ele>
        <time>2015-12-05T09:31:18Z</time>
      </trkpt>
      <trkpt lat="45.49387" lon="6.65306">
        <ele>2303.94</ele>
        <time>2015-12-05T09:31:30Z</time>
      </trkpt>
      <trkpt lat="45.49386" lon="6.65302">
        <ele>2304.42</ele>
        <time>2015-12-05T09:31:33Z</time>
      </trkpt>
      <trkpt lat="45.49385" lon="6.653">
        <ele>2304.42</ele>
        <time>2015-12-05T09:31:34Z</time>
      </trkpt>
      <trkpt lat="45.49385" lon="6.65299">
        <ele>2304.42</ele>
        <time>2015-12-05T09:31:35Z</time>
      </trkpt>
      <trkpt lat="45.49378" lon="6.65282">
        <ele>2304.9</ele>
        <time>2015-12-05T09:31:46Z</time>
      </trkpt>
      <trkpt lat="45.49377" lon="6.65281">
        <ele>2304.9</ele>
        <time>2015-12-05T09:31:47Z</time>
      </trkpt>
      <trkpt lat="45.49377" lon="6.65279">
        <ele>2304.9</ele>
        <time>2015-12-05T09:31:48Z</time>
      </trkpt>
      <trkpt lat="45.49376" lon="6.65278">
        <ele>2305.38</ele>
        <time>2015-12-05T09:31:49Z</time>
      </trkpt>
      <trkpt lat="45.49375" lon="6.65277">
        <ele>2305.38</ele>
        <time>2015-12-05T09:31:50Z</time>
      </trkpt>
      <trkpt lat="45.49371" lon="6.65273">
        <ele>2305.38</ele>
        <time>2015-12-05T09:31:54Z</time>
      </trkpt>
      <trkpt lat="45.49368" lon="6.65268">
        <ele>2305.38</ele>
        <time>2015-12-05T09:31:58Z</time>
      </trkpt>
      <trkpt lat="45.49367" lon="6.65267">
        <ele>2305.38</ele>
        <time>2015-12-05T09:31:59Z</time>
      </trkpt>
      <trkpt lat="45.49366" lon="6.65266">
        <ele>2305.38</ele>
        <time>2015-12-05T09:32:00Z</time>
      </trkpt>
      <trkpt lat="45.49362" lon="6.65259">
        <ele>2305.86</ele>
        <time>2015-12-05T09:32:12Z</time>
      </trkpt>
      <trkpt lat="45.49362" lon="6.65257">
        <ele>2305.86</ele>
        <time>2015-12-05T09:32:15Z</time>
      </trkpt>
      <trkpt lat="45.49359" lon="6.65251">
        <ele>2305.86</ele>
        <time>2015-12-05T09:32:21Z</time>
      </trkpt>
      <trkpt lat="45.49358" lon="6.6525">
        <ele>2305.86</ele>
        <time>2015-12-05T09:32:22Z</time>
      </trkpt>
      <trkpt lat="45.49358" lon="6.65249">
        <ele>2305.86</ele>
        <time>2015-12-05T09:32:23Z</time>
      </trkpt>
      <trkpt lat="45.49353" lon="6.65234">
        <ele>2306.82</ele>
        <time>2015-12-05T09:32:36Z</time>
      </trkpt>
      <trkpt lat="45.49351" lon="6.65224">
        <ele>2310.19</ele>
        <time>2015-12-05T09:32:46Z</time>
      </trkpt>
      <trkpt lat="45.49347" lon="6.65214">
        <ele>2312.11</ele>
        <time>2015-12-05T09:32:56Z</time>
      </trkpt>
      <trkpt lat="45.49346" lon="6.65213">
        <ele>2312.11</ele>
        <time>2015-12-05T09:32:57Z</time>
      </trkpt>
      <trkpt lat="45.49346" lon="6.65212">
        <ele>2312.11</ele>
        <time>2015-12-05T09:32:58Z</time>
      </trkpt>
      <trkpt lat="45.49341" lon="6.652">
        <ele>2315.47</ele>
        <time>2015-12-05T09:33:12Z</time>
      </trkpt>
      <trkpt lat="45.49337" lon="6.65188">
        <ele>2317.4</ele>
        <time>2015-12-05T09:33:25Z</time>
      </trkpt>
      <trkpt lat="45.49332" lon="6.65177">
        <ele>2319.8</ele>
        <time>2015-12-05T09:33:37Z</time>
      </trkpt>
      <trkpt lat="45.49329" lon="6.65167">
        <ele>2321.24</ele>
        <time>2015-12-05T09:33:48Z</time>
      </trkpt>
      <trkpt lat="45.49326" lon="6.65153">
        <ele>2322.68</ele>
        <time>2015-12-05T09:34:00Z</time>
      </trkpt>
      <trkpt lat="45.49325" lon="6.65149">
        <ele>2323.64</ele>
        <time>2015-12-05T09:34:03Z</time>
      </trkpt>
      <trkpt lat="45.49323" lon="6.65134">
        <ele>2327.01</ele>
        <time>2015-12-05T09:34:17Z</time>
      </trkpt>
      <trkpt lat="45.49325" lon="6.65116">
        <ele>2329.41</ele>
        <time>2015-12-05T09:34:33Z</time>
      </trkpt>
      <trkpt lat="45.49328" lon="6.65109">
        <ele>2331.81</ele>
        <time>2015-12-05T09:34:45Z</time>
      </trkpt>
      <trkpt lat="45.49331" lon="6.651">
        <ele>2334.22</ele>
        <time>2015-12-05T09:34:58Z</time>
      </trkpt>
      <trkpt lat="45.4933" lon="6.6509">
        <ele>2336.62</ele>
        <time>2015-12-05T09:35:10Z</time>
      </trkpt>
      <trkpt lat="45.49326" lon="6.65082">
        <ele>2338.06</ele>
        <time>2015-12-05T09:35:23Z</time>
      </trkpt>
      <trkpt lat="45.49325" lon="6.65079">
        <ele>2338.54</ele>
        <time>2015-12-05T09:35:35Z</time>
      </trkpt>
      <trkpt lat="45.49323" lon="6.65075">
        <ele>2339.02</ele>
        <time>2015-12-05T09:35:45Z</time>
      </trkpt>
      <trkpt lat="45.49322" lon="6.65074">
        <ele>2339.51</ele>
        <time>2015-12-05T09:35:46Z</time>
      </trkpt>
      <trkpt lat="45.49321" lon="6.65072">
        <ele>2339.51</ele>
        <time>2015-12-05T09:35:47Z</time>
      </trkpt>
      <trkpt lat="45.49313" lon="6.65061">
        <ele>2342.39</ele>
        <time>2015-12-05T09:36:03Z</time>
      </trkpt>
      <trkpt lat="45.49313" lon="6.65055">
        <ele>2343.83</ele>
        <time>2015-12-05T09:36:08Z</time>
      </trkpt>
      <trkpt lat="45.49312" lon="6.65054">
        <ele>2343.83</ele>
        <time>2015-12-05T09:36:09Z</time>
      </trkpt>
      <trkpt lat="45.49312" lon="6.65052">
        <ele>2344.31</ele>
        <time>2015-12-05T09:36:10Z</time>
      </trkpt>
      <trkpt lat="45.4931" lon="6.6503">
        <ele>2346.23</ele>
        <time>2015-12-05T09:36:27Z</time>
      </trkpt>
      <trkpt lat="45.49311" lon="6.65013">
        <ele>2349.12</ele>
        <time>2015-12-05T09:36:41Z</time>
      </trkpt>
      <trkpt lat="45.49312" lon="6.64997">
        <ele>2352</ele>
        <time>2015-12-05T09:36:57Z</time>
      </trkpt>
      <trkpt lat="45.49312" lon="6.64986">
        <ele>2355.37</ele>
        <time>2015-12-05T09:37:11Z</time>
      </trkpt>
      <trkpt lat="45.49308" lon="6.64973">
        <ele>2356.81</ele>
        <time>2015-12-05T09:37:24Z</time>
      </trkpt>
      <trkpt lat="45.49309" lon="6.64958">
        <ele>2359.21</ele>
        <time>2015-12-05T09:37:39Z</time>
      </trkpt>
      <trkpt lat="45.49311" lon="6.64946">
        <ele>2361.62</ele>
        <time>2015-12-05T09:37:53Z</time>
      </trkpt>
      <trkpt lat="45.49317" lon="6.64934">
        <ele>2363.06</ele>
        <time>2015-12-05T09:38:07Z</time>
      </trkpt>
      <trkpt lat="45.49325" lon="6.64919">
        <ele>2365.94</ele>
        <time>2015-12-05T09:38:24Z</time>
      </trkpt>
      <trkpt lat="45.49326" lon="6.64907">
        <ele>2369.31</ele>
        <time>2015-12-05T09:38:38Z</time>
      </trkpt>
      <trkpt lat="45.49328" lon="6.64897">
        <ele>2370.75</ele>
        <time>2015-12-05T09:38:50Z</time>
      </trkpt>
      <trkpt lat="45.49331" lon="6.64886">
        <ele>2373.15</ele>
        <time>2015-12-05T09:39:03Z</time>
      </trkpt>
      <trkpt lat="45.49332" lon="6.64876">
        <ele>2375.55</ele>
        <time>2015-12-05T09:39:18Z</time>
      </trkpt>
      <trkpt lat="45.49331" lon="6.64872">
        <ele>2376.52</ele>
        <time>2015-12-05T09:39:30Z</time>
      </trkpt>
      <trkpt lat="45.49331" lon="6.64862">
        <ele>2378.44</ele>
        <time>2015-12-05T09:39:42Z</time>
      </trkpt>
      <trkpt lat="45.4933" lon="6.6485">
        <ele>2380.84</ele>
        <time>2015-12-05T09:39:55Z</time>
      </trkpt>
      <trkpt lat="45.49328" lon="6.64835">
        <ele>2383.73</ele>
        <time>2015-12-05T09:40:11Z</time>
      </trkpt>
      <trkpt lat="45.49329" lon="6.64823">
        <ele>2387.09</ele>
        <time>2015-12-05T09:40:25Z</time>
      </trkpt>
      <trkpt lat="45.4933" lon="6.64808">
        <ele>2389.97</ele>
        <time>2015-12-05T09:40:42Z</time>
      </trkpt>
      <trkpt lat="45.49332" lon="6.64797">
        <ele>2391.9</ele>
        <time>2015-12-05T09:40:55Z</time>
      </trkpt>
      <trkpt lat="45.49332" lon="6.64785">
        <ele>2394.78</ele>
        <time>2015-12-05T09:41:09Z</time>
      </trkpt>
      <trkpt lat="45.49333" lon="6.64773">
        <ele>2397.67</ele>
        <time>2015-12-05T09:41:23Z</time>
      </trkpt>
      <trkpt lat="45.49336" lon="6.64763">
        <ele>2400.07</ele>
        <time>2015-12-05T09:41:36Z</time>
      </trkpt>
      <trkpt lat="45.49336" lon="6.64756">
        <ele>2401.51</ele>
        <time>2015-12-05T09:41:46Z</time>
      </trkpt>
      <trkpt lat="45.49329" lon="6.64757">
        <ele>2403.43</ele>
        <time>2015-12-05T09:41:56Z</time>
      </trkpt>
      <trkpt lat="45.49325" lon="6.64757">
        <ele>2404.88</ele>
        <time>2015-12-05T09:42:12Z</time>
      </trkpt>
      <trkpt lat="45.49333" lon="6.64747">
        <ele>2406.8</ele>
        <time>2015-12-05T09:42:28Z</time>
      </trkpt>
      <trkpt lat="45.49335" lon="6.64747">
        <ele>2407.76</ele>
        <time>2015-12-05T09:42:42Z</time>
      </trkpt>
      <trkpt lat="45.49335" lon="6.64742">
        <ele>2408.24</ele>
        <time>2015-12-05T09:43:00Z</time>
      </trkpt>
      <trkpt lat="45.49335" lon="6.64744">
        <ele>2408.24</ele>
        <time>2015-12-05T09:43:27Z</time>
      </trkpt>
      <trkpt lat="45.49338" lon="6.64735">
        <ele>2409.68</ele>
        <time>2015-12-05T09:43:41Z</time>
      </trkpt>
      <trkpt lat="45.49341" lon="6.64732">
        <ele>2410.16</ele>
        <time>2015-12-05T09:43:46Z</time>
      </trkpt>
      <trkpt lat="45.49346" lon="6.6473">
        <ele>2411.6</ele>
        <time>2015-12-05T09:43:54Z</time>
      </trkpt>
      <trkpt lat="45.49348" lon="6.64729">
        <ele>2413.53</ele>
        <time>2015-12-05T09:44:03Z</time>
      </trkpt>
      <trkpt lat="45.49346" lon="6.64724">
        <ele>2414.01</ele>
        <time>2015-12-05T09:44:11Z</time>
      </trkpt>
      <trkpt lat="45.49344" lon="6.64719">
        <ele>2414.49</ele>
        <time>2015-12-05T09:44:16Z</time>
      </trkpt>
      <trkpt lat="45.49336" lon="6.64717">
        <ele>2417.37</ele>
        <time>2015-12-05T09:44:31Z</time>
      </trkpt>
      <trkpt lat="45.49339" lon="6.64714">
        <ele>2418.33</ele>
        <time>2015-12-05T09:44:45Z</time>
      </trkpt>
      <trkpt lat="45.49341" lon="6.64705">
        <ele>2420.74</ele>
        <time>2015-12-05T09:44:58Z</time>
      </trkpt>
      <trkpt lat="45.49337" lon="6.64695">
        <ele>2424.1</ele>
        <time>2015-12-05T09:45:12Z</time>
      </trkpt>
      <trkpt lat="45.49334" lon="6.64684">
        <ele>2426.99</ele>
        <time>2015-12-05T09:45:26Z</time>
      </trkpt>
      <trkpt lat="45.49331" lon="6.64674">
        <ele>2429.87</ele>
        <time>2015-12-05T09:45:41Z</time>
      </trkpt>
      <trkpt lat="45.4933" lon="6.64668">
        <ele>2430.83</ele>
        <time>2015-12-05T09:45:55Z</time>
      </trkpt>
      <trkpt lat="45.49327" lon="6.6466">
        <ele>2431.79</ele>
        <time>2015-12-05T09:46:08Z</time>
      </trkpt>
      <trkpt lat="45.49324" lon="6.64652">
        <ele>2433.23</ele>
        <time>2015-12-05T09:46:19Z</time>
      </trkpt>
      <trkpt lat="45.4932" lon="6.64645">
        <ele>2434.2</ele>
        <time>2015-12-05T09:46:29Z</time>
      </trkpt>
      <trkpt lat="45.49315" lon="6.64639">
        <ele>2435.16</ele>
        <time>2015-12-05T09:46:38Z</time>
      </trkpt>
      <trkpt lat="45.49311" lon="6.64635">
        <ele>2436.6</ele>
        <time>2015-12-05T09:46:48Z</time>
      </trkpt>
      <trkpt lat="45.49307" lon="6.64631">
        <ele>2437.56</ele>
        <time>2015-12-05T09:46:55Z</time>
      </trkpt>
      <trkpt lat="45.49299" lon="6.64623">
        <ele>2439.48</ele>
        <time>2015-12-05T09:47:08Z</time>
      </trkpt>
      <trkpt lat="45.49293" lon="6.64615">
        <ele>2440.92</ele>
        <time>2015-12-05T09:47:21Z</time>
      </trkpt>
      <trkpt lat="45.4929" lon="6.64607">
        <ele>2441.89</ele>
        <time>2015-12-05T09:47:31Z</time>
      </trkpt>
      <trkpt lat="45.49286" lon="6.64594">
        <ele>2445.25</ele>
        <time>2015-12-05T09:47:46Z</time>
      </trkpt>
      <trkpt lat="45.49281" lon="6.64579">
        <ele>2448.13</ele>
        <time>2015-12-05T09:48:02Z</time>
      </trkpt>
      <trkpt lat="45.49281" lon="6.64578">
        <ele>2448.62</ele>
        <time>2015-12-05T09:48:15Z</time>
      </trkpt>
      <trkpt lat="45.49281" lon="6.64578">
        <ele>2448.62</ele>
        <time>2015-12-05T09:48:28Z</time>
      </trkpt>
      <trkpt lat="45.49278" lon="6.64569">
        <ele>2449.58</ele>
        <time>2015-12-05T09:48:39Z</time>
      </trkpt>
      <trkpt lat="45.49276" lon="6.64561">
        <ele>2451.98</ele>
        <time>2015-12-05T09:48:50Z</time>
      </trkpt>
      <trkpt lat="45.49275" lon="6.64553">
        <ele>2453.42</ele>
        <time>2015-12-05T09:49:04Z</time>
      </trkpt>
      <trkpt lat="45.49274" lon="6.64543">
        <ele>2456.31</ele>
        <time>2015-12-05T09:49:18Z</time>
      </trkpt>
      <trkpt lat="45.49272" lon="6.64534">
        <ele>2457.75</ele>
        <time>2015-12-05T09:49:33Z</time>
      </trkpt>
      <trkpt lat="45.49272" lon="6.64526">
        <ele>2460.63</ele>
        <time>2015-12-05T09:49:45Z</time>
      </trkpt>
      <trkpt lat="45.49277" lon="6.64521">
        <ele>2463.04</ele>
        <time>2015-12-05T09:49:57Z</time>
      </trkpt>
      <trkpt lat="45.49284" lon="6.64513">
        <ele>2465.92</ele>
        <time>2015-12-05T09:50:10Z</time>
      </trkpt>
      <trkpt lat="45.49287" lon="6.64502">
        <ele>2467.84</ele>
        <time>2015-12-05T09:50:23Z</time>
      </trkpt>
      <trkpt lat="45.49292" lon="6.64489">
        <ele>2470.73</ele>
        <time>2015-12-05T09:50:40Z</time>
      </trkpt>
      <trkpt lat="45.49295" lon="6.64477">
        <ele>2473.61</ele>
        <time>2015-12-05T09:50:55Z</time>
      </trkpt>
      <trkpt lat="45.49299" lon="6.64468">
        <ele>2476.49</ele>
        <time>2015-12-05T09:51:09Z</time>
      </trkpt>
      <trkpt lat="45.49305" lon="6.64466">
        <ele>2478.42</ele>
        <time>2015-12-05T09:51:20Z</time>
      </trkpt>
      <trkpt lat="45.4931" lon="6.64455">
        <ele>2478.42</ele>
        <time>2015-12-05T09:51:32Z</time>
      </trkpt>
      <trkpt lat="45.49313" lon="6.64453">
        <ele>2477.45</ele>
        <time>2015-12-05T09:51:35Z</time>
      </trkpt>
      <trkpt lat="45.49323" lon="6.64437">
        <ele>2474.09</ele>
        <time>2015-12-05T09:51:48Z</time>
      </trkpt>
      <trkpt lat="45.49324" lon="6.64435">
        <ele>2474.09</ele>
        <time>2015-12-05T09:51:49Z</time>
      </trkpt>
      <trkpt lat="45.49333" lon="6.64422">
        <ele>2471.21</ele>
        <time>2015-12-05T09:51:57Z</time>
      </trkpt>
      <trkpt lat="45.49336" lon="6.64418">
        <ele>2471.21</ele>
        <time>2015-12-05T09:52:12Z</time>
      </trkpt>
      <trkpt lat="45.4934" lon="6.64411">
        <ele>2470.73</ele>
        <time>2015-12-05T09:52:27Z</time>
      </trkpt>
      <trkpt lat="45.4935" lon="6.64395">
        <ele>2467.84</ele>
        <time>2015-12-05T09:52:40Z</time>
      </trkpt>
      <trkpt lat="45.49352" lon="6.6439">
        <ele>2467.84</ele>
        <time>2015-12-05T09:52:43Z</time>
      </trkpt>
      <trkpt lat="45.49353" lon="6.64388">
        <ele>2467.36</ele>
        <time>2015-12-05T09:52:44Z</time>
      </trkpt>
      <trkpt lat="45.49354" lon="6.64386">
        <ele>2467.36</ele>
        <time>2015-12-05T09:52:45Z</time>
      </trkpt>
      <trkpt lat="45.49355" lon="6.64385">
        <ele>2467.36</ele>
        <time>2015-12-05T09:52:46Z</time>
      </trkpt>
      <trkpt lat="45.49355" lon="6.64384">
        <ele>2467.36</ele>
        <time>2015-12-05T09:52:47Z</time>
      </trkpt>
      <trkpt lat="45.49356" lon="6.64383">
        <ele>2467.36</ele>
        <time>2015-12-05T09:52:48Z</time>
      </trkpt>
      <trkpt lat="45.49356" lon="6.64382">
        <ele>2466.88</ele>
        <time>2015-12-05T09:52:57Z</time>
      </trkpt>
      <trkpt lat="45.49356" lon="6.64383">
        <ele>2466.88</ele>
        <time>2015-12-05T09:53:16Z</time>
      </trkpt>
      <trkpt lat="45.49355" lon="6.64384">
        <ele>2466.88</ele>
        <time>2015-12-05T09:53:23Z</time>
      </trkpt>
      <trkpt lat="45.49356" lon="6.64381">
        <ele>2466.88</ele>
        <time>2015-12-05T09:53:38Z</time>
      </trkpt>
      <trkpt lat="45.49357" lon="6.6438">
        <ele>2466.88</ele>
        <time>2015-12-05T09:53:39Z</time>
      </trkpt>
      <trkpt lat="45.49364" lon="6.64372">
        <ele>2468.32</ele>
        <time>2015-12-05T09:53:51Z</time>
      </trkpt>
      <trkpt lat="45.49367" lon="6.6437">
        <ele>2469.76</ele>
        <time>2015-12-05T09:54:05Z</time>
      </trkpt>
      <trkpt lat="45.49376" lon="6.64366">
        <ele>2473.13</ele>
        <time>2015-12-05T09:54:21Z</time>
      </trkpt>
      <trkpt lat="45.49382" lon="6.64363">
        <ele>2474.57</ele>
        <time>2015-12-05T09:54:35Z</time>
      </trkpt>
      <trkpt lat="45.49383" lon="6.64362">
        <ele>2475.53</ele>
        <time>2015-12-05T09:54:38Z</time>
      </trkpt>
      <trkpt lat="45.49386" lon="6.6436">
        <ele>2476.49</ele>
        <time>2015-12-05T09:54:50Z</time>
      </trkpt>
      <trkpt lat="45.49385" lon="6.64356">
        <ele>2477.94</ele>
        <time>2015-12-05T09:54:56Z</time>
      </trkpt>
      <trkpt lat="45.49385" lon="6.64348">
        <ele>2477.94</ele>
        <time>2015-12-05T09:55:06Z</time>
      </trkpt>
      <trkpt lat="45.49389" lon="6.64337">
        <ele>2480.34</ele>
        <time>2015-12-05T09:55:20Z</time>
      </trkpt>
      <trkpt lat="45.49391" lon="6.6433">
        <ele>2482.26</ele>
        <time>2015-12-05T09:55:32Z</time>
      </trkpt>
      <trkpt lat="45.49393" lon="6.64323">
        <ele>2484.66</ele>
        <time>2015-12-05T09:55:45Z</time>
      </trkpt>
      <trkpt lat="45.49395" lon="6.64318">
        <ele>2485.63</ele>
        <time>2015-12-05T09:55:56Z</time>
      </trkpt>
      <trkpt lat="45.49395" lon="6.64315">
        <ele>2486.59</ele>
        <time>2015-12-05T09:56:09Z</time>
      </trkpt>
      <trkpt lat="45.49399" lon="6.64306">
        <ele>2489.47</ele>
        <time>2015-12-05T09:56:22Z</time>
      </trkpt>
      <trkpt lat="45.49402" lon="6.64294">
        <ele>2492.36</ele>
        <time>2015-12-05T09:56:36Z</time>
      </trkpt>
      <trkpt lat="45.49405" lon="6.64285">
        <ele>2495.24</ele>
        <time>2015-12-05T09:56:49Z</time>
      </trkpt>
      <trkpt lat="45.49406" lon="6.6428">
        <ele>2496.68</ele>
        <time>2015-12-05T09:57:05Z</time>
      </trkpt>
      <trkpt lat="45.49406" lon="6.6428">
        <ele>2496.68</ele>
        <time>2015-12-05T09:57:27Z</time>
      </trkpt>
      <trkpt lat="45.49407" lon="6.64279">
        <ele>2496.68</ele>
        <time>2015-12-05T09:57:47Z</time>
      </trkpt>
      <trkpt lat="45.4941" lon="6.6427">
        <ele>2499.57</ele>
        <time>2015-12-05T09:57:59Z</time>
      </trkpt>
      <trkpt lat="45.49414" lon="6.64261">
        <ele>2502.45</ele>
        <time>2015-12-05T09:58:12Z</time>
      </trkpt>
      <trkpt lat="45.49418" lon="6.64252">
        <ele>2504.85</ele>
        <time>2015-12-05T09:58:24Z</time>
      </trkpt>
      <trkpt lat="45.49426" lon="6.64236">
        <ele>2505.81</ele>
        <time>2015-12-05T09:58:42Z</time>
      </trkpt>
      <trkpt lat="45.49434" lon="6.64225">
        <ele>2507.26</ele>
        <time>2015-12-05T09:58:57Z</time>
      </trkpt>
      <trkpt lat="45.49442" lon="6.6422">
        <ele>2509.66</ele>
        <time>2015-12-05T09:59:11Z</time>
      </trkpt>
      <trkpt lat="45.49447" lon="6.64217">
        <ele>2512.54</ele>
        <time>2015-12-05T09:59:22Z</time>
      </trkpt>
      <trkpt lat="45.49448" lon="6.64217">
        <ele>2513.02</ele>
        <time>2015-12-05T09:59:23Z</time>
      </trkpt>
      <trkpt lat="45.49451" lon="6.64217">
        <ele>2513.02</ele>
        <time>2015-12-05T09:59:36Z</time>
      </trkpt>
      <trkpt lat="45.49453" lon="6.64212">
        <ele>2514.47</ele>
        <time>2015-12-05T09:59:50Z</time>
      </trkpt>
      <trkpt lat="45.49459" lon="6.6421">
        <ele>2515.91</ele>
        <time>2015-12-05T10:00:03Z</time>
      </trkpt>
      <trkpt lat="45.49463" lon="6.64206">
        <ele>2517.35</ele>
        <time>2015-12-05T10:00:14Z</time>
      </trkpt>
      <trkpt lat="45.49462" lon="6.64204">
        <ele>2518.31</ele>
        <time>2015-12-05T10:00:28Z</time>
      </trkpt>
      <trkpt lat="45.49467" lon="6.64199">
        <ele>2519.75</ele>
        <time>2015-12-05T10:00:38Z</time>
      </trkpt>
      <trkpt lat="45.49473" lon="6.64193">
        <ele>2522.64</ele>
        <time>2015-12-05T10:00:51Z</time>
      </trkpt>
      <trkpt lat="45.49476" lon="6.64191">
        <ele>2523.6</ele>
        <time>2015-12-05T10:01:01Z</time>
      </trkpt>
      <trkpt lat="45.4948" lon="6.64186">
        <ele>2526.48</ele>
        <time>2015-12-05T10:01:13Z</time>
      </trkpt>
      <trkpt lat="45.49485" lon="6.6418">
        <ele>2529.37</ele>
        <time>2015-12-05T10:01:25Z</time>
      </trkpt>
      <trkpt lat="45.49488" lon="6.64172">
        <ele>2530.81</ele>
        <time>2015-12-05T10:01:41Z</time>
      </trkpt>
      <trkpt lat="45.49493" lon="6.64159">
        <ele>2532.25</ele>
        <time>2015-12-05T10:01:56Z</time>
      </trkpt>
      <trkpt lat="45.49495" lon="6.6415">
        <ele>2533.69</ele>
        <time>2015-12-05T10:02:09Z</time>
      </trkpt>
      <trkpt lat="45.49498" lon="6.64137">
        <ele>2534.65</ele>
        <time>2015-12-05T10:02:24Z</time>
      </trkpt>
      <trkpt lat="45.49497" lon="6.64132">
        <ele>2534.65</ele>
        <time>2015-12-05T10:02:29Z</time>
      </trkpt>
      <trkpt lat="45.49496" lon="6.64117">
        <ele>2534.65</ele>
        <time>2015-12-05T10:02:42Z</time>
      </trkpt>
      <trkpt lat="45.49498" lon="6.64107">
        <ele>2536.58</ele>
        <time>2015-12-05T10:02:54Z</time>
      </trkpt>
      <trkpt lat="45.49499" lon="6.64101">
        <ele>2537.54</ele>
        <time>2015-12-05T10:03:07Z</time>
      </trkpt>
      <trkpt lat="45.495" lon="6.6409">
        <ele>2538.98</ele>
        <time>2015-12-05T10:03:20Z</time>
      </trkpt>
      <trkpt lat="45.49501" lon="6.64077">
        <ele>2540.9</ele>
        <time>2015-12-05T10:03:34Z</time>
      </trkpt>
      <trkpt lat="45.49501" lon="6.64071">
        <ele>2541.86</ele>
        <time>2015-12-05T10:03:46Z</time>
      </trkpt>
      <trkpt lat="45.49501" lon="6.64071">
        <ele>2541.86</ele>
        <time>2015-12-05T10:04:02Z</time>
      </trkpt>
      <trkpt lat="45.49502" lon="6.64071">
        <ele>2541.86</ele>
        <time>2015-12-05T10:04:18Z</time>
      </trkpt>
      <trkpt lat="45.49502" lon="6.6407">
        <ele>2541.86</ele>
        <time>2015-12-05T10:04:33Z</time>
      </trkpt>
      <trkpt lat="45.49501" lon="6.64063">
        <ele>2542.34</ele>
        <time>2015-12-05T10:04:46Z</time>
      </trkpt>
      <trkpt lat="45.495" lon="6.64061">
        <ele>2542.34</ele>
        <time>2015-12-05T10:05:19Z</time>
      </trkpt>
      <trkpt lat="45.495" lon="6.64062">
        <ele>2542.34</ele>
        <time>2015-12-05T10:05:35Z</time>
      </trkpt>
      <trkpt lat="45.49499" lon="6.64062">
        <ele>2542.34</ele>
        <time>2015-12-05T10:06:00Z</time>
      </trkpt>
      <trkpt lat="45.49501" lon="6.64062">
        <ele>2542.34</ele>
        <time>2015-12-05T10:06:29Z</time>
      </trkpt>
      <trkpt lat="45.49501" lon="6.64052">
        <ele>2544.27</ele>
        <time>2015-12-05T10:06:44Z</time>
      </trkpt>
      <trkpt lat="45.49501" lon="6.64052">
        <ele>2544.75</ele>
        <time>2015-12-05T10:07:02Z</time>
      </trkpt>
      <trkpt lat="45.49501" lon="6.64052">
        <ele>2544.75</ele>
        <time>2015-12-05T10:07:22Z</time>
      </trkpt>
      <trkpt lat="45.49501" lon="6.64052">
        <ele>2544.75</ele>
        <time>2015-12-05T10:07:38Z</time>
      </trkpt>
      <trkpt lat="45.495" lon="6.64046">
        <ele>2545.71</ele>
        <time>2015-12-05T10:07:48Z</time>
      </trkpt>
      <trkpt lat="45.49498" lon="6.64044">
        <ele>2546.19</ele>
        <time>2015-12-05T10:08:02Z</time>
      </trkpt>
      <trkpt lat="45.49499" lon="6.64039">
        <ele>2546.67</ele>
        <time>2015-12-05T10:08:17Z</time>
      </trkpt>
      <trkpt lat="45.495" lon="6.64026">
        <ele>2548.59</ele>
        <time>2015-12-05T10:08:31Z</time>
      </trkpt>
      <trkpt lat="45.49499" lon="6.64014">
        <ele>2548.59</ele>
        <time>2015-12-05T10:08:45Z</time>
      </trkpt>
      <trkpt lat="45.49497" lon="6.64014">
        <ele>2548.59</ele>
        <time>2015-12-05T10:08:55Z</time>
      </trkpt>
      <trkpt lat="45.49497" lon="6.64013">
        <ele>2548.59</ele>
        <time>2015-12-05T10:09:14Z</time>
      </trkpt>
      <trkpt lat="45.49498" lon="6.64016">
        <ele>2548.59</ele>
        <time>2015-12-05T10:09:30Z</time>
      </trkpt>
      <trkpt lat="45.49497" lon="6.64015">
        <ele>2548.59</ele>
        <time>2015-12-05T10:09:39Z</time>
      </trkpt>
      <trkpt lat="45.49497" lon="6.64014">
        <ele>2548.11</ele>
        <time>2015-12-05T10:09:48Z</time>
      </trkpt>
      <trkpt lat="45.49497" lon="6.64014">
        <ele>2547.63</ele>
        <time>2015-12-05T10:10:21Z</time>
      </trkpt>
      <trkpt lat="45.49497" lon="6.64015">
        <ele>2547.63</ele>
        <time>2015-12-05T10:10:49Z</time>
      </trkpt>
      <trkpt lat="45.49498" lon="6.64015">
        <ele>2547.63</ele>
        <time>2015-12-05T10:11:20Z</time>
      </trkpt>
      <trkpt lat="45.49498" lon="6.64015">
        <ele>2547.63</ele>
        <time>2015-12-05T10:11:47Z</time>
      </trkpt>
      <trkpt lat="45.49498" lon="6.64014">
        <ele>2547.63</ele>
        <time>2015-12-05T10:12:16Z</time>
      </trkpt>
      <trkpt lat="45.49497" lon="6.64016">
        <ele>2547.15</ele>
        <time>2015-12-05T10:12:57Z</time>
      </trkpt>
      <trkpt lat="45.49497" lon="6.64016">
        <ele>2547.63</ele>
        <time>2015-12-05T10:13:35Z</time>
      </trkpt>
      <trkpt lat="45.49497" lon="6.64018">
        <ele>2547.63</ele>
        <time>2015-12-05T10:14:12Z</time>
      </trkpt>
      <trkpt lat="45.49498" lon="6.64017">
        <ele>2547.63</ele>
        <time>2015-12-05T10:14:52Z</time>
      </trkpt>
      <trkpt lat="45.49498" lon="6.64016">
        <ele>2546.19</ele>
        <time>2015-12-05T10:15:02Z</time>
      </trkpt>
      <trkpt lat="45.49497" lon="6.64016">
        <ele>2548.59</ele>
        <time>2015-12-05T10:15:04Z</time>
      </trkpt>
      <trkpt lat="45.49497" lon="6.64016">
        <ele>2551.96</ele>
        <time>2015-12-05T10:15:06Z</time>
      </trkpt>
      <trkpt lat="45.49497" lon="6.64016">
        <ele>2548.11</ele>
        <time>2015-12-05T10:15:07Z</time>
      </trkpt>
      <trkpt lat="45.49498" lon="6.64014">
        <ele>2547.63</ele>
        <time>2015-12-05T10:15:13Z</time>
      </trkpt>
      <trkpt lat="45.49498" lon="6.64013">
        <ele>2547.63</ele>
        <time>2015-12-05T10:15:25Z</time>
      </trkpt>
      <trkpt lat="45.49499" lon="6.64014">
        <ele>2548.11</ele>
        <time>2015-12-05T10:15:42Z</time>
      </trkpt>
      <trkpt lat="45.49498" lon="6.64014">
        <ele>2548.11</ele>
        <time>2015-12-05T10:16:07Z</time>
      </trkpt>
      <trkpt lat="45.49498" lon="6.64015">
        <ele>2549.55</ele>
        <time>2015-12-05T10:16:20Z</time>
      </trkpt>
      <trkpt lat="45.49498" lon="6.64016">
        <ele>2548.11</ele>
        <time>2015-12-05T10:16:43Z</time>
      </trkpt>
      <trkpt lat="45.49497" lon="6.64014">
        <ele>2548.11</ele>
        <time>2015-12-05T10:16:55Z</time>
      </trkpt>
      <trkpt lat="45.495" lon="6.64014">
        <ele>2548.11</ele>
        <time>2015-12-05T10:17:16Z</time>
      </trkpt>
      <trkpt lat="45.49499" lon="6.64013">
        <ele>2547.63</ele>
        <time>2015-12-05T10:17:31Z</time>
      </trkpt>
      <trkpt lat="45.49498" lon="6.64014">
        <ele>2547.63</ele>
        <time>2015-12-05T10:17:51Z</time>
      </trkpt>
      <trkpt lat="45.49498" lon="6.64014">
        <ele>2547.63</ele>
        <time>2015-12-05T10:18:16Z</time>
      </trkpt>
      <trkpt lat="45.49498" lon="6.64015">
        <ele>2548.59</ele>
        <time>2015-12-05T10:18:37Z</time>
      </trkpt>
      <trkpt lat="45.49498" lon="6.64015">
        <ele>2548.59</ele>
        <time>2015-12-05T10:18:54Z</time>
      </trkpt>
      <trkpt lat="45.49499" lon="6.6402">
        <ele>2548.59</ele>
        <time>2015-12-05T10:19:02Z</time>
      </trkpt>
      <trkpt lat="45.495" lon="6.64031">
        <ele>2548.59</ele>
        <time>2015-12-05T10:19:14Z</time>
      </trkpt>
      <trkpt lat="45.49499" lon="6.64037">
        <ele>2548.59</ele>
        <time>2015-12-05T10:19:29Z</time>
      </trkpt>
      <trkpt lat="45.49499" lon="6.64041">
        <ele>2547.63</ele>
        <time>2015-12-05T10:19:30Z</time>
      </trkpt>
      <trkpt lat="45.495" lon="6.64045">
        <ele>2546.67</ele>
        <time>2015-12-05T10:19:31Z</time>
      </trkpt>
      <trkpt lat="45.49501" lon="6.64048">
        <ele>2545.23</ele>
        <time>2015-12-05T10:19:34Z</time>
      </trkpt>
      <trkpt lat="45.495" lon="6.64048">
        <ele>2545.23</ele>
        <time>2015-12-05T10:19:51Z</time>
      </trkpt>
      <trkpt lat="45.49501" lon="6.64048">
        <ele>2544.75</ele>
        <time>2015-12-05T10:20:04Z</time>
      </trkpt>
      <trkpt lat="45.49504" lon="6.64051">
        <ele>2543.31</ele>
        <time>2015-12-05T10:20:12Z</time>
      </trkpt>
      <trkpt lat="45.49503" lon="6.64051">
        <ele>2542.82</ele>
        <time>2015-12-05T10:20:17Z</time>
      </trkpt>
      <trkpt lat="45.49503" lon="6.64056">
        <ele>2542.34</ele>
        <time>2015-12-05T10:20:19Z</time>
      </trkpt>
      <trkpt lat="45.49503" lon="6.64058">
        <ele>2541.38</ele>
        <time>2015-12-05T10:20:21Z</time>
      </trkpt>
      <trkpt lat="45.49504" lon="6.64059">
        <ele>2540.9</ele>
        <time>2015-12-05T10:20:23Z</time>
      </trkpt>
      <trkpt lat="45.49508" lon="6.64067">
        <ele>2539.46</ele>
        <time>2015-12-05T10:20:25Z</time>
      </trkpt>
      <trkpt lat="45.49509" lon="6.64072">
        <ele>2538.5</ele>
        <time>2015-12-05T10:20:26Z</time>
      </trkpt>
      <trkpt lat="45.4951" lon="6.64075">
        <ele>2538.5</ele>
        <time>2015-12-05T10:20:27Z</time>
      </trkpt>
      <trkpt lat="45.49511" lon="6.64075">
        <ele>2538.02</ele>
        <time>2015-12-05T10:20:41Z</time>
      </trkpt>
      <trkpt lat="45.49511" lon="6.64075">
        <ele>2538.02</ele>
        <time>2015-12-05T10:20:56Z</time>
      </trkpt>
      <trkpt lat="45.4951" lon="6.64075">
        <ele>2538.02</ele>
        <time>2015-12-05T10:21:16Z</time>
      </trkpt>
      <trkpt lat="45.4951" lon="6.64075">
        <ele>2538.02</ele>
        <time>2015-12-05T10:21:52Z</time>
      </trkpt>
      <trkpt lat="45.49512" lon="6.64075">
        <ele>2538.02</ele>
        <time>2015-12-05T10:22:08Z</time>
      </trkpt>
      <trkpt lat="45.49515" lon="6.64076">
        <ele>2536.58</ele>
        <time>2015-12-05T10:22:11Z</time>
      </trkpt>
      <trkpt lat="45.4952" lon="6.64078">
        <ele>2533.69</ele>
        <time>2015-12-05T10:22:18Z</time>
      </trkpt>
      <trkpt lat="45.4952" lon="6.64077">
        <ele>2533.21</ele>
        <time>2015-12-05T10:22:20Z</time>
      </trkpt>
      <trkpt lat="45.49523" lon="6.64073">
        <ele>2530.33</ele>
        <time>2015-12-05T10:22:23Z</time>
      </trkpt>
      <trkpt lat="45.49522" lon="6.64064">
        <ele>2527.44</ele>
        <time>2015-12-05T10:22:26Z</time>
      </trkpt>
      <trkpt lat="45.49528" lon="6.64066">
        <ele>2523.6</ele>
        <time>2015-12-05T10:22:29Z</time>
      </trkpt>
      <trkpt lat="45.49529" lon="6.64067">
        <ele>2523.6</ele>
        <time>2015-12-05T10:22:30Z</time>
      </trkpt>
      <trkpt lat="45.49532" lon="6.64068">
        <ele>2522.16</ele>
        <time>2015-12-05T10:22:32Z</time>
      </trkpt>
      <trkpt lat="45.49538" lon="6.64064">
        <ele>2518.79</ele>
        <time>2015-12-05T10:22:36Z</time>
      </trkpt>
      <trkpt lat="45.49538" lon="6.64061">
        <ele>2516.87</ele>
        <time>2015-12-05T10:22:38Z</time>
      </trkpt>
      <trkpt lat="45.49542" lon="6.64059">
        <ele>2513.5</ele>
        <time>2015-12-05T10:22:41Z</time>
      </trkpt>
      <trkpt lat="45.49542" lon="6.64059">
        <ele>2513.02</ele>
        <time>2015-12-05T10:22:42Z</time>
      </trkpt>
      <trkpt lat="45.49547" lon="6.64063">
        <ele>2510.62</ele>
        <time>2015-12-05T10:22:46Z</time>
      </trkpt>
      <trkpt lat="45.49553" lon="6.64058">
        <ele>2506.29</ele>
        <time>2015-12-05T10:22:50Z</time>
      </trkpt>
      <trkpt lat="45.49557" lon="6.64056">
        <ele>2501.97</ele>
        <time>2015-12-05T10:22:52Z</time>
      </trkpt>
      <trkpt lat="45.49559" lon="6.64055">
        <ele>2500.05</ele>
        <time>2015-12-05T10:23:04Z</time>
      </trkpt>
      <trkpt lat="45.49561" lon="6.64054">
        <ele>2499.08</ele>
        <time>2015-12-05T10:23:11Z</time>
      </trkpt>
      <trkpt lat="45.49561" lon="6.64044">
        <ele>2494.76</ele>
        <time>2015-12-05T10:23:15Z</time>
      </trkpt>
      <trkpt lat="45.4956" lon="6.64038">
        <ele>2493.8</ele>
        <time>2015-12-05T10:23:17Z</time>
      </trkpt>
      <trkpt lat="45.49566" lon="6.64033">
        <ele>2488.51</ele>
        <time>2015-12-05T10:23:20Z</time>
      </trkpt>
      <trkpt lat="45.49566" lon="6.64032">
        <ele>2488.51</ele>
        <time>2015-12-05T10:23:21Z</time>
      </trkpt>
      <trkpt lat="45.49566" lon="6.64032">
        <ele>2486.11</ele>
        <time>2015-12-05T10:23:22Z</time>
      </trkpt>
      <trkpt lat="45.49572" lon="6.64025">
        <ele>2481.78</ele>
        <time>2015-12-05T10:23:25Z</time>
      </trkpt>
      <trkpt lat="45.49574" lon="6.64018">
        <ele>2478.42</ele>
        <time>2015-12-05T10:23:28Z</time>
      </trkpt>
      <trkpt lat="45.49579" lon="6.64015">
        <ele>2474.57</ele>
        <time>2015-12-05T10:23:31Z</time>
      </trkpt>
      <trkpt lat="45.49583" lon="6.64011">
        <ele>2470.73</ele>
        <time>2015-12-05T10:23:33Z</time>
      </trkpt>
      <trkpt lat="45.49584" lon="6.64008">
        <ele>2469.28</ele>
        <time>2015-12-05T10:23:34Z</time>
      </trkpt>
      <trkpt lat="45.49584" lon="6.64005">
        <ele>2467.84</ele>
        <time>2015-12-05T10:23:36Z</time>
      </trkpt>
      <trkpt lat="45.49584" lon="6.64005">
        <ele>2467.84</ele>
        <time>2015-12-05T10:23:48Z</time>
      </trkpt>
      <trkpt lat="45.49585" lon="6.64007">
        <ele>2467.36</ele>
        <time>2015-12-05T10:23:52Z</time>
      </trkpt>
      <trkpt lat="45.49592" lon="6.64008">
        <ele>2463.52</ele>
        <time>2015-12-05T10:23:55Z</time>
      </trkpt>
      <trkpt lat="45.49596" lon="6.64005">
        <ele>2460.15</ele>
        <time>2015-12-05T10:23:57Z</time>
      </trkpt>
      <trkpt lat="45.49601" lon="6.64006">
        <ele>2456.79</ele>
        <time>2015-12-05T10:23:59Z</time>
      </trkpt>
      <trkpt lat="45.49606" lon="6.63999">
        <ele>2453.42</ele>
        <time>2015-12-05T10:24:01Z</time>
      </trkpt>
      <trkpt lat="45.49611" lon="6.64001">
        <ele>2449.1</ele>
        <time>2015-12-05T10:24:03Z</time>
      </trkpt>
      <trkpt lat="45.49618" lon="6.63999">
        <ele>2445.25</ele>
        <time>2015-12-05T10:24:05Z</time>
      </trkpt>
      <trkpt lat="45.49626" lon="6.63997">
        <ele>2440.92</ele>
        <time>2015-12-05T10:24:07Z</time>
      </trkpt>
      <trkpt lat="45.49633" lon="6.63994">
        <ele>2436.12</ele>
        <time>2015-12-05T10:24:09Z</time>
      </trkpt>
      <trkpt lat="45.4964" lon="6.63994">
        <ele>2431.31</ele>
        <time>2015-12-05T10:24:11Z</time>
      </trkpt>
      <trkpt lat="45.49648" lon="6.63993">
        <ele>2425.54</ele>
        <time>2015-12-05T10:24:13Z</time>
      </trkpt>
      <trkpt lat="45.49648" lon="6.63997">
        <ele>2422.18</ele>
        <time>2015-12-05T10:24:16Z</time>
      </trkpt>
      <trkpt lat="45.49648" lon="6.63997">
        <ele>2424.1</ele>
        <time>2015-12-05T10:24:18Z</time>
      </trkpt>
      <trkpt lat="45.49647" lon="6.63997">
        <ele>2424.1</ele>
        <time>2015-12-05T10:24:36Z</time>
      </trkpt>
      <trkpt lat="45.49647" lon="6.63997">
        <ele>2424.1</ele>
        <time>2015-12-05T10:24:45Z</time>
      </trkpt>
      <trkpt lat="45.49655" lon="6.6402">
        <ele>2420.74</ele>
        <time>2015-12-05T10:24:52Z</time>
      </trkpt>
      <trkpt lat="45.49659" lon="6.64027">
        <ele>2419.78</ele>
        <time>2015-12-05T10:24:54Z</time>
      </trkpt>
      <trkpt lat="45.49667" lon="6.64023">
        <ele>2415.45</ele>
        <time>2015-12-05T10:24:58Z</time>
      </trkpt>
      <trkpt lat="45.49673" lon="6.64029">
        <ele>2412.09</ele>
        <time>2015-12-05T10:25:00Z</time>
      </trkpt>
      <trkpt lat="45.49677" lon="6.64039">
        <ele>2409.68</ele>
        <time>2015-12-05T10:25:03Z</time>
      </trkpt>
      <trkpt lat="45.49682" lon="6.64031">
        <ele>2404.88</ele>
        <time>2015-12-05T10:25:08Z</time>
      </trkpt>
      <trkpt lat="45.49683" lon="6.64023">
        <ele>2402.95</ele>
        <time>2015-12-05T10:25:18Z</time>
      </trkpt>
      <trkpt lat="45.49683" lon="6.64022">
        <ele>2402.95</ele>
        <time>2015-12-05T10:25:19Z</time>
      </trkpt>
      <trkpt lat="45.49692" lon="6.6403">
        <ele>2400.07</ele>
        <time>2015-12-05T10:25:23Z</time>
      </trkpt>
      <trkpt lat="45.49694" lon="6.64035">
        <ele>2399.11</ele>
        <time>2015-12-05T10:25:24Z</time>
      </trkpt>
      <trkpt lat="45.49698" lon="6.64044">
        <ele>2397.67</ele>
        <time>2015-12-05T10:25:26Z</time>
      </trkpt>
      <trkpt lat="45.49708" lon="6.64061">
        <ele>2395.26</ele>
        <time>2015-12-05T10:25:29Z</time>
      </trkpt>
      <trkpt lat="45.49726" lon="6.6409">
        <ele>2389.97</ele>
        <time>2015-12-05T10:25:33Z</time>
      </trkpt>
      <trkpt lat="45.49738" lon="6.64107">
        <ele>2386.13</ele>
        <time>2015-12-05T10:25:35Z</time>
      </trkpt>
      <trkpt lat="45.49762" lon="6.64125">
        <ele>2380.36</ele>
        <time>2015-12-05T10:25:38Z</time>
      </trkpt>
      <trkpt lat="45.4977" lon="6.64127">
        <ele>2377.96</ele>
        <time>2015-12-05T10:25:39Z</time>
      </trkpt>
      <trkpt lat="45.49785" lon="6.64131">
        <ele>2376.04</ele>
        <time>2015-12-05T10:25:41Z</time>
      </trkpt>
      <trkpt lat="45.49812" lon="6.64145">
        <ele>2370.75</ele>
        <time>2015-12-05T10:25:46Z</time>
      </trkpt>
      <trkpt lat="45.49839" lon="6.64156">
        <ele>2367.38</ele>
        <time>2015-12-05T10:25:51Z</time>
      </trkpt>
      <trkpt lat="45.49855" lon="6.64161">
        <ele>2365.94</ele>
        <time>2015-12-05T10:25:55Z</time>
      </trkpt>
      <trkpt lat="45.49861" lon="6.64166">
        <ele>2363.54</ele>
        <time>2015-12-05T10:26:01Z</time>
      </trkpt>
      <trkpt lat="45.49862" lon="6.64167">
        <ele>2364.02</ele>
        <time>2015-12-05T10:26:27Z</time>
      </trkpt>
      <trkpt lat="45.49862" lon="6.64167">
        <ele>2364.02</ele>
        <time>2015-12-05T10:26:47Z</time>
      </trkpt>
      <trkpt lat="45.49863" lon="6.64167">
        <ele>2364.02</ele>
        <time>2015-12-05T10:27:01Z</time>
      </trkpt>
      <trkpt lat="45.49862" lon="6.64167">
        <ele>2364.02</ele>
        <time>2015-12-05T10:27:18Z</time>
      </trkpt>
      <trkpt lat="45.49862" lon="6.64167">
        <ele>2364.02</ele>
        <time>2015-12-05T10:27:31Z</time>
      </trkpt>
      <trkpt lat="45.49862" lon="6.64167">
        <ele>2364.02</ele>
        <time>2015-12-05T10:27:51Z</time>
      </trkpt>
      <trkpt lat="45.49862" lon="6.64166">
        <ele>2364.02</ele>
        <time>2015-12-05T10:28:16Z</time>
      </trkpt>
      <trkpt lat="45.49862" lon="6.64165">
        <ele>2364.02</ele>
        <time>2015-12-05T10:28:34Z</time>
      </trkpt>
      <trkpt lat="45.49864" lon="6.64167">
        <ele>2364.02</ele>
        <time>2015-12-05T10:28:44Z</time>
      </trkpt>
      <trkpt lat="45.49864" lon="6.64167">
        <ele>2364.02</ele>
        <time>2015-12-05T10:28:55Z</time>
      </trkpt>
      <trkpt lat="45.49862" lon="6.6417">
        <ele>2362.58</ele>
        <time>2015-12-05T10:28:58Z</time>
      </trkpt>
      <trkpt lat="45.49862" lon="6.64169">
        <ele>2362.1</ele>
        <time>2015-12-05T10:29:12Z</time>
      </trkpt>
      <trkpt lat="45.49862" lon="6.64169">
        <ele>2362.1</ele>
        <time>2015-12-05T10:29:27Z</time>
      </trkpt>
      <trkpt lat="45.4986" lon="6.64171">
        <ele>2361.62</ele>
        <time>2015-12-05T10:29:29Z</time>
      </trkpt>
      <trkpt lat="45.49863" lon="6.64182">
        <ele>2357.77</ele>
        <time>2015-12-05T10:29:32Z</time>
      </trkpt>
      <trkpt lat="45.49861" lon="6.64185">
        <ele>2354.41</ele>
        <time>2015-12-05T10:29:34Z</time>
      </trkpt>
      <trkpt lat="45.4986" lon="6.64185">
        <ele>2354.41</ele>
        <time>2015-12-05T10:29:35Z</time>
      </trkpt>
      <trkpt lat="45.49857" lon="6.64186">
        <ele>2352.96</ele>
        <time>2015-12-05T10:29:37Z</time>
      </trkpt>
      <trkpt lat="45.49857" lon="6.6419">
        <ele>2351.04</ele>
        <time>2015-12-05T10:29:39Z</time>
      </trkpt>
      <trkpt lat="45.49858" lon="6.64198">
        <ele>2346.23</ele>
        <time>2015-12-05T10:29:43Z</time>
      </trkpt>
      <trkpt lat="45.49858" lon="6.64198">
        <ele>2346.23</ele>
        <time>2015-12-05T10:29:44Z</time>
      </trkpt>
      <trkpt lat="45.49845" lon="6.64207">
        <ele>2342.39</ele>
        <time>2015-12-05T10:29:48Z</time>
      </trkpt>
      <trkpt lat="45.49833" lon="6.6422">
        <ele>2337.1</ele>
        <time>2015-12-05T10:29:53Z</time>
      </trkpt>
      <trkpt lat="45.49832" lon="6.64221">
        <ele>2336.62</ele>
        <time>2015-12-05T10:29:55Z</time>
      </trkpt>
      <trkpt lat="45.49834" lon="6.64222">
        <ele>2336.14</ele>
        <time>2015-12-05T10:29:58Z</time>
      </trkpt>
      <trkpt lat="45.49825" lon="6.64233">
        <ele>2331.33</ele>
        <time>2015-12-05T10:30:02Z</time>
      </trkpt>
      <trkpt lat="45.4981" lon="6.64247">
        <ele>2327.97</ele>
        <time>2015-12-05T10:30:08Z</time>
      </trkpt>
      <trkpt lat="45.49804" lon="6.64256">
        <ele>2325.57</ele>
        <time>2015-12-05T10:30:11Z</time>
      </trkpt>
      <trkpt lat="45.49804" lon="6.64256">
        <ele>2325.57</ele>
        <time>2015-12-05T10:30:12Z</time>
      </trkpt>
      <trkpt lat="45.49795" lon="6.64274">
        <ele>2321.72</ele>
        <time>2015-12-05T10:30:17Z</time>
      </trkpt>
      <trkpt lat="45.49793" lon="6.6428">
        <ele>2321.24</ele>
        <time>2015-12-05T10:30:18Z</time>
      </trkpt>
      <trkpt lat="45.49786" lon="6.64299">
        <ele>2317.88</ele>
        <time>2015-12-05T10:30:21Z</time>
      </trkpt>
      <trkpt lat="45.49785" lon="6.64302">
        <ele>2315.47</ele>
        <time>2015-12-05T10:30:24Z</time>
      </trkpt>
      <trkpt lat="45.49785" lon="6.64302">
        <ele>2315.95</ele>
        <time>2015-12-05T10:30:32Z</time>
      </trkpt>
      <trkpt lat="45.49785" lon="6.64311">
        <ele>2312.59</ele>
        <time>2015-12-05T10:30:35Z</time>
      </trkpt>
      <trkpt lat="45.49787" lon="6.64324">
        <ele>2307.3</ele>
        <time>2015-12-05T10:30:38Z</time>
      </trkpt>
      <trkpt lat="45.49788" lon="6.64338">
        <ele>2302.49</ele>
        <time>2015-12-05T10:30:41Z</time>
      </trkpt>
      <trkpt lat="45.49791" lon="6.64346">
        <ele>2297.69</ele>
        <time>2015-12-05T10:30:43Z</time>
      </trkpt>
      <trkpt lat="45.49796" lon="6.64354">
        <ele>2293.84</ele>
        <time>2015-12-05T10:30:45Z</time>
      </trkpt>
      <trkpt lat="45.49801" lon="6.64358">
        <ele>2289.52</ele>
        <time>2015-12-05T10:30:47Z</time>
      </trkpt>
      <trkpt lat="45.49805" lon="6.64365">
        <ele>2285.19</ele>
        <time>2015-12-05T10:30:49Z</time>
      </trkpt>
      <trkpt lat="45.4981" lon="6.64373">
        <ele>2281.35</ele>
        <time>2015-12-05T10:30:51Z</time>
      </trkpt>
      <trkpt lat="45.49813" lon="6.64378">
        <ele>2277.5</ele>
        <time>2015-12-05T10:30:52Z</time>
      </trkpt>
      <trkpt lat="45.49812" lon="6.64382">
        <ele>2275.58</ele>
        <time>2015-12-05T10:30:54Z</time>
      </trkpt>
      <trkpt lat="45.49811" lon="6.64381">
        <ele>2275.58</ele>
        <time>2015-12-05T10:31:08Z</time>
      </trkpt>
      <trkpt lat="45.49811" lon="6.64382">
        <ele>2275.58</ele>
        <time>2015-12-05T10:31:25Z</time>
      </trkpt>
      <trkpt lat="45.49805" lon="6.64402">
        <ele>2271.73</ele>
        <time>2015-12-05T10:31:32Z</time>
      </trkpt>
      <trkpt lat="45.49799" lon="6.64413">
        <ele>2269.81</ele>
        <time>2015-12-05T10:31:35Z</time>
      </trkpt>
      <trkpt lat="45.49807" lon="6.64422">
        <ele>2265</ele>
        <time>2015-12-05T10:31:39Z</time>
      </trkpt>
      <trkpt lat="45.49807" lon="6.64428">
        <ele>2262.12</ele>
        <time>2015-12-05T10:31:41Z</time>
      </trkpt>
      <trkpt lat="45.4981" lon="6.6443">
        <ele>2261.16</ele>
        <time>2015-12-05T10:31:42Z</time>
      </trkpt>
      <trkpt lat="45.49812" lon="6.64441">
        <ele>2256.35</ele>
        <time>2015-12-05T10:31:47Z</time>
      </trkpt>
      <trkpt lat="45.49815" lon="6.64442">
        <ele>2255.39</ele>
        <time>2015-12-05T10:31:49Z</time>
      </trkpt>
      <trkpt lat="45.49816" lon="6.64441">
        <ele>2254.91</ele>
        <time>2015-12-05T10:31:50Z</time>
      </trkpt>
      <trkpt lat="45.49833" lon="6.64426">
        <ele>2251.54</ele>
        <time>2015-12-05T10:31:59Z</time>
      </trkpt>
      <trkpt lat="45.49837" lon="6.64424">
        <ele>2250.58</ele>
        <time>2015-12-05T10:32:00Z</time>
      </trkpt>
      <trkpt lat="45.49844" lon="6.64435">
        <ele>2245.3</ele>
        <time>2015-12-05T10:32:04Z</time>
      </trkpt>
      <trkpt lat="45.49844" lon="6.64444">
        <ele>2241.45</ele>
        <time>2015-12-05T10:32:06Z</time>
      </trkpt>
      <trkpt lat="45.49845" lon="6.64452">
        <ele>2238.57</ele>
        <time>2015-12-05T10:32:08Z</time>
      </trkpt>
      <trkpt lat="45.49845" lon="6.64463">
        <ele>2234.72</ele>
        <time>2015-12-05T10:32:11Z</time>
      </trkpt>
      <trkpt lat="45.49849" lon="6.64471">
        <ele>2231.36</ele>
        <time>2015-12-05T10:32:14Z</time>
      </trkpt>
      <trkpt lat="45.49854" lon="6.6448">
        <ele>2227.03</ele>
        <time>2015-12-05T10:32:17Z</time>
      </trkpt>
      <trkpt lat="45.49857" lon="6.64492">
        <ele>2223.19</ele>
        <time>2015-12-05T10:32:20Z</time>
      </trkpt>
      <trkpt lat="45.49862" lon="6.64503">
        <ele>2219.82</ele>
        <time>2015-12-05T10:32:23Z</time>
      </trkpt>
      <trkpt lat="45.49863" lon="6.64507">
        <ele>2217.9</ele>
        <time>2015-12-05T10:32:24Z</time>
      </trkpt>
      <trkpt lat="45.49869" lon="6.64521">
        <ele>2213.09</ele>
        <time>2015-12-05T10:32:27Z</time>
      </trkpt>
      <trkpt lat="45.49869" lon="6.64539">
        <ele>2208.29</ele>
        <time>2015-12-05T10:32:31Z</time>
      </trkpt>
      <trkpt lat="45.49869" lon="6.64548">
        <ele>2204.92</ele>
        <time>2015-12-05T10:32:33Z</time>
      </trkpt>
      <trkpt lat="45.49872" lon="6.64555">
        <ele>2202.04</ele>
        <time>2015-12-05T10:32:35Z</time>
      </trkpt>
      <trkpt lat="45.49868" lon="6.64562">
        <ele>2200.59</ele>
        <time>2015-12-05T10:32:38Z</time>
      </trkpt>
      <trkpt lat="45.49866" lon="6.64577">
        <ele>2197.23</ele>
        <time>2015-12-05T10:32:42Z</time>
      </trkpt>
      <trkpt lat="45.49874" lon="6.64594">
        <ele>2190.98</ele>
        <time>2015-12-05T10:32:48Z</time>
      </trkpt>
      <trkpt lat="45.4988" lon="6.64596">
        <ele>2190.02</ele>
        <time>2015-12-05T10:32:50Z</time>
      </trkpt>
      <trkpt lat="45.4988" lon="6.64602">
        <ele>2187.62</ele>
        <time>2015-12-05T10:32:52Z</time>
      </trkpt>
      <trkpt lat="45.49878" lon="6.64606">
        <ele>2187.14</ele>
        <time>2015-12-05T10:32:53Z</time>
      </trkpt>
      <trkpt lat="45.49876" lon="6.64608">
        <ele>2186.66</ele>
        <time>2015-12-05T10:32:54Z</time>
      </trkpt>
      <trkpt lat="45.49874" lon="6.6461">
        <ele>2186.66</ele>
        <time>2015-12-05T10:32:55Z</time>
      </trkpt>
      <trkpt lat="45.49873" lon="6.6461">
        <ele>2187.14</ele>
        <time>2015-12-05T10:32:58Z</time>
      </trkpt>
      <trkpt lat="45.49873" lon="6.6461">
        <ele>2187.14</ele>
        <time>2015-12-05T10:32:59Z</time>
      </trkpt>
      <trkpt lat="45.49872" lon="6.6461">
        <ele>2187.14</ele>
        <time>2015-12-05T10:33:07Z</time>
      </trkpt>
      <trkpt lat="45.4987" lon="6.64608">
        <ele>2187.14</ele>
        <time>2015-12-05T10:33:24Z</time>
      </trkpt>
      <trkpt lat="45.49869" lon="6.64609">
        <ele>2187.14</ele>
        <time>2015-12-05T10:33:37Z</time>
      </trkpt>
      <trkpt lat="45.49869" lon="6.64608">
        <ele>2186.66</ele>
        <time>2015-12-05T10:33:52Z</time>
      </trkpt>
      <trkpt lat="45.49872" lon="6.64609">
        <ele>2186.66</ele>
        <time>2015-12-05T10:34:23Z</time>
      </trkpt>
      <trkpt lat="45.49871" lon="6.64606">
        <ele>2186.18</ele>
        <time>2015-12-05T10:34:46Z</time>
      </trkpt>
      <trkpt lat="45.49866" lon="6.64607">
        <ele>2187.62</ele>
        <time>2015-12-05T10:35:12Z</time>
      </trkpt>
      <trkpt lat="45.49871" lon="6.64605">
        <ele>2187.14</ele>
        <time>2015-12-05T10:35:43Z</time>
      </trkpt>
      <trkpt lat="45.49871" lon="6.64606">
        <ele>2187.62</ele>
        <time>2015-12-05T10:36:07Z</time>
      </trkpt>
      <trkpt lat="45.49868" lon="6.64608">
        <ele>2187.62</ele>
        <time>2015-12-05T10:36:28Z</time>
      </trkpt>
      <trkpt lat="45.49869" lon="6.64606">
        <ele>2187.62</ele>
        <time>2015-12-05T10:36:50Z</time>
      </trkpt>
      <trkpt lat="45.49872" lon="6.64601">
        <ele>2187.62</ele>
        <time>2015-12-05T10:37:16Z</time>
      </trkpt>
      <trkpt lat="45.49872" lon="6.64608">
        <ele>2187.62</ele>
        <time>2015-12-05T10:37:38Z</time>
      </trkpt>
      <trkpt lat="45.49863" lon="6.64604">
        <ele>2189.06</ele>
        <time>2015-12-05T10:38:05Z</time>
      </trkpt>
      <trkpt lat="45.49864" lon="6.64606">
        <ele>2187.62</ele>
        <time>2015-12-05T10:38:07Z</time>
      </trkpt>
      <trkpt lat="45.4987" lon="6.64607">
        <ele>2188.58</ele>
        <time>2015-12-05T10:38:21Z</time>
      </trkpt>
      <trkpt lat="45.4987" lon="6.64607">
        <ele>2188.58</ele>
        <time>2015-12-05T10:38:31Z</time>
      </trkpt>
      <trkpt lat="45.49871" lon="6.64609">
        <ele>2188.58</ele>
        <time>2015-12-05T10:38:45Z</time>
      </trkpt>
      <trkpt lat="45.4987" lon="6.64609">
        <ele>2188.58</ele>
        <time>2015-12-05T10:38:52Z</time>
      </trkpt>
      <trkpt lat="45.4987" lon="6.64611">
        <ele>2189.06</ele>
        <time>2015-12-05T10:39:02Z</time>
      </trkpt>
      <trkpt lat="45.49871" lon="6.64611">
        <ele>2189.06</ele>
        <time>2015-12-05T10:39:17Z</time>
      </trkpt>
      <trkpt lat="45.49866" lon="6.64611">
        <ele>2189.06</ele>
        <time>2015-12-05T10:39:32Z</time>
      </trkpt>
      <trkpt lat="45.4987" lon="6.64608">
        <ele>2189.06</ele>
        <time>2015-12-05T10:39:49Z</time>
      </trkpt>
      <trkpt lat="45.49869" lon="6.6461">
        <ele>2189.06</ele>
        <time>2015-12-05T10:39:54Z</time>
      </trkpt>
      <trkpt lat="45.49869" lon="6.6461">
        <ele>2189.06</ele>
        <time>2015-12-05T10:39:55Z</time>
      </trkpt>
      <trkpt lat="45.49858" lon="6.64621">
        <ele>2190.98</ele>
        <time>2015-12-05T10:40:11Z</time>
      </trkpt>
      <trkpt lat="45.49855" lon="6.64628">
        <ele>2191.46</ele>
        <time>2015-12-05T10:40:16Z</time>
      </trkpt>
      <trkpt lat="45.49846" lon="6.6464">
        <ele>2192.42</ele>
        <time>2015-12-05T10:40:28Z</time>
      </trkpt>
      <trkpt lat="45.49839" lon="6.64649">
        <ele>2193.39</ele>
        <time>2015-12-05T10:40:42Z</time>
      </trkpt>
      <trkpt lat="45.49837" lon="6.64651">
        <ele>2193.39</ele>
        <time>2015-12-05T10:40:44Z</time>
      </trkpt>
      <trkpt lat="45.49837" lon="6.64653">
        <ele>2193.87</ele>
        <time>2015-12-05T10:40:45Z</time>
      </trkpt>
      <trkpt lat="45.49825" lon="6.64668">
        <ele>2195.31</ele>
        <time>2015-12-05T10:40:59Z</time>
      </trkpt>
      <trkpt lat="45.49813" lon="6.6468">
        <ele>2196.75</ele>
        <time>2015-12-05T10:41:11Z</time>
      </trkpt>
      <trkpt lat="45.49808" lon="6.64686">
        <ele>2197.71</ele>
        <time>2015-12-05T10:41:16Z</time>
      </trkpt>
      <trkpt lat="45.49807" lon="6.64687">
        <ele>2197.71</ele>
        <time>2015-12-05T10:41:17Z</time>
      </trkpt>
      <trkpt lat="45.49806" lon="6.64688">
        <ele>2197.71</ele>
        <time>2015-12-05T10:41:18Z</time>
      </trkpt>
      <trkpt lat="45.49798" lon="6.64706">
        <ele>2199.15</ele>
        <time>2015-12-05T10:41:32Z</time>
      </trkpt>
      <trkpt lat="45.49793" lon="6.64723">
        <ele>2201.08</ele>
        <time>2015-12-05T10:41:43Z</time>
      </trkpt>
      <trkpt lat="45.49791" lon="6.64727">
        <ele>2201.56</ele>
        <time>2015-12-05T10:41:47Z</time>
      </trkpt>
      <trkpt lat="45.4979" lon="6.64729">
        <ele>2201.56</ele>
        <time>2015-12-05T10:41:48Z</time>
      </trkpt>
      <trkpt lat="45.49788" lon="6.64735">
        <ele>2202.52</ele>
        <time>2015-12-05T10:41:52Z</time>
      </trkpt>
      <trkpt lat="45.49787" lon="6.64736">
        <ele>2202.52</ele>
        <time>2015-12-05T10:41:53Z</time>
      </trkpt>
      <trkpt lat="45.4978" lon="6.64749">
        <ele>2203.48</ele>
        <time>2015-12-05T10:42:03Z</time>
      </trkpt>
      <trkpt lat="45.4978" lon="6.6475">
        <ele>2203.96</ele>
        <time>2015-12-05T10:42:04Z</time>
      </trkpt>
      <trkpt lat="45.49775" lon="6.64759">
        <ele>2204.44</ele>
        <time>2015-12-05T10:42:11Z</time>
      </trkpt>
      <trkpt lat="45.49774" lon="6.6476">
        <ele>2204.44</ele>
        <time>2015-12-05T10:42:12Z</time>
      </trkpt>
      <trkpt lat="45.49774" lon="6.64761">
        <ele>2204.92</ele>
        <time>2015-12-05T10:42:13Z</time>
      </trkpt>
      <trkpt lat="45.49768" lon="6.64772">
        <ele>2206.36</ele>
        <time>2015-12-05T10:42:21Z</time>
      </trkpt>
      <trkpt lat="45.49765" lon="6.64776">
        <ele>2206.84</ele>
        <time>2015-12-05T10:42:25Z</time>
      </trkpt>
      <trkpt lat="45.49764" lon="6.64777">
        <ele>2206.84</ele>
        <time>2015-12-05T10:42:26Z</time>
      </trkpt>
      <trkpt lat="45.49763" lon="6.64778">
        <ele>2206.84</ele>
        <time>2015-12-05T10:42:27Z</time>
      </trkpt>
      <trkpt lat="45.49762" lon="6.64779">
        <ele>2206.84</ele>
        <time>2015-12-05T10:42:28Z</time>
      </trkpt>
      <trkpt lat="45.49762" lon="6.6478">
        <ele>2207.81</ele>
        <time>2015-12-05T10:42:29Z</time>
      </trkpt>
      <trkpt lat="45.49761" lon="6.64781">
        <ele>2207.81</ele>
        <time>2015-12-05T10:42:30Z</time>
      </trkpt>
      <trkpt lat="45.49753" lon="6.64794">
        <ele>2209.25</ele>
        <time>2015-12-05T10:42:44Z</time>
      </trkpt>
      <trkpt lat="45.49751" lon="6.64805">
        <ele>2211.17</ele>
        <time>2015-12-05T10:42:55Z</time>
      </trkpt>
      <trkpt lat="45.49751" lon="6.64808">
        <ele>2212.13</ele>
        <time>2015-12-05T10:42:57Z</time>
      </trkpt>
      <trkpt lat="45.4975" lon="6.64809">
        <ele>2212.61</ele>
        <time>2015-12-05T10:42:58Z</time>
      </trkpt>
      <trkpt lat="45.49746" lon="6.64822">
        <ele>2213.09</ele>
        <time>2015-12-05T10:43:11Z</time>
      </trkpt>
      <trkpt lat="45.49741" lon="6.64838">
        <ele>2214.53</ele>
        <time>2015-12-05T10:43:24Z</time>
      </trkpt>
      <trkpt lat="45.49738" lon="6.64852">
        <ele>2216.46</ele>
        <time>2015-12-05T10:43:34Z</time>
      </trkpt>
      <trkpt lat="45.49735" lon="6.64866">
        <ele>2217.9</ele>
        <time>2015-12-05T10:43:46Z</time>
      </trkpt>
      <trkpt lat="45.49734" lon="6.64867">
        <ele>2217.9</ele>
        <time>2015-12-05T10:43:47Z</time>
      </trkpt>
      <trkpt lat="45.49733" lon="6.64868">
        <ele>2218.38</ele>
        <time>2015-12-05T10:43:48Z</time>
      </trkpt>
      <trkpt lat="45.49732" lon="6.64869">
        <ele>2218.38</ele>
        <time>2015-12-05T10:43:49Z</time>
      </trkpt>
      <trkpt lat="45.49732" lon="6.6487">
        <ele>2218.38</ele>
        <time>2015-12-05T10:43:50Z</time>
      </trkpt>
      <trkpt lat="45.49731" lon="6.64872">
        <ele>2218.38</ele>
        <time>2015-12-05T10:43:51Z</time>
      </trkpt>
      <trkpt lat="45.4973" lon="6.64873">
        <ele>2218.86</ele>
        <time>2015-12-05T10:43:52Z</time>
      </trkpt>
      <trkpt lat="45.4973" lon="6.64874">
        <ele>2218.86</ele>
        <time>2015-12-05T10:43:53Z</time>
      </trkpt>
      <trkpt lat="45.49729" lon="6.64875">
        <ele>2218.86</ele>
        <time>2015-12-05T10:43:54Z</time>
      </trkpt>
      <trkpt lat="45.49728" lon="6.64877">
        <ele>2218.86</ele>
        <time>2015-12-05T10:43:55Z</time>
      </trkpt>
      <trkpt lat="45.49724" lon="6.64882">
        <ele>2219.34</ele>
        <time>2015-12-05T10:44:00Z</time>
      </trkpt>
      <trkpt lat="45.49723" lon="6.64883">
        <ele>2219.82</ele>
        <time>2015-12-05T10:44:01Z</time>
      </trkpt>
      <trkpt lat="45.49722" lon="6.64885">
        <ele>2219.82</ele>
        <time>2015-12-05T10:44:02Z</time>
      </trkpt>
      <trkpt lat="45.49722" lon="6.64886">
        <ele>2219.82</ele>
        <time>2015-12-05T10:44:03Z</time>
      </trkpt>
      <trkpt lat="45.49719" lon="6.64893">
        <ele>2221.26</ele>
        <time>2015-12-05T10:44:10Z</time>
      </trkpt>
      <trkpt lat="45.49719" lon="6.64894">
        <ele>2221.26</ele>
        <time>2015-12-05T10:44:11Z</time>
      </trkpt>
      <trkpt lat="45.49718" lon="6.64895">
        <ele>2221.26</ele>
        <time>2015-12-05T10:44:12Z</time>
      </trkpt>
      <trkpt lat="45.49711" lon="6.64909">
        <ele>2223.19</ele>
        <time>2015-12-05T10:44:27Z</time>
      </trkpt>
      <trkpt lat="45.49708" lon="6.64915">
        <ele>2223.67</ele>
        <time>2015-12-05T10:44:32Z</time>
      </trkpt>
      <trkpt lat="45.49702" lon="6.64933">
        <ele>2225.59</ele>
        <time>2015-12-05T10:44:49Z</time>
      </trkpt>
      <trkpt lat="45.49692" lon="6.64951">
        <ele>2226.55</ele>
        <time>2015-12-05T10:45:03Z</time>
      </trkpt>
      <trkpt lat="45.49685" lon="6.6496">
        <ele>2227.51</ele>
        <time>2015-12-05T10:45:13Z</time>
      </trkpt>
      <trkpt lat="45.49684" lon="6.64962">
        <ele>2227.51</ele>
        <time>2015-12-05T10:45:14Z</time>
      </trkpt>
      <trkpt lat="45.49678" lon="6.64977">
        <ele>2229.43</ele>
        <time>2015-12-05T10:45:28Z</time>
      </trkpt>
      <trkpt lat="45.49676" lon="6.64999">
        <ele>2229.92</ele>
        <time>2015-12-05T10:45:43Z</time>
      </trkpt>
      <trkpt lat="45.49674" lon="6.6502">
        <ele>2232.32</ele>
        <time>2015-12-05T10:45:59Z</time>
      </trkpt>
      <trkpt lat="45.49675" lon="6.65032">
        <ele>2233.28</ele>
        <time>2015-12-05T10:46:08Z</time>
      </trkpt>
      <trkpt lat="45.49675" lon="6.65034">
        <ele>2233.28</ele>
        <time>2015-12-05T10:46:09Z</time>
      </trkpt>
      <trkpt lat="45.49673" lon="6.65041">
        <ele>2233.76</ele>
        <time>2015-12-05T10:46:17Z</time>
      </trkpt>
      <trkpt lat="45.49672" lon="6.65042">
        <ele>2233.76</ele>
        <time>2015-12-05T10:46:18Z</time>
      </trkpt>
      <trkpt lat="45.49671" lon="6.65044">
        <ele>2233.76</ele>
        <time>2015-12-05T10:46:19Z</time>
      </trkpt>
      <trkpt lat="45.4967" lon="6.65045">
        <ele>2233.76</ele>
        <time>2015-12-05T10:46:20Z</time>
      </trkpt>
      <trkpt lat="45.49669" lon="6.65047">
        <ele>2233.76</ele>
        <time>2015-12-05T10:46:21Z</time>
      </trkpt>
      <trkpt lat="45.49664" lon="6.65062">
        <ele>2233.76</ele>
        <time>2015-12-05T10:46:34Z</time>
      </trkpt>
      <trkpt lat="45.49657" lon="6.6508">
        <ele>2234.24</ele>
        <time>2015-12-05T10:46:49Z</time>
      </trkpt>
      <trkpt lat="45.49652" lon="6.65095">
        <ele>2234.24</ele>
        <time>2015-12-05T10:47:01Z</time>
      </trkpt>
      <trkpt lat="45.49651" lon="6.65098">
        <ele>2234.24</ele>
        <time>2015-12-05T10:47:04Z</time>
      </trkpt>
      <trkpt lat="45.49643" lon="6.65108">
        <ele>2236.16</ele>
        <time>2015-12-05T10:47:18Z</time>
      </trkpt>
      <trkpt lat="45.49637" lon="6.6512">
        <ele>2238.09</ele>
        <time>2015-12-05T10:47:33Z</time>
      </trkpt>
      <trkpt lat="45.49633" lon="6.65128">
        <ele>2239.53</ele>
        <time>2015-12-05T10:47:44Z</time>
      </trkpt>
      <trkpt lat="45.49633" lon="6.6513">
        <ele>2240.01</ele>
        <time>2015-12-05T10:47:46Z</time>
      </trkpt>
      <trkpt lat="45.49633" lon="6.65134">
        <ele>2240.01</ele>
        <time>2015-12-05T10:47:53Z</time>
      </trkpt>
      <trkpt lat="45.4964" lon="6.6515">
        <ele>2241.93</ele>
        <time>2015-12-05T10:48:08Z</time>
      </trkpt>
      <trkpt lat="45.49638" lon="6.65151">
        <ele>2242.41</ele>
        <time>2015-12-05T10:48:11Z</time>
      </trkpt>
      <trkpt lat="45.49629" lon="6.65153">
        <ele>2244.33</ele>
        <time>2015-12-05T10:48:24Z</time>
      </trkpt>
      <trkpt lat="45.49627" lon="6.65154">
        <ele>2244.82</ele>
        <time>2015-12-05T10:48:27Z</time>
      </trkpt>
      <trkpt lat="45.49618" lon="6.65158">
        <ele>2247.22</ele>
        <time>2015-12-05T10:48:41Z</time>
      </trkpt>
      <trkpt lat="45.49609" lon="6.65162">
        <ele>2249.62</ele>
        <time>2015-12-05T10:48:52Z</time>
      </trkpt>
      <trkpt lat="45.49603" lon="6.65162">
        <ele>2252.03</ele>
        <time>2015-12-05T10:49:04Z</time>
      </trkpt>
      <trkpt lat="45.49597" lon="6.65167">
        <ele>2253.95</ele>
        <time>2015-12-05T10:49:16Z</time>
      </trkpt>
      <trkpt lat="45.49589" lon="6.65173">
        <ele>2254.91</ele>
        <time>2015-12-05T10:49:28Z</time>
      </trkpt>
      <trkpt lat="45.49583" lon="6.6518">
        <ele>2256.35</ele>
        <time>2015-12-05T10:49:39Z</time>
      </trkpt>
      <trkpt lat="45.49577" lon="6.65184">
        <ele>2257.79</ele>
        <time>2015-12-05T10:49:49Z</time>
      </trkpt>
      <trkpt lat="45.49574" lon="6.65188">
        <ele>2258.75</ele>
        <time>2015-12-05T10:49:53Z</time>
      </trkpt>
      <trkpt lat="45.49568" lon="6.65193">
        <ele>2260.68</ele>
        <time>2015-12-05T10:50:05Z</time>
      </trkpt>
      <trkpt lat="45.49564" lon="6.65201">
        <ele>2262.12</ele>
        <time>2015-12-05T10:50:17Z</time>
      </trkpt>
      <trkpt lat="45.49561" lon="6.65204">
        <ele>2263.56</ele>
        <time>2015-12-05T10:50:21Z</time>
      </trkpt>
      <trkpt lat="45.49553" lon="6.65216">
        <ele>2265.96</ele>
        <time>2015-12-05T10:50:38Z</time>
      </trkpt>
      <trkpt lat="45.49554" lon="6.65226">
        <ele>2267.89</ele>
        <time>2015-12-05T10:50:49Z</time>
      </trkpt>
      <trkpt lat="45.49555" lon="6.6523">
        <ele>2267.89</ele>
        <time>2015-12-05T10:50:52Z</time>
      </trkpt>
      <trkpt lat="45.49557" lon="6.65245">
        <ele>2270.29</ele>
        <time>2015-12-05T10:51:05Z</time>
      </trkpt>
      <trkpt lat="45.4956" lon="6.65257">
        <ele>2272.21</ele>
        <time>2015-12-05T10:51:20Z</time>
      </trkpt>
      <trkpt lat="45.49561" lon="6.65266">
        <ele>2274.14</ele>
        <time>2015-12-05T10:51:31Z</time>
      </trkpt>
      <trkpt lat="45.49563" lon="6.65276">
        <ele>2276.06</ele>
        <time>2015-12-05T10:51:40Z</time>
      </trkpt>
      <trkpt lat="45.49565" lon="6.65281">
        <ele>2277.02</ele>
        <time>2015-12-05T10:51:47Z</time>
      </trkpt>
      <trkpt lat="45.4957" lon="6.65289">
        <ele>2278.46</ele>
        <time>2015-12-05T10:51:59Z</time>
      </trkpt>
      <trkpt lat="45.49571" lon="6.65299">
        <ele>2280.87</ele>
        <time>2015-12-05T10:52:10Z</time>
      </trkpt>
      <trkpt lat="45.49562" lon="6.65306">
        <ele>2282.79</ele>
        <time>2015-12-05T10:52:24Z</time>
      </trkpt>
      <trkpt lat="45.49553" lon="6.65316">
        <ele>2285.19</ele>
        <time>2015-12-05T10:52:39Z</time>
      </trkpt>
      <trkpt lat="45.49542" lon="6.65324">
        <ele>2287.59</ele>
        <time>2015-12-05T10:52:56Z</time>
      </trkpt>
      <trkpt lat="45.49531" lon="6.65333">
        <ele>2289.52</ele>
        <time>2015-12-05T10:53:14Z</time>
      </trkpt>
      <trkpt lat="45.4953" lon="6.65337">
        <ele>2290</ele>
        <time>2015-12-05T10:53:18Z</time>
      </trkpt>
      <trkpt lat="45.49536" lon="6.65356">
        <ele>2290.96</ele>
        <time>2015-12-05T10:53:36Z</time>
      </trkpt>
      <trkpt lat="45.49541" lon="6.65368">
        <ele>2291.44</ele>
        <time>2015-12-05T10:53:48Z</time>
      </trkpt>
      <trkpt lat="45.49548" lon="6.65377">
        <ele>2293.84</ele>
        <time>2015-12-05T10:54:03Z</time>
      </trkpt>
      <trkpt lat="45.49554" lon="6.65387">
        <ele>2295.77</ele>
        <time>2015-12-05T10:54:15Z</time>
      </trkpt>
      <trkpt lat="45.4956" lon="6.65395">
        <ele>2298.17</ele>
        <time>2015-12-05T10:54:29Z</time>
      </trkpt>
      <trkpt lat="45.49566" lon="6.65408">
        <ele>2300.09</ele>
        <time>2015-12-05T10:54:42Z</time>
      </trkpt>
      <trkpt lat="45.49568" lon="6.65419">
        <ele>2302.01</ele>
        <time>2015-12-05T10:54:56Z</time>
      </trkpt>
      <trkpt lat="45.49566" lon="6.65427">
        <ele>2303.46</ele>
        <time>2015-12-05T10:55:05Z</time>
      </trkpt>
      <trkpt lat="45.49559" lon="6.65433">
        <ele>2306.34</ele>
        <time>2015-12-05T10:55:20Z</time>
      </trkpt>
      <trkpt lat="45.49559" lon="6.65439">
        <ele>2307.3</ele>
        <time>2015-12-05T10:55:30Z</time>
      </trkpt>
      <trkpt lat="45.49565" lon="6.65448">
        <ele>2309.22</ele>
        <time>2015-12-05T10:55:43Z</time>
      </trkpt>
      <trkpt lat="45.49572" lon="6.65455">
        <ele>2311.15</ele>
        <time>2015-12-05T10:55:56Z</time>
      </trkpt>
      <trkpt lat="45.49582" lon="6.65456">
        <ele>2313.07</ele>
        <time>2015-12-05T10:56:10Z</time>
      </trkpt>
      <trkpt lat="45.49582" lon="6.65456">
        <ele>2313.55</ele>
        <time>2015-12-05T10:56:11Z</time>
      </trkpt>
      <trkpt lat="45.49579" lon="6.65464">
        <ele>2314.51</ele>
        <time>2015-12-05T10:56:22Z</time>
      </trkpt>
      <trkpt lat="45.49576" lon="6.65477">
        <ele>2316.43</ele>
        <time>2015-12-05T10:56:36Z</time>
      </trkpt>
      <trkpt lat="45.49573" lon="6.65486">
        <ele>2318.84</ele>
        <time>2015-12-05T10:56:49Z</time>
      </trkpt>
      <trkpt lat="45.49571" lon="6.65489">
        <ele>2319.32</ele>
        <time>2015-12-05T10:56:55Z</time>
      </trkpt>
      <trkpt lat="45.49574" lon="6.65492">
        <ele>2320.28</ele>
        <time>2015-12-05T10:57:03Z</time>
      </trkpt>
      <trkpt lat="45.49572" lon="6.65496">
        <ele>2321.72</ele>
        <time>2015-12-05T10:57:13Z</time>
      </trkpt>
      <trkpt lat="45.49568" lon="6.65501">
        <ele>2323.16</ele>
        <time>2015-12-05T10:57:24Z</time>
      </trkpt>
      <trkpt lat="45.49564" lon="6.65507">
        <ele>2325.09</ele>
        <time>2015-12-05T10:57:35Z</time>
      </trkpt>
      <trkpt lat="45.4956" lon="6.65516">
        <ele>2327.49</ele>
        <time>2015-12-05T10:57:48Z</time>
      </trkpt>
      <trkpt lat="45.49562" lon="6.65531">
        <ele>2329.41</ele>
        <time>2015-12-05T10:58:04Z</time>
      </trkpt>
      <trkpt lat="45.49565" lon="6.65538">
        <ele>2330.37</ele>
        <time>2015-12-05T10:58:17Z</time>
      </trkpt>
      <trkpt lat="45.49565" lon="6.65537">
        <ele>2329.89</ele>
        <time>2015-12-05T10:58:32Z</time>
      </trkpt>
      <trkpt lat="45.49565" lon="6.65537">
        <ele>2329.89</ele>
        <time>2015-12-05T10:58:54Z</time>
      </trkpt>
      <trkpt lat="45.49565" lon="6.65538">
        <ele>2329.89</ele>
        <time>2015-12-05T10:59:19Z</time>
      </trkpt>
      <trkpt lat="45.49566" lon="6.65536">
        <ele>2329.89</ele>
        <time>2015-12-05T10:59:42Z</time>
      </trkpt>
      <trkpt lat="45.49566" lon="6.65536">
        <ele>2329.89</ele>
        <time>2015-12-05T10:59:46Z</time>
      </trkpt>
      <trkpt lat="45.4957" lon="6.65552">
        <ele>2331.81</ele>
        <time>2015-12-05T11:00:01Z</time>
      </trkpt>
      <trkpt lat="45.49572" lon="6.65568">
        <ele>2332.3</ele>
        <time>2015-12-05T11:00:18Z</time>
      </trkpt>
      <trkpt lat="45.49575" lon="6.65588">
        <ele>2333.74</ele>
        <time>2015-12-05T11:00:35Z</time>
      </trkpt>
      <trkpt lat="45.49578" lon="6.65597">
        <ele>2334.7</ele>
        <time>2015-12-05T11:00:43Z</time>
      </trkpt>
      <trkpt lat="45.4958" lon="6.65609">
        <ele>2335.66</ele>
        <time>2015-12-05T11:00:55Z</time>
      </trkpt>
      <trkpt lat="45.49584" lon="6.65627">
        <ele>2337.1</ele>
        <time>2015-12-05T11:01:10Z</time>
      </trkpt>
      <trkpt lat="45.49588" lon="6.65642">
        <ele>2339.02</ele>
        <time>2015-12-05T11:01:25Z</time>
      </trkpt>
      <trkpt lat="45.49589" lon="6.65647">
        <ele>2339.99</ele>
        <time>2015-12-05T11:01:29Z</time>
      </trkpt>
      <trkpt lat="45.49585" lon="6.65654">
        <ele>2340.95</ele>
        <time>2015-12-05T11:01:37Z</time>
      </trkpt>
      <trkpt lat="45.49578" lon="6.6566">
        <ele>2343.35</ele>
        <time>2015-12-05T11:01:50Z</time>
      </trkpt>
      <trkpt lat="45.49577" lon="6.65663">
        <ele>2343.83</ele>
        <time>2015-12-05T11:01:56Z</time>
      </trkpt>
      <trkpt lat="45.4957" lon="6.65672">
        <ele>2345.75</ele>
        <time>2015-12-05T11:02:10Z</time>
      </trkpt>
      <trkpt lat="45.49569" lon="6.65677">
        <ele>2347.68</ele>
        <time>2015-12-05T11:02:19Z</time>
      </trkpt>
      <trkpt lat="45.49569" lon="6.65681">
        <ele>2348.16</ele>
        <time>2015-12-05T11:02:24Z</time>
      </trkpt>
      <trkpt lat="45.49568" lon="6.65693">
        <ele>2350.08</ele>
        <time>2015-12-05T11:02:37Z</time>
      </trkpt>
      <trkpt lat="45.49567" lon="6.65711">
        <ele>2351.52</ele>
        <time>2015-12-05T11:02:55Z</time>
      </trkpt>
      <trkpt lat="45.49568" lon="6.65724">
        <ele>2352</ele>
        <time>2015-12-05T11:03:06Z</time>
      </trkpt>
      <trkpt lat="45.49567" lon="6.6573">
        <ele>2352</ele>
        <time>2015-12-05T11:03:10Z</time>
      </trkpt>
      <trkpt lat="45.49563" lon="6.65743">
        <ele>2352.96</ele>
        <time>2015-12-05T11:03:25Z</time>
      </trkpt>
      <trkpt lat="45.49561" lon="6.65749">
        <ele>2353.93</ele>
        <time>2015-12-05T11:03:29Z</time>
      </trkpt>
      <trkpt lat="45.49555" lon="6.65753">
        <ele>2355.85</ele>
        <time>2015-12-05T11:03:42Z</time>
      </trkpt>
      <trkpt lat="45.49553" lon="6.65754">
        <ele>2356.33</ele>
        <time>2015-12-05T11:03:44Z</time>
      </trkpt>
      <trkpt lat="45.49551" lon="6.65754">
        <ele>2357.29</ele>
        <time>2015-12-05T11:03:47Z</time>
      </trkpt>
      <trkpt lat="45.4954" lon="6.65754">
        <ele>2359.69</ele>
        <time>2015-12-05T11:04:01Z</time>
      </trkpt>
      <trkpt lat="45.49533" lon="6.65755">
        <ele>2362.1</ele>
        <time>2015-12-05T11:04:16Z</time>
      </trkpt>
      <trkpt lat="45.49531" lon="6.65764">
        <ele>2363.54</ele>
        <time>2015-12-05T11:04:26Z</time>
      </trkpt>
      <trkpt lat="45.49531" lon="6.65769">
        <ele>2364.98</ele>
        <time>2015-12-05T11:04:32Z</time>
      </trkpt>
      <trkpt lat="45.49532" lon="6.65779">
        <ele>2366.9</ele>
        <time>2015-12-05T11:04:45Z</time>
      </trkpt>
      <trkpt lat="45.49532" lon="6.65785">
        <ele>2368.83</ele>
        <time>2015-12-05T11:04:53Z</time>
      </trkpt>
      <trkpt lat="45.4953" lon="6.65794">
        <ele>2371.71</ele>
        <time>2015-12-05T11:05:05Z</time>
      </trkpt>
      <trkpt lat="45.49525" lon="6.65807">
        <ele>2373.15</ele>
        <time>2015-12-05T11:05:21Z</time>
      </trkpt>
      <trkpt lat="45.4952" lon="6.65816">
        <ele>2375.55</ele>
        <time>2015-12-05T11:05:35Z</time>
      </trkpt>
      <trkpt lat="45.49517" lon="6.65834">
        <ele>2378.44</ele>
        <time>2015-12-05T11:05:51Z</time>
      </trkpt>
      <trkpt lat="45.49521" lon="6.65844">
        <ele>2379.88</ele>
        <time>2015-12-05T11:06:04Z</time>
      </trkpt>
      <trkpt lat="45.49527" lon="6.65852">
        <ele>2381.32</ele>
        <time>2015-12-05T11:06:19Z</time>
      </trkpt>
      <trkpt lat="45.49531" lon="6.65863">
        <ele>2384.21</ele>
        <time>2015-12-05T11:06:33Z</time>
      </trkpt>
      <trkpt lat="45.49533" lon="6.65866">
        <ele>2384.69</ele>
        <time>2015-12-05T11:06:36Z</time>
      </trkpt>
      <trkpt lat="45.49536" lon="6.65877">
        <ele>2387.09</ele>
        <time>2015-12-05T11:06:50Z</time>
      </trkpt>
      <trkpt lat="45.49543" lon="6.65885">
        <ele>2390.46</ele>
        <time>2015-12-05T11:07:05Z</time>
      </trkpt>
      <trkpt lat="45.49545" lon="6.65892">
        <ele>2391.9</ele>
        <time>2015-12-05T11:07:17Z</time>
      </trkpt>
      <trkpt lat="45.49545" lon="6.65893">
        <ele>2392.38</ele>
        <time>2015-12-05T11:07:18Z</time>
      </trkpt>
      <trkpt lat="45.49542" lon="6.65906">
        <ele>2395.26</ele>
        <time>2015-12-05T11:07:33Z</time>
      </trkpt>
      <trkpt lat="45.49541" lon="6.65913">
        <ele>2397.18</ele>
        <time>2015-12-05T11:07:47Z</time>
      </trkpt>
      <trkpt lat="45.49542" lon="6.65916">
        <ele>2397.18</ele>
        <time>2015-12-05T11:07:50Z</time>
      </trkpt>
      <trkpt lat="45.49546" lon="6.65925">
        <ele>2398.15</ele>
        <time>2015-12-05T11:08:03Z</time>
      </trkpt>
      <trkpt lat="45.49549" lon="6.65928">
        <ele>2398.63</ele>
        <time>2015-12-05T11:08:23Z</time>
      </trkpt>
      <trkpt lat="45.49554" lon="6.65934">
        <ele>2400.07</ele>
        <time>2015-12-05T11:08:34Z</time>
      </trkpt>
      <trkpt lat="45.49555" lon="6.65938">
        <ele>2400.55</ele>
        <time>2015-12-05T11:08:44Z</time>
      </trkpt>
      <trkpt lat="45.49554" lon="6.65945">
        <ele>2402.47</ele>
        <time>2015-12-05T11:08:53Z</time>
      </trkpt>
      <trkpt lat="45.49553" lon="6.65954">
        <ele>2403.91</ele>
        <time>2015-12-05T11:09:04Z</time>
      </trkpt>
      <trkpt lat="45.49558" lon="6.65957">
        <ele>2405.36</ele>
        <time>2015-12-05T11:09:15Z</time>
      </trkpt>
      <trkpt lat="45.49561" lon="6.65956">
        <ele>2406.8</ele>
        <time>2015-12-05T11:09:19Z</time>
      </trkpt>
      <trkpt lat="45.49563" lon="6.65959">
        <ele>2407.76</ele>
        <time>2015-12-05T11:09:29Z</time>
      </trkpt>
      <trkpt lat="45.49561" lon="6.65967">
        <ele>2408.72</ele>
        <time>2015-12-05T11:09:45Z</time>
      </trkpt>
      <trkpt lat="45.49566" lon="6.65967">
        <ele>2409.68</ele>
        <time>2015-12-05T11:09:55Z</time>
      </trkpt>
      <trkpt lat="45.49569" lon="6.65968">
        <ele>2410.16</ele>
        <time>2015-12-05T11:10:19Z</time>
      </trkpt>
      <trkpt lat="45.4957" lon="6.65968">
        <ele>2411.6</ele>
        <time>2015-12-05T11:10:31Z</time>
      </trkpt>
      <trkpt lat="45.49569" lon="6.65972">
        <ele>2412.09</ele>
        <time>2015-12-05T11:10:37Z</time>
      </trkpt>
      <trkpt lat="45.49567" lon="6.65985">
        <ele>2414.49</ele>
        <time>2015-12-05T11:10:52Z</time>
      </trkpt>
      <trkpt lat="45.49567" lon="6.65988">
        <ele>2414.97</ele>
        <time>2015-12-05T11:10:54Z</time>
      </trkpt>
      <trkpt lat="45.4957" lon="6.65995">
        <ele>2416.89</ele>
        <time>2015-12-05T11:11:07Z</time>
      </trkpt>
      <trkpt lat="45.49575" lon="6.65994">
        <ele>2418.33</ele>
        <time>2015-12-05T11:11:19Z</time>
      </trkpt>
      <trkpt lat="45.49578" lon="6.65995">
        <ele>2419.78</ele>
        <time>2015-12-05T11:11:30Z</time>
      </trkpt>
      <trkpt lat="45.49578" lon="6.66001">
        <ele>2421.22</ele>
        <time>2015-12-05T11:11:41Z</time>
      </trkpt>
      <trkpt lat="45.49578" lon="6.66004">
        <ele>2422.18</ele>
        <time>2015-12-05T11:11:51Z</time>
      </trkpt>
      <trkpt lat="45.49581" lon="6.66003">
        <ele>2422.18</ele>
        <time>2015-12-05T11:12:00Z</time>
      </trkpt>
      <trkpt lat="45.49584" lon="6.66">
        <ele>2423.14</ele>
        <time>2015-12-05T11:12:14Z</time>
      </trkpt>
      <trkpt lat="45.49584" lon="6.66001">
        <ele>2423.14</ele>
        <time>2015-12-05T11:12:34Z</time>
      </trkpt>
      <trkpt lat="45.49583" lon="6.66">
        <ele>2423.14</ele>
        <time>2015-12-05T11:12:54Z</time>
      </trkpt>
      <trkpt lat="45.49592" lon="6.66002">
        <ele>2426.02</ele>
        <time>2015-12-05T11:13:09Z</time>
      </trkpt>
      <trkpt lat="45.49592" lon="6.66011">
        <ele>2427.47</ele>
        <time>2015-12-05T11:13:20Z</time>
      </trkpt>
      <trkpt lat="45.49593" lon="6.66024">
        <ele>2430.35</ele>
        <time>2015-12-05T11:13:38Z</time>
      </trkpt>
      <trkpt lat="45.49594" lon="6.66024">
        <ele>2430.83</ele>
        <time>2015-12-05T11:13:48Z</time>
      </trkpt>
      <trkpt lat="45.49593" lon="6.66024">
        <ele>2430.83</ele>
        <time>2015-12-05T11:14:09Z</time>
      </trkpt>
      <trkpt lat="45.49595" lon="6.66025">
        <ele>2430.35</ele>
        <time>2015-12-05T11:14:25Z</time>
      </trkpt>
      <trkpt lat="45.49597" lon="6.66024">
        <ele>2430.35</ele>
        <time>2015-12-05T11:14:40Z</time>
      </trkpt>
      <trkpt lat="45.49605" lon="6.66011">
        <ele>2430.35</ele>
        <time>2015-12-05T11:14:51Z</time>
      </trkpt>
      <trkpt lat="45.49611" lon="6.66003">
        <ele>2431.31</ele>
        <time>2015-12-05T11:15:00Z</time>
      </trkpt>
      <trkpt lat="45.4962" lon="6.65993">
        <ele>2433.23</ele>
        <time>2015-12-05T11:15:13Z</time>
      </trkpt>
      <trkpt lat="45.49631" lon="6.65986">
        <ele>2435.16</ele>
        <time>2015-12-05T11:15:29Z</time>
      </trkpt>
      <trkpt lat="45.49631" lon="6.65985">
        <ele>2435.64</ele>
        <time>2015-12-05T11:15:44Z</time>
      </trkpt>
      <trkpt lat="45.49629" lon="6.65987">
        <ele>2435.64</ele>
        <time>2015-12-05T11:16:01Z</time>
      </trkpt>
      <trkpt lat="45.4963" lon="6.65986">
        <ele>2435.64</ele>
        <time>2015-12-05T11:16:14Z</time>
      </trkpt>
      <trkpt lat="45.49632" lon="6.65986">
        <ele>2435.64</ele>
        <time>2015-12-05T11:16:30Z</time>
      </trkpt>
      <trkpt lat="45.49628" lon="6.65986">
        <ele>2435.64</ele>
        <time>2015-12-05T11:16:54Z</time>
      </trkpt>
      <trkpt lat="45.49629" lon="6.65984">
        <ele>2435.16</ele>
        <time>2015-12-05T11:17:03Z</time>
      </trkpt>
      <trkpt lat="45.49633" lon="6.65983">
        <ele>2433.71</ele>
        <time>2015-12-05T11:17:38Z</time>
      </trkpt>
      <trkpt lat="45.4963" lon="6.65984">
        <ele>2433.71</ele>
        <time>2015-12-05T11:18:08Z</time>
      </trkpt>
      <trkpt lat="45.49629" lon="6.65983">
        <ele>2433.23</ele>
        <time>2015-12-05T11:18:29Z</time>
      </trkpt>
      <trkpt lat="45.4963" lon="6.65985">
        <ele>2433.23</ele>
        <time>2015-12-05T11:19:05Z</time>
      </trkpt>
      <trkpt lat="45.4963" lon="6.65984">
        <ele>2433.23</ele>
        <time>2015-12-05T11:19:39Z</time>
      </trkpt>
      <trkpt lat="45.4963" lon="6.65984">
        <ele>2433.23</ele>
        <time>2015-12-05T11:20:09Z</time>
      </trkpt>
      <trkpt lat="45.4963" lon="6.65983">
        <ele>2433.23</ele>
        <time>2015-12-05T11:20:32Z</time>
      </trkpt>
      <trkpt lat="45.49629" lon="6.65983">
        <ele>2433.23</ele>
        <time>2015-12-05T11:21:03Z</time>
      </trkpt>
      <trkpt lat="45.49629" lon="6.65983">
        <ele>2433.23</ele>
        <time>2015-12-05T11:21:32Z</time>
      </trkpt>
      <trkpt lat="45.4963" lon="6.65983">
        <ele>2433.23</ele>
        <time>2015-12-05T11:22:06Z</time>
      </trkpt>
      <trkpt lat="45.49629" lon="6.65985">
        <ele>2432.75</ele>
        <time>2015-12-05T11:22:41Z</time>
      </trkpt>
      <trkpt lat="45.49629" lon="6.65985">
        <ele>2432.75</ele>
        <time>2015-12-05T11:23:10Z</time>
      </trkpt>
      <trkpt lat="45.49629" lon="6.65984">
        <ele>2432.75</ele>
        <time>2015-12-05T11:23:41Z</time>
      </trkpt>
      <trkpt lat="45.4963" lon="6.65984">
        <ele>2432.75</ele>
        <time>2015-12-05T11:24:20Z</time>
      </trkpt>
      <trkpt lat="45.4963" lon="6.65984">
        <ele>2432.75</ele>
        <time>2015-12-05T11:24:53Z</time>
      </trkpt>
      <trkpt lat="45.4963" lon="6.65984">
        <ele>2432.75</ele>
        <time>2015-12-05T11:25:26Z</time>
      </trkpt>
      <trkpt lat="45.49631" lon="6.65984">
        <ele>2432.75</ele>
        <time>2015-12-05T11:25:54Z</time>
      </trkpt>
      <trkpt lat="45.4963" lon="6.65985">
        <ele>2432.75</ele>
        <time>2015-12-05T11:26:15Z</time>
      </trkpt>
      <trkpt lat="45.4963" lon="6.65984">
        <ele>2434.2</ele>
        <time>2015-12-05T11:26:26Z</time>
      </trkpt>
      <trkpt lat="45.49631" lon="6.65984">
        <ele>2435.16</ele>
        <time>2015-12-05T11:26:48Z</time>
      </trkpt>
      <trkpt lat="45.49631" lon="6.65984">
        <ele>2433.23</ele>
        <time>2015-12-05T11:27:07Z</time>
      </trkpt>
      <trkpt lat="45.49629" lon="6.65984">
        <ele>2432.75</ele>
        <time>2015-12-05T11:27:28Z</time>
      </trkpt>
      <trkpt lat="45.49631" lon="6.65984">
        <ele>2434.2</ele>
        <time>2015-12-05T11:27:45Z</time>
      </trkpt>
      <trkpt lat="45.49632" lon="6.65985">
        <ele>2434.68</ele>
        <time>2015-12-05T11:27:59Z</time>
      </trkpt>
      <trkpt lat="45.49631" lon="6.65984">
        <ele>2433.23</ele>
        <time>2015-12-05T11:28:02Z</time>
      </trkpt>
      <trkpt lat="45.49632" lon="6.65986">
        <ele>2434.2</ele>
        <time>2015-12-05T11:28:10Z</time>
      </trkpt>
      <trkpt lat="45.49632" lon="6.65985">
        <ele>2434.2</ele>
        <time>2015-12-05T11:28:25Z</time>
      </trkpt>
      <trkpt lat="45.49631" lon="6.65985">
        <ele>2434.2</ele>
        <time>2015-12-05T11:28:43Z</time>
      </trkpt>
      <trkpt lat="45.4963" lon="6.65984">
        <ele>2434.2</ele>
        <time>2015-12-05T11:29:05Z</time>
      </trkpt>
      <trkpt lat="45.49633" lon="6.65983">
        <ele>2434.2</ele>
        <time>2015-12-05T11:29:13Z</time>
      </trkpt>
      <trkpt lat="45.49636" lon="6.65981">
        <ele>2433.23</ele>
        <time>2015-12-05T11:29:15Z</time>
      </trkpt>
      <trkpt lat="45.49636" lon="6.65977">
        <ele>2431.79</ele>
        <time>2015-12-05T11:29:16Z</time>
      </trkpt>
      <trkpt lat="45.49638" lon="6.65973">
        <ele>2430.35</ele>
        <time>2015-12-05T11:29:19Z</time>
      </trkpt>
      <trkpt lat="45.4964" lon="6.65972">
        <ele>2429.87</ele>
        <time>2015-12-05T11:29:20Z</time>
      </trkpt>
      <trkpt lat="45.49645" lon="6.65971">
        <ele>2427.47</ele>
        <time>2015-12-05T11:29:23Z</time>
      </trkpt>
      <trkpt lat="45.49646" lon="6.65974">
        <ele>2426.02</ele>
        <time>2015-12-05T11:29:24Z</time>
      </trkpt>
      <trkpt lat="45.49648" lon="6.65977">
        <ele>2424.58</ele>
        <time>2015-12-05T11:29:25Z</time>
      </trkpt>
      <trkpt lat="45.49649" lon="6.65977">
        <ele>2423.62</ele>
        <time>2015-12-05T11:29:26Z</time>
      </trkpt>
      <trkpt lat="45.49651" lon="6.65974">
        <ele>2423.14</ele>
        <time>2015-12-05T11:29:27Z</time>
      </trkpt>
      <trkpt lat="45.49654" lon="6.65972">
        <ele>2421.22</ele>
        <time>2015-12-05T11:29:28Z</time>
      </trkpt>
      <trkpt lat="45.49656" lon="6.65975">
        <ele>2420.74</ele>
        <time>2015-12-05T11:29:29Z</time>
      </trkpt>
      <trkpt lat="45.49658" lon="6.65978">
        <ele>2419.78</ele>
        <time>2015-12-05T11:29:30Z</time>
      </trkpt>
      <trkpt lat="45.49662" lon="6.65982">
        <ele>2418.33</ele>
        <time>2015-12-05T11:29:31Z</time>
      </trkpt>
      <trkpt lat="45.49667" lon="6.65988">
        <ele>2416.89</ele>
        <time>2015-12-05T11:29:32Z</time>
      </trkpt>
      <trkpt lat="45.4968" lon="6.66002">
        <ele>2413.53</ele>
        <time>2015-12-05T11:29:34Z</time>
      </trkpt>
      <trkpt lat="45.49695" lon="6.66019">
        <ele>2412.09</ele>
        <time>2015-12-05T11:29:37Z</time>
      </trkpt>
      <trkpt lat="45.49697" lon="6.66024">
        <ele>2412.09</ele>
        <time>2015-12-05T11:29:38Z</time>
      </trkpt>
      <trkpt lat="45.49699" lon="6.66027">
        <ele>2411.6</ele>
        <time>2015-12-05T11:29:39Z</time>
      </trkpt>
      <trkpt lat="45.497" lon="6.66029">
        <ele>2411.6</ele>
        <time>2015-12-05T11:29:40Z</time>
      </trkpt>
      <trkpt lat="45.49701" lon="6.6603">
        <ele>2411.6</ele>
        <time>2015-12-05T11:29:41Z</time>
      </trkpt>
      <trkpt lat="45.49702" lon="6.66032">
        <ele>2410.64</ele>
        <time>2015-12-05T11:29:42Z</time>
      </trkpt>
      <trkpt lat="45.49702" lon="6.66033">
        <ele>2410.64</ele>
        <time>2015-12-05T11:29:43Z</time>
      </trkpt>
      <trkpt lat="45.49703" lon="6.66034">
        <ele>2410.64</ele>
        <time>2015-12-05T11:29:44Z</time>
      </trkpt>
      <trkpt lat="45.49712" lon="6.66046">
        <ele>2407.76</ele>
        <time>2015-12-05T11:29:48Z</time>
      </trkpt>
      <trkpt lat="45.49715" lon="6.66051">
        <ele>2406.8</ele>
        <time>2015-12-05T11:29:50Z</time>
      </trkpt>
      <trkpt lat="45.4972" lon="6.66061">
        <ele>2403.43</ele>
        <time>2015-12-05T11:29:54Z</time>
      </trkpt>
      <trkpt lat="45.49725" lon="6.66067">
        <ele>2401.51</ele>
        <time>2015-12-05T11:29:56Z</time>
      </trkpt>
      <trkpt lat="45.4973" lon="6.6607">
        <ele>2401.03</ele>
        <time>2015-12-05T11:29:57Z</time>
      </trkpt>
      <trkpt lat="45.49736" lon="6.66073">
        <ele>2400.07</ele>
        <time>2015-12-05T11:29:58Z</time>
      </trkpt>
      <trkpt lat="45.49742" lon="6.66078">
        <ele>2399.11</ele>
        <time>2015-12-05T11:29:59Z</time>
      </trkpt>
      <trkpt lat="45.49749" lon="6.66084">
        <ele>2397.67</ele>
        <time>2015-12-05T11:30:00Z</time>
      </trkpt>
      <trkpt lat="45.49754" lon="6.66089">
        <ele>2397.67</ele>
        <time>2015-12-05T11:30:01Z</time>
      </trkpt>
      <trkpt lat="45.49757" lon="6.66093">
        <ele>2397.18</ele>
        <time>2015-12-05T11:30:02Z</time>
      </trkpt>
      <trkpt lat="45.49761" lon="6.66096">
        <ele>2397.18</ele>
        <time>2015-12-05T11:30:03Z</time>
      </trkpt>
      <trkpt lat="45.49764" lon="6.66098">
        <ele>2397.18</ele>
        <time>2015-12-05T11:30:04Z</time>
      </trkpt>
      <trkpt lat="45.49767" lon="6.66099">
        <ele>2397.18</ele>
        <time>2015-12-05T11:30:05Z</time>
      </trkpt>
      <trkpt lat="45.4977" lon="6.66101">
        <ele>2397.18</ele>
        <time>2015-12-05T11:30:06Z</time>
      </trkpt>
      <trkpt lat="45.49787" lon="6.6611">
        <ele>2397.67</ele>
        <time>2015-12-05T11:30:15Z</time>
      </trkpt>
      <trkpt lat="45.49791" lon="6.6611">
        <ele>2398.63</ele>
        <time>2015-12-05T11:30:17Z</time>
      </trkpt>
      <trkpt lat="45.49792" lon="6.66111">
        <ele>2398.63</ele>
        <time>2015-12-05T11:30:18Z</time>
      </trkpt>
      <trkpt lat="45.49793" lon="6.66112">
        <ele>2398.63</ele>
        <time>2015-12-05T11:30:19Z</time>
      </trkpt>
      <trkpt lat="45.49795" lon="6.66112">
        <ele>2398.63</ele>
        <time>2015-12-05T11:30:20Z</time>
      </trkpt>
      <trkpt lat="45.49796" lon="6.66112">
        <ele>2398.63</ele>
        <time>2015-12-05T11:30:21Z</time>
      </trkpt>
      <trkpt lat="45.49797" lon="6.66112">
        <ele>2399.11</ele>
        <time>2015-12-05T11:30:22Z</time>
      </trkpt>
      <trkpt lat="45.49801" lon="6.66113">
        <ele>2399.11</ele>
        <time>2015-12-05T11:30:27Z</time>
      </trkpt>
      <trkpt lat="45.49806" lon="6.66113">
        <ele>2399.59</ele>
        <time>2015-12-05T11:30:37Z</time>
      </trkpt>
      <trkpt lat="45.49808" lon="6.66113">
        <ele>2400.07</ele>
        <time>2015-12-05T11:30:39Z</time>
      </trkpt>
      <trkpt lat="45.4981" lon="6.66113">
        <ele>2400.07</ele>
        <time>2015-12-05T11:30:40Z</time>
      </trkpt>
      <trkpt lat="45.49822" lon="6.66115">
        <ele>2400.55</ele>
        <time>2015-12-05T11:30:52Z</time>
      </trkpt>
      <trkpt lat="45.49823" lon="6.66116">
        <ele>2400.55</ele>
        <time>2015-12-05T11:30:56Z</time>
      </trkpt>
      <trkpt lat="45.49828" lon="6.66116">
        <ele>2401.03</ele>
        <time>2015-12-05T11:31:04Z</time>
      </trkpt>
      <trkpt lat="45.49835" lon="6.66117">
        <ele>2401.51</ele>
        <time>2015-12-05T11:31:16Z</time>
      </trkpt>
      <trkpt lat="45.49841" lon="6.66116">
        <ele>2401.99</ele>
        <time>2015-12-05T11:31:24Z</time>
      </trkpt>
      <trkpt lat="45.49852" lon="6.66116">
        <ele>2402.95</ele>
        <time>2015-12-05T11:31:34Z</time>
      </trkpt>
      <trkpt lat="45.49861" lon="6.66116">
        <ele>2403.43</ele>
        <time>2015-12-05T11:31:45Z</time>
      </trkpt>
      <trkpt lat="45.49866" lon="6.66115">
        <ele>2403.91</ele>
        <time>2015-12-05T11:31:53Z</time>
      </trkpt>
      <trkpt lat="45.49867" lon="6.66115">
        <ele>2404.39</ele>
        <time>2015-12-05T11:31:54Z</time>
      </trkpt>
      <trkpt lat="45.49869" lon="6.66115">
        <ele>2404.39</ele>
        <time>2015-12-05T11:31:57Z</time>
      </trkpt>
      <trkpt lat="45.4987" lon="6.66115">
        <ele>2404.39</ele>
        <time>2015-12-05T11:31:58Z</time>
      </trkpt>
      <trkpt lat="45.49879" lon="6.66117">
        <ele>2404.39</ele>
        <time>2015-12-05T11:32:08Z</time>
      </trkpt>
      <trkpt lat="45.49881" lon="6.66118">
        <ele>2404.88</ele>
        <time>2015-12-05T11:32:10Z</time>
      </trkpt>
      <trkpt lat="45.49886" lon="6.6612">
        <ele>2405.36</ele>
        <time>2015-12-05T11:32:18Z</time>
      </trkpt>
      <trkpt lat="45.49888" lon="6.66123">
        <ele>2405.36</ele>
        <time>2015-12-05T11:32:22Z</time>
      </trkpt>
      <trkpt lat="45.49892" lon="6.66125">
        <ele>2405.36</ele>
        <time>2015-12-05T11:32:30Z</time>
      </trkpt>
      <trkpt lat="45.49894" lon="6.66124">
        <ele>2405.36</ele>
        <time>2015-12-05T11:32:37Z</time>
      </trkpt>
      <trkpt lat="45.49894" lon="6.66122">
        <ele>2405.36</ele>
        <time>2015-12-05T11:32:50Z</time>
      </trkpt>
      <trkpt lat="45.49897" lon="6.66115">
        <ele>2405.84</ele>
        <time>2015-12-05T11:32:56Z</time>
      </trkpt>
      <trkpt lat="45.49897" lon="6.66114">
        <ele>2405.84</ele>
        <time>2015-12-05T11:32:57Z</time>
      </trkpt>
      <trkpt lat="45.49898" lon="6.66112">
        <ele>2405.84</ele>
        <time>2015-12-05T11:32:58Z</time>
      </trkpt>
      <trkpt lat="45.499" lon="6.66109">
        <ele>2405.84</ele>
        <time>2015-12-05T11:33:01Z</time>
      </trkpt>
      <trkpt lat="45.49901" lon="6.66108">
        <ele>2405.84</ele>
        <time>2015-12-05T11:33:02Z</time>
      </trkpt>
      <trkpt lat="45.49902" lon="6.66107">
        <ele>2405.84</ele>
        <time>2015-12-05T11:33:03Z</time>
      </trkpt>
      <trkpt lat="45.49902" lon="6.66107">
        <ele>2405.84</ele>
        <time>2015-12-05T11:33:04Z</time>
      </trkpt>
      <trkpt lat="45.49903" lon="6.66105">
        <ele>2405.84</ele>
        <time>2015-12-05T11:33:05Z</time>
      </trkpt>
      <trkpt lat="45.49903" lon="6.66104">
        <ele>2406.32</ele>
        <time>2015-12-05T11:33:06Z</time>
      </trkpt>
      <trkpt lat="45.49904" lon="6.66104">
        <ele>2405.84</ele>
        <time>2015-12-05T11:33:07Z</time>
      </trkpt>
      <trkpt lat="45.49905" lon="6.66102">
        <ele>2406.32</ele>
        <time>2015-12-05T11:33:08Z</time>
      </trkpt>
      <trkpt lat="45.49907" lon="6.661">
        <ele>2406.32</ele>
        <time>2015-12-05T11:33:11Z</time>
      </trkpt>
      <trkpt lat="45.49908" lon="6.66099">
        <ele>2406.32</ele>
        <time>2015-12-05T11:33:12Z</time>
      </trkpt>
      <trkpt lat="45.49909" lon="6.66098">
        <ele>2406.32</ele>
        <time>2015-12-05T11:33:13Z</time>
      </trkpt>
      <trkpt lat="45.49911" lon="6.66097">
        <ele>2406.32</ele>
        <time>2015-12-05T11:33:15Z</time>
      </trkpt>
      <trkpt lat="45.49913" lon="6.66096">
        <ele>2406.32</ele>
        <time>2015-12-05T11:33:16Z</time>
      </trkpt>
      <trkpt lat="45.49914" lon="6.66096">
        <ele>2406.32</ele>
        <time>2015-12-05T11:33:17Z</time>
      </trkpt>
      <trkpt lat="45.49937" lon="6.66081">
        <ele>2404.88</ele>
        <time>2015-12-05T11:33:26Z</time>
      </trkpt>
      <trkpt lat="45.49954" lon="6.66071">
        <ele>2402.95</ele>
        <time>2015-12-05T11:33:35Z</time>
      </trkpt>
      <trkpt lat="45.49955" lon="6.66067">
        <ele>2402.47</ele>
        <time>2015-12-05T11:33:41Z</time>
      </trkpt>
      <trkpt lat="45.49955" lon="6.66065">
        <ele>2402.47</ele>
        <time>2015-12-05T11:33:42Z</time>
      </trkpt>
      <trkpt lat="45.49957" lon="6.66062">
        <ele>2401.99</ele>
        <time>2015-12-05T11:33:43Z</time>
      </trkpt>
      <trkpt lat="45.4996" lon="6.6606">
        <ele>2401.99</ele>
        <time>2015-12-05T11:33:44Z</time>
      </trkpt>
      <trkpt lat="45.49962" lon="6.66059">
        <ele>2401.99</ele>
        <time>2015-12-05T11:33:45Z</time>
      </trkpt>
      <trkpt lat="45.4999" lon="6.66032">
        <ele>2400.55</ele>
        <time>2015-12-05T11:33:58Z</time>
      </trkpt>
      <trkpt lat="45.5" lon="6.66028">
        <ele>2399.11</ele>
        <time>2015-12-05T11:34:02Z</time>
      </trkpt>
      <trkpt lat="45.50002" lon="6.66029">
        <ele>2399.11</ele>
        <time>2015-12-05T11:34:03Z</time>
      </trkpt>
      <trkpt lat="45.50008" lon="6.66032">
        <ele>2399.11</ele>
        <time>2015-12-05T11:34:12Z</time>
      </trkpt>
      <trkpt lat="45.50009" lon="6.66033">
        <ele>2399.11</ele>
        <time>2015-12-05T11:34:14Z</time>
      </trkpt>
      <trkpt lat="45.5001" lon="6.66035">
        <ele>2399.11</ele>
        <time>2015-12-05T11:34:15Z</time>
      </trkpt>
      <trkpt lat="45.50011" lon="6.66036">
        <ele>2399.11</ele>
        <time>2015-12-05T11:34:16Z</time>
      </trkpt>
      <trkpt lat="45.50012" lon="6.66037">
        <ele>2399.11</ele>
        <time>2015-12-05T11:34:17Z</time>
      </trkpt>
      <trkpt lat="45.50013" lon="6.66038">
        <ele>2399.11</ele>
        <time>2015-12-05T11:34:18Z</time>
      </trkpt>
      <trkpt lat="45.50016" lon="6.6604">
        <ele>2398.63</ele>
        <time>2015-12-05T11:34:23Z</time>
      </trkpt>
      <trkpt lat="45.50018" lon="6.66041">
        <ele>2397.67</ele>
        <time>2015-12-05T11:34:24Z</time>
      </trkpt>
      <trkpt lat="45.50019" lon="6.6604">
        <ele>2396.7</ele>
        <time>2015-12-05T11:34:25Z</time>
      </trkpt>
      <trkpt lat="45.5002" lon="6.6604">
        <ele>2396.7</ele>
        <time>2015-12-05T11:34:26Z</time>
      </trkpt>
      <trkpt lat="45.50022" lon="6.6604">
        <ele>2396.7</ele>
        <time>2015-12-05T11:34:27Z</time>
      </trkpt>
      <trkpt lat="45.50025" lon="6.66042">
        <ele>2395.74</ele>
        <time>2015-12-05T11:34:28Z</time>
      </trkpt>
      <trkpt lat="45.50026" lon="6.66045">
        <ele>2393.82</ele>
        <time>2015-12-05T11:34:29Z</time>
      </trkpt>
      <trkpt lat="45.50026" lon="6.66049">
        <ele>2392.38</ele>
        <time>2015-12-05T11:34:30Z</time>
      </trkpt>
      <trkpt lat="45.50027" lon="6.66053">
        <ele>2390.94</ele>
        <time>2015-12-05T11:34:31Z</time>
      </trkpt>
      <trkpt lat="45.50027" lon="6.66064">
        <ele>2386.61</ele>
        <time>2015-12-05T11:34:34Z</time>
      </trkpt>
      <trkpt lat="45.50024" lon="6.6607">
        <ele>2383.25</ele>
        <time>2015-12-05T11:34:36Z</time>
      </trkpt>
      <trkpt lat="45.50024" lon="6.66076">
        <ele>2377.96</ele>
        <time>2015-12-05T11:34:40Z</time>
      </trkpt>
      <trkpt lat="45.50024" lon="6.66076">
        <ele>2378.92</ele>
        <time>2015-12-05T11:34:52Z</time>
      </trkpt>
      <trkpt lat="45.50011" lon="6.66088">
        <ele>2375.55</ele>
        <time>2015-12-05T11:35:01Z</time>
      </trkpt>
      <trkpt lat="45.50014" lon="6.66101">
        <ele>2369.79</ele>
        <time>2015-12-05T11:35:05Z</time>
      </trkpt>
      <trkpt lat="45.50013" lon="6.66106">
        <ele>2366.42</ele>
        <time>2015-12-05T11:35:07Z</time>
      </trkpt>
      <trkpt lat="45.50015" lon="6.66112">
        <ele>2363.06</ele>
        <time>2015-12-05T11:35:10Z</time>
      </trkpt>
      <trkpt lat="45.50018" lon="6.66119">
        <ele>2358.73</ele>
        <time>2015-12-05T11:35:13Z</time>
      </trkpt>
      <trkpt lat="45.50026" lon="6.6613">
        <ele>2352.96</ele>
        <time>2015-12-05T11:35:17Z</time>
      </trkpt>
      <trkpt lat="45.50027" lon="6.66137">
        <ele>2349.12</ele>
        <time>2015-12-05T11:35:19Z</time>
      </trkpt>
      <trkpt lat="45.50029" lon="6.66145">
        <ele>2344.79</ele>
        <time>2015-12-05T11:35:21Z</time>
      </trkpt>
      <trkpt lat="45.50031" lon="6.66148">
        <ele>2340.95</ele>
        <time>2015-12-05T11:35:23Z</time>
      </trkpt>
      <trkpt lat="45.50033" lon="6.66147">
        <ele>2340.47</ele>
        <time>2015-12-05T11:35:25Z</time>
      </trkpt>
      <trkpt lat="45.50032" lon="6.66148">
        <ele>2340.95</ele>
        <time>2015-12-05T11:35:40Z</time>
      </trkpt>
      <trkpt lat="45.50033" lon="6.66149">
        <ele>2340.47</ele>
        <time>2015-12-05T11:36:01Z</time>
      </trkpt>
      <trkpt lat="45.50033" lon="6.66147">
        <ele>2340.47</ele>
        <time>2015-12-05T11:36:05Z</time>
      </trkpt>
      <trkpt lat="45.5004" lon="6.6616">
        <ele>2336.62</ele>
        <time>2015-12-05T11:36:10Z</time>
      </trkpt>
      <trkpt lat="45.50047" lon="6.66165">
        <ele>2333.26</ele>
        <time>2015-12-05T11:36:12Z</time>
      </trkpt>
      <trkpt lat="45.50054" lon="6.66177">
        <ele>2327.97</ele>
        <time>2015-12-05T11:36:15Z</time>
      </trkpt>
      <trkpt lat="45.50056" lon="6.66189">
        <ele>2322.68</ele>
        <time>2015-12-05T11:36:17Z</time>
      </trkpt>
      <trkpt lat="45.50062" lon="6.66193">
        <ele>2320.28</ele>
        <time>2015-12-05T11:36:18Z</time>
      </trkpt>
      <trkpt lat="45.50085" lon="6.66208">
        <ele>2314.99</ele>
        <time>2015-12-05T11:36:22Z</time>
      </trkpt>
      <trkpt lat="45.50101" lon="6.66217">
        <ele>2311.63</ele>
        <time>2015-12-05T11:36:25Z</time>
      </trkpt>
      <trkpt lat="45.50122" lon="6.6623">
        <ele>2308.26</ele>
        <time>2015-12-05T11:36:29Z</time>
      </trkpt>
      <trkpt lat="45.50139" lon="6.66241">
        <ele>2304.42</ele>
        <time>2015-12-05T11:36:32Z</time>
      </trkpt>
      <trkpt lat="45.50148" lon="6.66246">
        <ele>2302.98</ele>
        <time>2015-12-05T11:36:34Z</time>
      </trkpt>
      <trkpt lat="45.50166" lon="6.66264">
        <ele>2299.13</ele>
        <time>2015-12-05T11:36:40Z</time>
      </trkpt>
      <trkpt lat="45.50167" lon="6.66276">
        <ele>2295.28</ele>
        <time>2015-12-05T11:36:43Z</time>
      </trkpt>
      <trkpt lat="45.50164" lon="6.66286">
        <ele>2291.92</ele>
        <time>2015-12-05T11:36:45Z</time>
      </trkpt>
      <trkpt lat="45.50171" lon="6.66298">
        <ele>2288.56</ele>
        <time>2015-12-05T11:36:47Z</time>
      </trkpt>
      <trkpt lat="45.50176" lon="6.66323">
        <ele>2283.75</ele>
        <time>2015-12-05T11:36:51Z</time>
      </trkpt>
      <trkpt lat="45.50181" lon="6.66343">
        <ele>2280.38</ele>
        <time>2015-12-05T11:36:54Z</time>
      </trkpt>
      <trkpt lat="45.50182" lon="6.66352">
        <ele>2277.02</ele>
        <time>2015-12-05T11:36:57Z</time>
      </trkpt>
      <trkpt lat="45.50182" lon="6.66351">
        <ele>2276.54</ele>
        <time>2015-12-05T11:37:02Z</time>
      </trkpt>
      <trkpt lat="45.50188" lon="6.66356">
        <ele>2274.62</ele>
        <time>2015-12-05T11:37:06Z</time>
      </trkpt>
      <trkpt lat="45.50194" lon="6.66367">
        <ele>2270.77</ele>
        <time>2015-12-05T11:37:10Z</time>
      </trkpt>
      <trkpt lat="45.50198" lon="6.66377">
        <ele>2266.45</ele>
        <time>2015-12-05T11:37:12Z</time>
      </trkpt>
      <trkpt lat="45.50196" lon="6.66389">
        <ele>2263.08</ele>
        <time>2015-12-05T11:37:14Z</time>
      </trkpt>
      <trkpt lat="45.502" lon="6.66392">
        <ele>2260.2</ele>
        <time>2015-12-05T11:37:16Z</time>
      </trkpt>
      <trkpt lat="45.50211" lon="6.66392">
        <ele>2258.75</ele>
        <time>2015-12-05T11:37:19Z</time>
      </trkpt>
      <trkpt lat="45.5023" lon="6.66401">
        <ele>2254.91</ele>
        <time>2015-12-05T11:37:23Z</time>
      </trkpt>
      <trkpt lat="45.50231" lon="6.66411">
        <ele>2251.06</ele>
        <time>2015-12-05T11:37:25Z</time>
      </trkpt>
      <trkpt lat="45.50227" lon="6.66414">
        <ele>2250.1</ele>
        <time>2015-12-05T11:37:26Z</time>
      </trkpt>
      <trkpt lat="45.50225" lon="6.66418">
        <ele>2249.14</ele>
        <time>2015-12-05T11:37:27Z</time>
      </trkpt>
      <trkpt lat="45.50229" lon="6.66423">
        <ele>2246.26</ele>
        <time>2015-12-05T11:37:29Z</time>
      </trkpt>
      <trkpt lat="45.50232" lon="6.66424">
        <ele>2245.78</ele>
        <time>2015-12-05T11:37:30Z</time>
      </trkpt>
      <trkpt lat="45.50234" lon="6.66425">
        <ele>2245.78</ele>
        <time>2015-12-05T11:37:31Z</time>
      </trkpt>
      <trkpt lat="45.50235" lon="6.66429">
        <ele>2245.3</ele>
        <time>2015-12-05T11:37:35Z</time>
      </trkpt>
      <trkpt lat="45.50234" lon="6.66433">
        <ele>2245.3</ele>
        <time>2015-12-05T11:37:36Z</time>
      </trkpt>
      <trkpt lat="45.50231" lon="6.66438">
        <ele>2243.37</ele>
        <time>2015-12-05T11:37:37Z</time>
      </trkpt>
      <trkpt lat="45.50227" lon="6.66444">
        <ele>2241.93</ele>
        <time>2015-12-05T11:37:38Z</time>
      </trkpt>
      <trkpt lat="45.50224" lon="6.66451">
        <ele>2240.97</ele>
        <time>2015-12-05T11:37:39Z</time>
      </trkpt>
      <trkpt lat="45.50216" lon="6.66483">
        <ele>2237.61</ele>
        <time>2015-12-05T11:37:43Z</time>
      </trkpt>
      <trkpt lat="45.50219" lon="6.66502">
        <ele>2233.76</ele>
        <time>2015-12-05T11:37:46Z</time>
      </trkpt>
      <trkpt lat="45.50217" lon="6.66508">
        <ele>2233.28</ele>
        <time>2015-12-05T11:37:47Z</time>
      </trkpt>
      <trkpt lat="45.5022" lon="6.66522">
        <ele>2229.43</ele>
        <time>2015-12-05T11:37:50Z</time>
      </trkpt>
      <trkpt lat="45.50219" lon="6.66533">
        <ele>2226.07</ele>
        <time>2015-12-05T11:37:52Z</time>
      </trkpt>
      <trkpt lat="45.50222" lon="6.66543">
        <ele>2222.22</ele>
        <time>2015-12-05T11:37:54Z</time>
      </trkpt>
      <trkpt lat="45.5022" lon="6.66553">
        <ele>2219.34</ele>
        <time>2015-12-05T11:37:56Z</time>
      </trkpt>
      <trkpt lat="45.50223" lon="6.66563">
        <ele>2215.5</ele>
        <time>2015-12-05T11:37:58Z</time>
      </trkpt>
      <trkpt lat="45.50223" lon="6.66576">
        <ele>2210.69</ele>
        <time>2015-12-05T11:38:01Z</time>
      </trkpt>
      <trkpt lat="45.50228" lon="6.6658">
        <ele>2206.84</ele>
        <time>2015-12-05T11:38:03Z</time>
      </trkpt>
      <trkpt lat="45.50223" lon="6.66589">
        <ele>2204.44</ele>
        <time>2015-12-05T11:38:05Z</time>
      </trkpt>
      <trkpt lat="45.50223" lon="6.66605">
        <ele>2198.67</ele>
        <time>2015-12-05T11:38:09Z</time>
      </trkpt>
      <trkpt lat="45.50223" lon="6.66616">
        <ele>2194.35</ele>
        <time>2015-12-05T11:38:11Z</time>
      </trkpt>
      <trkpt lat="45.5023" lon="6.66624">
        <ele>2190.5</ele>
        <time>2015-12-05T11:38:13Z</time>
      </trkpt>
      <trkpt lat="45.5023" lon="6.66634">
        <ele>2186.66</ele>
        <time>2015-12-05T11:38:15Z</time>
      </trkpt>
      <trkpt lat="45.50233" lon="6.66655">
        <ele>2180.89</ele>
        <time>2015-12-05T11:38:19Z</time>
      </trkpt>
      <trkpt lat="45.50245" lon="6.66661">
        <ele>2178.48</ele>
        <time>2015-12-05T11:38:21Z</time>
      </trkpt>
      <trkpt lat="45.50255" lon="6.66669">
        <ele>2177.04</ele>
        <time>2015-12-05T11:38:23Z</time>
      </trkpt>
      <trkpt lat="45.5026" lon="6.66675">
        <ele>2176.08</ele>
        <time>2015-12-05T11:38:24Z</time>
      </trkpt>
      <trkpt lat="45.50264" lon="6.66682">
        <ele>2175.12</ele>
        <time>2015-12-05T11:38:25Z</time>
      </trkpt>
      <trkpt lat="45.5027" lon="6.66697">
        <ele>2174.16</ele>
        <time>2015-12-05T11:38:27Z</time>
      </trkpt>
      <trkpt lat="45.50281" lon="6.66728">
        <ele>2171.27</ele>
        <time>2015-12-05T11:38:31Z</time>
      </trkpt>
      <trkpt lat="45.5029" lon="6.66749">
        <ele>2167.43</ele>
        <time>2015-12-05T11:38:35Z</time>
      </trkpt>
      <trkpt lat="45.5029" lon="6.66748">
        <ele>2167.91</ele>
        <time>2015-12-05T11:38:50Z</time>
      </trkpt>
      <trkpt lat="45.5029" lon="6.66749">
        <ele>2167.43</ele>
        <time>2015-12-05T11:38:55Z</time>
      </trkpt>
      <trkpt lat="45.50311" lon="6.66759">
        <ele>2163.58</ele>
        <time>2015-12-05T11:39:04Z</time>
      </trkpt>
      <trkpt lat="45.50315" lon="6.66759">
        <ele>2163.1</ele>
        <time>2015-12-05T11:39:05Z</time>
      </trkpt>
      <trkpt lat="45.50325" lon="6.66759">
        <ele>2161.66</ele>
        <time>2015-12-05T11:39:07Z</time>
      </trkpt>
      <trkpt lat="45.50352" lon="6.66756">
        <ele>2157.82</ele>
        <time>2015-12-05T11:39:12Z</time>
      </trkpt>
      <trkpt lat="45.50359" lon="6.66773">
        <ele>2153.49</ele>
        <time>2015-12-05T11:39:15Z</time>
      </trkpt>
      <trkpt lat="45.50356" lon="6.66783">
        <ele>2152.05</ele>
        <time>2015-12-05T11:39:16Z</time>
      </trkpt>
      <trkpt lat="45.50361" lon="6.66796">
        <ele>2147.72</ele>
        <time>2015-12-05T11:39:18Z</time>
      </trkpt>
      <trkpt lat="45.50367" lon="6.66809">
        <ele>2143.88</ele>
        <time>2015-12-05T11:39:20Z</time>
      </trkpt>
      <trkpt lat="45.50373" lon="6.6683">
        <ele>2139.07</ele>
        <time>2015-12-05T11:39:23Z</time>
      </trkpt>
      <trkpt lat="45.50375" lon="6.66853">
        <ele>2133.78</ele>
        <time>2015-12-05T11:39:26Z</time>
      </trkpt>
      <trkpt lat="45.50375" lon="6.66861">
        <ele>2132.34</ele>
        <time>2015-12-05T11:39:27Z</time>
      </trkpt>
      <trkpt lat="45.50379" lon="6.66886">
        <ele>2125.13</ele>
        <time>2015-12-05T11:39:31Z</time>
      </trkpt>
      <trkpt lat="45.50382" lon="6.66893">
        <ele>2122.25</ele>
        <time>2015-12-05T11:39:33Z</time>
      </trkpt>
      <trkpt lat="45.50385" lon="6.66894">
        <ele>2121.77</ele>
        <time>2015-12-05T11:39:34Z</time>
      </trkpt>
      <trkpt lat="45.50387" lon="6.66897">
        <ele>2121.29</ele>
        <time>2015-12-05T11:39:35Z</time>
      </trkpt>
      <trkpt lat="45.50385" lon="6.66903">
        <ele>2118.88</ele>
        <time>2015-12-05T11:39:37Z</time>
      </trkpt>
      <trkpt lat="45.50382" lon="6.66905">
        <ele>2117.92</ele>
        <time>2015-12-05T11:39:38Z</time>
      </trkpt>
      <trkpt lat="45.5038" lon="6.66906">
        <ele>2118.4</ele>
        <time>2015-12-05T11:39:39Z</time>
      </trkpt>
      <trkpt lat="45.50379" lon="6.66908">
        <ele>2117.44</ele>
        <time>2015-12-05T11:39:40Z</time>
      </trkpt>
      <trkpt lat="45.50383" lon="6.66913">
        <ele>2116</ele>
        <time>2015-12-05T11:39:42Z</time>
      </trkpt>
      <trkpt lat="45.5039" lon="6.66917">
        <ele>2114.56</ele>
        <time>2015-12-05T11:39:44Z</time>
      </trkpt>
      <trkpt lat="45.50395" lon="6.66919">
        <ele>2113.6</ele>
        <time>2015-12-05T11:39:45Z</time>
      </trkpt>
      <trkpt lat="45.50404" lon="6.66922">
        <ele>2113.12</ele>
        <time>2015-12-05T11:39:47Z</time>
      </trkpt>
      <trkpt lat="45.50432" lon="6.66939">
        <ele>2109.75</ele>
        <time>2015-12-05T11:39:55Z</time>
      </trkpt>
      <trkpt lat="45.50434" lon="6.6696">
        <ele>2105.42</ele>
        <time>2015-12-05T11:39:59Z</time>
      </trkpt>
      <trkpt lat="45.5044" lon="6.6697">
        <ele>2102.06</ele>
        <time>2015-12-05T11:40:02Z</time>
      </trkpt>
      <trkpt lat="45.50442" lon="6.66983">
        <ele>2097.25</ele>
        <time>2015-12-05T11:40:05Z</time>
      </trkpt>
      <trkpt lat="45.50441" lon="6.66993">
        <ele>2093.41</ele>
        <time>2015-12-05T11:40:07Z</time>
      </trkpt>
      <trkpt lat="45.50446" lon="6.67001">
        <ele>2089.08</ele>
        <time>2015-12-05T11:40:09Z</time>
      </trkpt>
      <trkpt lat="45.50452" lon="6.67026">
        <ele>2081.39</ele>
        <time>2015-12-05T11:40:13Z</time>
      </trkpt>
      <trkpt lat="45.50452" lon="6.6704">
        <ele>2077.55</ele>
        <time>2015-12-05T11:40:15Z</time>
      </trkpt>
      <trkpt lat="45.50456" lon="6.67052">
        <ele>2073.7</ele>
        <time>2015-12-05T11:40:17Z</time>
      </trkpt>
      <trkpt lat="45.50455" lon="6.67063">
        <ele>2070.34</ele>
        <time>2015-12-05T11:40:19Z</time>
      </trkpt>
      <trkpt lat="45.50459" lon="6.67072">
        <ele>2066.97</ele>
        <time>2015-12-05T11:40:21Z</time>
      </trkpt>
      <trkpt lat="45.50462" lon="6.67079">
        <ele>2062.65</ele>
        <time>2015-12-05T11:40:23Z</time>
      </trkpt>
      <trkpt lat="45.50464" lon="6.67089">
        <ele>2059.28</ele>
        <time>2015-12-05T11:40:25Z</time>
      </trkpt>
      <trkpt lat="45.50466" lon="6.67099">
        <ele>2055.92</ele>
        <time>2015-12-05T11:40:27Z</time>
      </trkpt>
      <trkpt lat="45.50467" lon="6.6711">
        <ele>2052.07</ele>
        <time>2015-12-05T11:40:29Z</time>
      </trkpt>
      <trkpt lat="45.50467" lon="6.67119">
        <ele>2048.71</ele>
        <time>2015-12-05T11:40:31Z</time>
      </trkpt>
      <trkpt lat="45.50466" lon="6.6713">
        <ele>2045.82</ele>
        <time>2015-12-05T11:40:33Z</time>
      </trkpt>
      <trkpt lat="45.5047" lon="6.67142">
        <ele>2041.02</ele>
        <time>2015-12-05T11:40:35Z</time>
      </trkpt>
      <trkpt lat="45.50468" lon="6.67154">
        <ele>2037.65</ele>
        <time>2015-12-05T11:40:37Z</time>
      </trkpt>
      <trkpt lat="45.50471" lon="6.67168">
        <ele>2031.88</ele>
        <time>2015-12-05T11:40:39Z</time>
      </trkpt>
      <trkpt lat="45.50469" lon="6.67175">
        <ele>2029.96</ele>
        <time>2015-12-05T11:40:40Z</time>
      </trkpt>
      <trkpt lat="45.50467" lon="6.67205">
        <ele>2023.23</ele>
        <time>2015-12-05T11:40:44Z</time>
      </trkpt>
      <trkpt lat="45.50466" lon="6.67224">
        <ele>2018.91</ele>
        <time>2015-12-05T11:40:46Z</time>
      </trkpt>
      <trkpt lat="45.50472" lon="6.67267">
        <ele>2008.33</ele>
        <time>2015-12-05T11:40:50Z</time>
      </trkpt>
      <trkpt lat="45.50475" lon="6.67294">
        <ele>2004.49</ele>
        <time>2015-12-05T11:40:52Z</time>
      </trkpt>
      <trkpt lat="45.50478" lon="6.67308">
        <ele>2002.08</ele>
        <time>2015-12-05T11:40:53Z</time>
      </trkpt>
      <trkpt lat="45.50486" lon="6.67367">
        <ele>1998.24</ele>
        <time>2015-12-05T11:40:57Z</time>
      </trkpt>
      <trkpt lat="45.50486" lon="6.67438">
        <ele>1995.35</ele>
        <time>2015-12-05T11:41:03Z</time>
      </trkpt>
      <trkpt lat="45.50492" lon="6.67538">
        <ele>1992.95</ele>
        <time>2015-12-05T11:41:15Z</time>
      </trkpt>
      <trkpt lat="45.50492" lon="6.67544">
        <ele>1992.95</ele>
        <time>2015-12-05T11:41:16Z</time>
      </trkpt>
      <trkpt lat="45.50492" lon="6.67548">
        <ele>1992.95</ele>
        <time>2015-12-05T11:41:17Z</time>
      </trkpt>
      <trkpt lat="45.50492" lon="6.67552">
        <ele>1992.95</ele>
        <time>2015-12-05T11:41:18Z</time>
      </trkpt>
      <trkpt lat="45.50492" lon="6.67556">
        <ele>1992.95</ele>
        <time>2015-12-05T11:41:19Z</time>
      </trkpt>
      <trkpt lat="45.50493" lon="6.67559">
        <ele>1992.95</ele>
        <time>2015-12-05T11:41:20Z</time>
      </trkpt>
      <trkpt lat="45.50493" lon="6.67562">
        <ele>1992.95</ele>
        <time>2015-12-05T11:41:21Z</time>
      </trkpt>
      <trkpt lat="45.50494" lon="6.67567">
        <ele>1992.47</ele>
        <time>2015-12-05T11:41:23Z</time>
      </trkpt>
      <trkpt lat="45.50494" lon="6.6757">
        <ele>1992.47</ele>
        <time>2015-12-05T11:41:24Z</time>
      </trkpt>
      <trkpt lat="45.50495" lon="6.67572">
        <ele>1992.47</ele>
        <time>2015-12-05T11:41:25Z</time>
      </trkpt>
      <trkpt lat="45.50495" lon="6.67574">
        <ele>1992.47</ele>
        <time>2015-12-05T11:41:26Z</time>
      </trkpt>
      <trkpt lat="45.50495" lon="6.67577">
        <ele>1992.47</ele>
        <time>2015-12-05T11:41:27Z</time>
      </trkpt>
      <trkpt lat="45.50496" lon="6.6758">
        <ele>1993.91</ele>
        <time>2015-12-05T11:41:28Z</time>
      </trkpt>
      <trkpt lat="45.50497" lon="6.67582">
        <ele>1993.91</ele>
        <time>2015-12-05T11:41:29Z</time>
      </trkpt>
      <trkpt lat="45.50498" lon="6.67584">
        <ele>1993.91</ele>
        <time>2015-12-05T11:41:30Z</time>
      </trkpt>
      <trkpt lat="45.50498" lon="6.67587">
        <ele>1993.91</ele>
        <time>2015-12-05T11:41:31Z</time>
      </trkpt>
      <trkpt lat="45.50498" lon="6.67589">
        <ele>1993.91</ele>
        <time>2015-12-05T11:41:32Z</time>
      </trkpt>
      <trkpt lat="45.505" lon="6.67595">
        <ele>1993.91</ele>
        <time>2015-12-05T11:41:36Z</time>
      </trkpt>
      <trkpt lat="45.505" lon="6.67596">
        <ele>1993.91</ele>
        <time>2015-12-05T11:41:37Z</time>
      </trkpt>
      <trkpt lat="45.50501" lon="6.676">
        <ele>1993.91</ele>
        <time>2015-12-05T11:41:40Z</time>
      </trkpt>
      <trkpt lat="45.50502" lon="6.67602">
        <ele>1993.91</ele>
        <time>2015-12-05T11:41:41Z</time>
      </trkpt>
      <trkpt lat="45.50502" lon="6.67604">
        <ele>1993.91</ele>
        <time>2015-12-05T11:41:42Z</time>
      </trkpt>
      <trkpt lat="45.50503" lon="6.67607">
        <ele>1993.91</ele>
        <time>2015-12-05T11:41:43Z</time>
      </trkpt>
      <trkpt lat="45.50504" lon="6.6761">
        <ele>1993.91</ele>
        <time>2015-12-05T11:41:44Z</time>
      </trkpt>
      <trkpt lat="45.50505" lon="6.67615">
        <ele>1993.91</ele>
        <time>2015-12-05T11:41:45Z</time>
      </trkpt>
      <trkpt lat="45.50506" lon="6.6762">
        <ele>1993.91</ele>
        <time>2015-12-05T11:41:46Z</time>
      </trkpt>
      <trkpt lat="45.50507" lon="6.67625">
        <ele>1993.91</ele>
        <time>2015-12-05T11:41:47Z</time>
      </trkpt>
      <trkpt lat="45.50508" lon="6.6763">
        <ele>1993.91</ele>
        <time>2015-12-05T11:41:48Z</time>
      </trkpt>
      <trkpt lat="45.50511" lon="6.6764">
        <ele>1992.47</ele>
        <time>2015-12-05T11:41:50Z</time>
      </trkpt>
      <trkpt lat="45.50525" lon="6.67675">
        <ele>1992.47</ele>
        <time>2015-12-05T11:41:58Z</time>
      </trkpt>
      <trkpt lat="45.50536" lon="6.67698">
        <ele>1992.47</ele>
        <time>2015-12-05T11:42:07Z</time>
      </trkpt>
      <trkpt lat="45.50541" lon="6.67716">
        <ele>1992.47</ele>
        <time>2015-12-05T11:42:13Z</time>
      </trkpt>
      <trkpt lat="45.50542" lon="6.67718">
        <ele>1992.47</ele>
        <time>2015-12-05T11:42:14Z</time>
      </trkpt>
      <trkpt lat="45.50542" lon="6.67721">
        <ele>1992.47</ele>
        <time>2015-12-05T11:42:15Z</time>
      </trkpt>
      <trkpt lat="45.50541" lon="6.67723">
        <ele>1992.47</ele>
        <time>2015-12-05T11:42:16Z</time>
      </trkpt>
      <trkpt lat="45.50541" lon="6.67729">
        <ele>1992.47</ele>
        <time>2015-12-05T11:42:18Z</time>
      </trkpt>
      <trkpt lat="45.5054" lon="6.67732">
        <ele>1993.91</ele>
        <time>2015-12-05T11:42:19Z</time>
      </trkpt>
      <trkpt lat="45.5054" lon="6.67734">
        <ele>1993.91</ele>
        <time>2015-12-05T11:42:20Z</time>
      </trkpt>
      <trkpt lat="45.50539" lon="6.67737">
        <ele>1993.91</ele>
        <time>2015-12-05T11:42:21Z</time>
      </trkpt>
      <trkpt lat="45.50538" lon="6.67738">
        <ele>1993.91</ele>
        <time>2015-12-05T11:42:22Z</time>
      </trkpt>
      <trkpt lat="45.50536" lon="6.6774">
        <ele>1993.91</ele>
        <time>2015-12-05T11:42:23Z</time>
      </trkpt>
      <trkpt lat="45.50528" lon="6.67764">
        <ele>1993.91</ele>
        <time>2015-12-05T11:42:34Z</time>
      </trkpt>
      <trkpt lat="45.50528" lon="6.67767">
        <ele>1992.47</ele>
        <time>2015-12-05T11:42:35Z</time>
      </trkpt>
      <trkpt lat="45.50539" lon="6.67808">
        <ele>1991.03</ele>
        <time>2015-12-05T11:42:49Z</time>
      </trkpt>
      <trkpt lat="45.50545" lon="6.67835">
        <ele>1988.62</ele>
        <time>2015-12-05T11:42:58Z</time>
      </trkpt>
      <trkpt lat="45.50546" lon="6.67837">
        <ele>1988.14</ele>
        <time>2015-12-05T11:42:59Z</time>
      </trkpt>
      <trkpt lat="45.50552" lon="6.67843">
        <ele>1987.18</ele>
        <time>2015-12-05T11:43:09Z</time>
      </trkpt>
      <trkpt lat="45.50554" lon="6.67844">
        <ele>1986.7</ele>
        <time>2015-12-05T11:43:22Z</time>
      </trkpt>
      <trkpt lat="45.50556" lon="6.67843">
        <ele>1986.7</ele>
        <time>2015-12-05T11:43:35Z</time>
      </trkpt>
      <trkpt lat="45.50557" lon="6.67841">
        <ele>1986.7</ele>
        <time>2015-12-05T11:43:50Z</time>
      </trkpt>
      <trkpt lat="45.50558" lon="6.67845">
        <ele>1986.7</ele>
        <time>2015-12-05T11:44:02Z</time>
      </trkpt>
      <trkpt lat="45.50556" lon="6.67845">
        <ele>1986.7</ele>
        <time>2015-12-05T11:44:14Z</time>
      </trkpt>
      <trkpt lat="45.5056" lon="6.6784">
        <ele>1986.7</ele>
        <time>2015-12-05T11:44:36Z</time>
      </trkpt>
      <trkpt lat="45.50552" lon="6.67839">
        <ele>1986.7</ele>
        <time>2015-12-05T11:45:04Z</time>
      </trkpt>
      <trkpt lat="45.50553" lon="6.67842">
        <ele>1986.7</ele>
        <time>2015-12-05T11:45:17Z</time>
      </trkpt>
      <trkpt lat="45.50554" lon="6.67841">
        <ele>1986.7</ele>
        <time>2015-12-05T11:45:33Z</time>
      </trkpt>
      <trkpt lat="45.50555" lon="6.6784">
        <ele>1986.7</ele>
        <time>2015-12-05T11:45:47Z</time>
      </trkpt>
      <trkpt lat="45.50554" lon="6.67844">
        <ele>1986.7</ele>
        <time>2015-12-05T11:46:03Z</time>
      </trkpt>
      <trkpt lat="45.50554" lon="6.67844">
        <ele>1986.7</ele>
        <time>2015-12-05T11:46:17Z</time>
      </trkpt>
      <trkpt lat="45.50554" lon="6.67843">
        <ele>1986.7</ele>
        <time>2015-12-05T11:46:39Z</time>
      </trkpt>
      <trkpt lat="45.50555" lon="6.67843">
        <ele>1986.7</ele>
        <time>2015-12-05T11:46:54Z</time>
      </trkpt>
      <trkpt lat="45.50556" lon="6.6785">
        <ele>1986.7</ele>
        <time>2015-12-05T11:47:08Z</time>
      </trkpt>
      <trkpt lat="45.5056" lon="6.67857">
        <ele>1986.7</ele>
        <time>2015-12-05T11:47:26Z</time>
      </trkpt>
      <trkpt lat="45.5056" lon="6.67863">
        <ele>1986.7</ele>
        <time>2015-12-05T11:47:32Z</time>
      </trkpt>
      <trkpt lat="45.50562" lon="6.67873">
        <ele>1986.7</ele>
        <time>2015-12-05T11:47:42Z</time>
      </trkpt>
      <trkpt lat="45.50577" lon="6.67879">
        <ele>1990.55</ele>
        <time>2015-12-05T11:47:54Z</time>
      </trkpt>
      <trkpt lat="45.50568" lon="6.67902">
        <ele>1991.03</ele>
        <time>2015-12-05T11:48:07Z</time>
      </trkpt>
      <trkpt lat="45.50565" lon="6.67909">
        <ele>1991.03</ele>
        <time>2015-12-05T11:48:12Z</time>
      </trkpt>
      <trkpt lat="45.50563" lon="6.67911">
        <ele>1991.03</ele>
        <time>2015-12-05T11:48:25Z</time>
      </trkpt>
      <trkpt lat="45.50563" lon="6.67913">
        <ele>1989.1</ele>
        <time>2015-12-05T11:48:30Z</time>
      </trkpt>
      <trkpt lat="45.50562" lon="6.67917">
        <ele>1990.55</ele>
        <time>2015-12-05T11:48:50Z</time>
      </trkpt>
      <trkpt lat="45.50561" lon="6.67916">
        <ele>1990.55</ele>
        <time>2015-12-05T11:48:55Z</time>
      </trkpt>
    </trkseg>
  </trk>
</gpx>